Provisional Data: Chest Creek near Patton, PA


Please select a monitoring station.
Please select start date.
Please select start date.

Toggle Unit: C/F Toggle Unit: C/F
Sample Time Temperature (C) Temperature (F) Specific Conductivity (mS/cm) pH   Turbidity (NTU+) DO (mg/L)
3/7/2021 12:00:00 AM 0.59 33.062 0.186 7.11 5.64 13.45
3/7/2021 12:15:00 AM 0.57 33.026 0.186 7.12 5.59 13.45
3/7/2021 12:30:00 AM 0.55 32.99 0.186 7.12 5.68 13.46
3/7/2021 12:45:00 AM 0.53 32.954 0.186 7.12 6.06 13.47
3/7/2021 1:00:00 AM 0.5 32.9 0.186 7.11 6.14 13.47
3/7/2021 1:15:00 AM 0.48 32.864 0.186 7.12 5.82 13.48
3/7/2021 1:30:00 AM 0.45 32.81 0.186 7.12 5.67 13.49
3/7/2021 1:45:00 AM 0.42 32.756 0.186 7.12 5.67 13.5
3/7/2021 2:00:00 AM 0.39 32.702 0.186 7.12 5.84 13.5
3/7/2021 2:15:00 AM 0.36 32.648 0.186 7.12 6.28 13.51
3/7/2021 2:30:00 AM 0.33 32.594 0.186 7.12 6.53 13.52
3/7/2021 2:45:00 AM 0.3 32.54 0.186 7.12 6.44 13.53
3/7/2021 3:00:00 AM 0.27 32.486 0.185 7.12 6.57 13.54
3/7/2021 3:15:00 AM 0.24 32.432 0.186 7.12 6.76 13.54
3/7/2021 3:30:00 AM 0.21 32.378 0.186 7.12 7.31 13.55
3/7/2021 3:45:00 AM 0.18 32.324 0.185 7.12 7.13 13.56
3/7/2021 4:00:00 AM 0.16 32.288 0.185 7.09 7.1 13.57
3/7/2021 4:15:00 AM 0.13 32.234 0.186 7.12 7.06 13.58
3/7/2021 4:30:00 AM 0.11 32.198 0.186 7.12 7.39 13.59
3/7/2021 4:45:00 AM 0.09 32.162 0.186 7.12 7.21 13.6
3/7/2021 5:00:00 AM 0.08 32.144 0.186 7.12 6.75 13.6
3/7/2021 5:15:00 AM 0.07 32.126 0.186 7.11 6.62 13.61
3/7/2021 5:30:00 AM 0.08 32.144 0.189 7.12 7.17 13.61
3/7/2021 5:45:00 AM 0.08 32.144 0.19 7.11 7.6 13.6
3/7/2021 6:00:00 AM 0.09 32.162 0.192 7.1 6.97 13.6
3/7/2021 6:15:00 AM 0.1 32.18 0.193 7.11 6.83 13.61
3/7/2021 6:30:00 AM 0.1 32.18 0.194 7.09 8.17 13.61
3/7/2021 6:45:00 AM 0.1 32.18 0.194 7.1 8.56 13.62
3/7/2021 7:00:00 AM 0.1 32.18 0.194 7.1 8.12 13.63
3/7/2021 7:15:00 AM 0.11 32.198 0.194 7.1 7.24 13.65
3/7/2021 7:30:00 AM 0.13 32.234 0.196 7.1 7.13 13.65
3/7/2021 7:45:00 AM 0.17 32.306 0.197 7.1 6.92 13.66
3/7/2021 8:00:00 AM 0.22 32.396 0.199 7.1 6.97 13.67
3/7/2021 8:15:00 AM 0.27 32.486 0.199 7.11 6.54 13.68
3/7/2021 8:30:00 AM 0.33 32.594 0.2 7.1 7.01 13.68
3/7/2021 8:45:00 AM 0.41 32.738 0.2 7.1 6.8 13.68
3/7/2021 9:00:00 AM 0.49 32.882 0.199 7.1 6.67 13.67
3/7/2021 9:15:00 AM 0.51 32.918 0.195 7.1 7.65 13.67
3/7/2021 9:30:00 AM 0.51 32.918 0.191 7.11 7.01 13.68
3/7/2021 9:45:00 AM 0.58 33.044 0.19 7.1 7.47 13.65
3/7/2021 10:00:00 AM 0.73 33.314 0.193 7.11 8.08 13.61
3/7/2021 10:15:00 AM 0.94 33.692 0.196 7.1 7.44 13.57
3/7/2021 10:30:00 AM 1.15 34.07 0.197 7.1 7.11 13.54
3/7/2021 10:45:00 AM 1.33 34.394 0.198 7.09 6.55 13.49
3/7/2021 11:00:00 AM 1.49 34.682 0.199 7.09 6.76 13.47
3/7/2021 11:15:00 AM 1.63 34.934 0.199 7.1 6.72 13.44
3/7/2021 11:30:00 AM 1.73 35.114 0.197 7.1 7.03 13.43
3/7/2021 11:45:00 AM 1.79 35.222 0.196 7.1 6.84 13.43
3/7/2021 12:00:00 PM 1.89 35.402 0.195 7.1 6.99 13.42
3/7/2021 12:15:00 PM 1.98 35.564 0.195 7.1 6.54 13.43
3/7/2021 12:30:00 PM 2.1 35.78 0.196 7.11 7.02 13.41
3/7/2021 12:45:00 PM 2.23 36.014 0.197 7.1 6.42 13.4
3/7/2021 1:00:00 PM 2.31 36.158 0.198 7.12 6.58 13.4
3/7/2021 1:15:00 PM 2.41 36.338 0.198 7.12 6.42 13.38
3/7/2021 1:30:00 PM 2.46 36.428 0.198 7.12 6.76 13.37
3/7/2021 1:45:00 PM 2.51 36.518 0.197 7.13 6.95 13.36
3/7/2021 2:00:00 PM 2.52 36.536 0.196 7.13 7.05 13.35
3/7/2021 2:15:00 PM 2.51 36.518 0.194 7.13 7.24 13.35
3/7/2021 2:30:00 PM 2.52 36.536 0.193 7.12 7.69 13.34
3/7/2021 2:45:00 PM 2.52 36.536 0.193 7.13 7.62 13.34
3/7/2021 3:00:00 PM 2.49 36.482 0.192 7.13 7.18 13.34
3/7/2021 3:15:00 PM 2.46 36.428 0.19 7.13 7.71 13.34
3/7/2021 3:30:00 PM 2.44 36.392 0.19 7.11 7.19 13.34
3/7/2021 3:45:00 PM 2.4 36.32 0.189 7.13 7.5 13.33
3/7/2021 4:00:00 PM 2.37 36.266 0.189 7.13 7.79 13.33
3/7/2021 4:15:00 PM 2.3 36.14 0.188 7.13 7.26 13.33
3/7/2021 4:30:00 PM 2.22 35.996 0.188 7.13 7.37 13.33
3/7/2021 4:45:00 PM 2.13 35.834 0.188 7.12 7.59 13.33
3/7/2021 5:00:00 PM 2.03 35.654 0.189 7.11 7.19 13.35
3/7/2021 5:15:00 PM 1.93 35.474 0.189 7.12 7.34 13.35
3/7/2021 5:30:00 PM 1.85 35.33 0.188 7.12 7.3 13.35
3/7/2021 5:45:00 PM 1.77 35.186 0.188 7.08 6.97 13.37
3/7/2021 6:00:00 PM 1.71 35.078 0.187 7.12 7.5 13.36
3/7/2021 6:15:00 PM 1.66 34.988 0.186 7.12 7.74 13.37
3/7/2021 6:30:00 PM 1.62 34.916 0.185 7.12 7.22 13.36
3/7/2021 6:45:00 PM 1.59 34.862 0.185 7.12 6.77 13.35
3/7/2021 7:00:00 PM 1.56 34.808 0.184 7.12 7.26 13.33
3/7/2021 7:15:00 PM 1.54 34.772 0.184 7.12 7.81 13.32
3/7/2021 7:30:00 PM 1.52 34.736 0.184 7.12 8.19 13.32
3/7/2021 7:45:00 PM 1.5 34.7 0.184 7.12 7.57 13.32
3/7/2021 8:00:00 PM 1.47 34.646 0.184 7.13 8.04 13.33
3/7/2021 8:15:00 PM 1.44 34.592 0.184 7.11 7.93 13.33
3/7/2021 8:30:00 PM 1.41 34.538 0.184 7.13 7.18 13.34
3/7/2021 8:45:00 PM 1.39 34.502 0.184 7.13 7.41 13.34
3/7/2021 9:00:00 PM 1.37 34.466 0.185 7.14 7.17 13.34
3/7/2021 9:15:00 PM 1.35 34.43 0.185 7.14 7.45 13.33
3/7/2021 9:30:00 PM 1.33 34.394 0.185 7.14 7.71 13.34
3/7/2021 9:45:00 PM 1.31 34.358 0.186 7.14 8.04 13.34
3/7/2021 10:00:00 PM 1.29 34.322 0.186 7.14 8.31 13.34
3/7/2021 10:15:00 PM 1.26 34.268 0.187 7.13 7.77 13.35
3/7/2021 10:30:00 PM 1.23 34.214 0.187 7.14 7.54 13.35
3/7/2021 10:45:00 PM 1.19 34.142 0.188 7.14 7.23 13.36
3/7/2021 11:00:00 PM 1.15 34.07 0.188 7.14 7.69 13.37
3/7/2021 11:15:00 PM 1.11 33.998 0.188 7.14 7.89 13.38
3/7/2021 11:30:00 PM 1.07 33.926 0.188 7.14 7.04 13.39
3/7/2021 11:45:00 PM 1.03 33.854 0.188 7.14 7.66 13.4
3/8/2021 12:00:00 AM 0.99 33.782 0.188 7.14 7.01 13.42
3/8/2021 12:15:00 AM 0.95 33.71 0.188 7.15 7.25 13.41
3/8/2021 12:30:00 AM 0.9 33.62 0.188 7.15 6.98 13.44
3/8/2021 12:45:00 AM 0.86 33.548 0.188 7.14 7.18 13.44
3/8/2021 1:00:00 AM 0.82 33.476 0.188 7.15 7.47 13.45
3/8/2021 1:15:00 AM 0.79 33.422 0.188 7.13 6.79 13.47
3/8/2021 1:30:00 AM 0.75 33.35 0.188 7.15 7.04 13.47
3/8/2021 1:45:00 AM 0.71 33.278 0.188 7.15 6.77 13.47
3/8/2021 2:00:00 AM 0.68 33.224 0.189 7.14 6.9 13.48
3/8/2021 2:15:00 AM 0.64 33.152 0.189 7.15 6.65 13.49
3/8/2021 2:30:00 AM 0.6 33.08 0.189 7.15 6.53 13.5
3/8/2021 2:45:00 AM 0.57 33.026 0.189 7.15 6.42 13.51
3/8/2021 3:00:00 AM 0.54 32.972 0.19 7.15 6.73 13.52
3/8/2021 3:15:00 AM 0.5 32.9 0.189 7.14 6.36 13.53
3/8/2021 3:30:00 AM 0.46 32.828 0.19 7.15 6.85 13.53
3/8/2021 3:45:00 AM 0.43 32.774 0.19 7.14 6.69 13.55
3/8/2021 4:00:00 AM 0.39 32.702 0.19 7.14 6.18 13.55
3/8/2021 4:15:00 AM 0.36 32.648 0.19 7.15 6.65 13.56
3/8/2021 4:30:00 AM 0.32 32.576 0.19 7.14 6.3 13.57
3/8/2021 4:45:00 AM 0.28 32.504 0.19 7.15 6.41 13.59
3/8/2021 5:00:00 AM 0.25 32.45 0.19 7.15 6.38 13.59
3/8/2021 5:15:00 AM 0.21 32.378 0.19 7.13 6.62 13.61
3/8/2021 5:30:00 AM 0.18 32.324 0.191 7.15 5.7 13.62
3/8/2021 5:45:00 AM 0.15 32.27 0.19 7.15 6.16 13.63
3/8/2021 6:00:00 AM 0.12 32.216 0.19 7.15 6.03 13.64
3/8/2021 6:15:00 AM 0.1 32.18 0.191 7.15 6.46 13.65
3/8/2021 6:30:00 AM 0.08 32.144 0.191 7.14 6.74 13.65
3/8/2021 6:45:00 AM 0.08 32.144 0.192 7.13 8.25 13.66
3/8/2021 7:00:00 AM 0.09 32.162 0.194 7.13 8.43 13.66
3/8/2021 7:15:00 AM 0.11 32.198 0.196 7.13 7.38 13.67
3/8/2021 7:30:00 AM 0.14 32.252 0.197 7.13 7.1 13.68
3/8/2021 7:45:00 AM 0.18 32.324 0.199 7.13 6.71 13.68
3/8/2021 8:00:00 AM 0.23 32.414 0.199 7.12 6.72 13.68
3/8/2021 8:15:00 AM 0.29 32.522 0.2 7.13 6.59 13.69
3/8/2021 8:30:00 AM 0.34 32.612 0.2 7.12 6.73 13.69
3/8/2021 8:45:00 AM 0.43 32.774 0.2 7.12 6.15 13.69
3/8/2021 9:00:00 AM 0.52 32.936 0.199 7.13 6.05 13.68
3/8/2021 9:15:00 AM 0.6 33.08 0.197 7.13 6.64 13.68
3/8/2021 9:30:00 AM 0.67 33.206 0.196 7.13 6.01 13.67
3/8/2021 9:45:00 AM 0.83 33.494 0.198 7.12 6.12 13.64
3/8/2021 10:00:00 AM 1.04 33.872 0.2 7.12 6.24 13.61
3/8/2021 10:15:00 AM 1.27 34.286 0.202 7.12 6.17 13.57
3/8/2021 10:30:00 AM 1.47 34.646 0.202 7.12 5.86 13.54
3/8/2021 10:45:00 AM 1.65 34.97 0.203 7.12 5.42 13.51
3/8/2021 11:00:00 AM 1.83 35.294 0.204 7.12 6.1 13.48
3/8/2021 11:15:00 AM 1.99 35.582 0.203 7.12 5.74 13.45
3/8/2021 11:30:00 AM 1.94 35.492 0.201 7.12 6.3 13.45
3/8/2021 11:45:00 AM 1.95 35.51 0.201 7.13 5.66 13.45
3/8/2021 12:00:00 PM 2.02 35.636 0.201 7.13 6.11 13.46
3/8/2021 12:15:00 PM 2.11 35.798 0.204 7.13 6.16 13.46
3/8/2021 12:30:00 PM 2.25 36.05 0.205 7.14 5.9 13.45
3/8/2021 12:45:00 PM 2.28 36.104 0.206 7.14 5.83 13.44
3/8/2021 1:00:00 PM 2.37 36.266 0.207 7.14 5.65 13.42
3/8/2021 1:15:00 PM 2.48 36.464 0.208 7.14 5.65 13.39
3/8/2021 1:30:00 PM 2.56 36.608 0.206 7.14 5.58 13.37
3/8/2021 1:45:00 PM 2.69 36.842 0.206 7.13 5.43 13.36
3/8/2021 2:00:00 PM 2.77 36.986 0.206 7.14 5.64 13.33
3/8/2021 2:15:00 PM 2.82 37.076 0.206 7.14 5.83 13.31
3/8/2021 2:30:00 PM 2.91 37.238 0.205 7.14 5.84 13.29
3/8/2021 2:45:00 PM 2.97 37.346 0.204 7.14 5.94 13.27
3/8/2021 3:00:00 PM 3.02 37.436 0.203 7.14 5.81 13.25
3/8/2021 3:15:00 PM 2.99 37.382 0.202 7.14 6.22 13.25
3/8/2021 3:30:00 PM 3 37.4 0.202 7.14 5.73 13.24
3/8/2021 3:45:00 PM 2.95 37.31 0.2 7.15 6.19 13.24
3/8/2021 4:00:00 PM 2.9 37.22 0.197 7.14 5.97 13.24
3/8/2021 4:15:00 PM 2.88 37.184 0.197 7.15 5.98 13.24
3/8/2021 4:30:00 PM 2.82 37.076 0.195 7.13 6.4 13.24
3/8/2021 4:45:00 PM 2.77 36.986 0.195 7.14 6.21 13.24
3/8/2021 5:00:00 PM 2.71 36.878 0.193 7.15 6.2 13.23
3/8/2021 5:15:00 PM 2.65 36.77 0.192 7.15 7.47 13.23
3/8/2021 5:30:00 PM 2.59 36.662 0.192 7.14 7.03 13.23
3/8/2021 5:45:00 PM 2.54 36.572 0.192 7.14 7.04 13.23
3/8/2021 6:00:00 PM 2.47 36.446 0.192 7.15 6.93 13.23
3/8/2021 6:15:00 PM 2.4 36.32 0.192 7.14 6.62 13.23
3/8/2021 6:30:00 PM 2.33 36.194 0.193 7.15 6.27 13.23
3/8/2021 6:45:00 PM 2.28 36.104 0.193 7.14 6.46 13.22
3/8/2021 7:00:00 PM 2.24 36.032 0.193 7.14 6.47 13.21
3/8/2021 7:15:00 PM 2.21 35.978 0.193 7.14 6.73 13.2
3/8/2021 7:30:00 PM 2.19 35.942 0.193 7.15 6.76 13.19
3/8/2021 7:45:00 PM 2.17 35.906 0.192 7.15 7.05 13.18
3/8/2021 8:00:00 PM 2.14 35.852 0.192 7.14 6.95 13.18
3/8/2021 8:15:00 PM 2.12 35.816 0.192 7.15 7.35 13.18
3/8/2021 8:30:00 PM 2.1 35.78 0.192 7.15 7.14 13.17
3/8/2021 8:45:00 PM 2.08 35.744 0.192 7.15 6.98 13.16
3/8/2021 9:00:00 PM 2.05 35.69 0.191 7.15 6.87 13.16
3/8/2021 9:15:00 PM 2.04 35.672 0.192 7.15 6.56 13.15
3/8/2021 9:30:00 PM 2.03 35.654 0.192 7.15 7.38 13.14
3/8/2021 9:45:00 PM 2.02 35.636 0.191 7.15 7.26 13.14
3/8/2021 10:00:00 PM 2.02 35.636 0.191 7.16 6.52 13.14
3/8/2021 10:15:00 PM 2.01 35.618 0.191 7.16 6.85 13.13
3/8/2021 10:30:00 PM 2.01 35.618 0.192 7.15 6.73 13.12
3/8/2021 10:45:00 PM 2.02 35.636 0.192 7.15 6.74 13.11
3/8/2021 11:00:00 PM 2.03 35.654 0.192 7.15 6.9 13.11
3/8/2021 11:15:00 PM 2.03 35.654 0.193 7.15 6.89 13.11
3/8/2021 11:30:00 PM 2.05 35.69 0.193 7.15 6.62 13.11
3/8/2021 11:45:00 PM 2.05 35.69 0.193 7.15 6.98 13.1
3/9/2021 12:00:00 AM 2.06 35.708 0.194 7.15 6.75 13.1
3/9/2021 12:15:00 AM 2.05 35.69 0.194 7.15 6.34 13.1
3/9/2021 12:30:00 AM 2.03 35.654 0.194 7.15 6.28 13.1
3/9/2021 12:45:00 AM 2.01 35.618 0.195 7.14 6.3 13.1
3/9/2021 1:00:00 AM 2 35.6 0.195 7.15 6.41 13.1
3/9/2021 1:15:00 AM 2 35.6 0.195 7.14 6.49 13.1
3/9/2021 1:30:00 AM 2 35.6 0.195 7.15 6.3 13.11
3/9/2021 1:45:00 AM 1.99 35.582 0.195 7.15 6.46 13.1
3/9/2021 2:00:00 AM 1.99 35.582 0.195 7.15 7.84 13.1
3/9/2021 2:15:00 AM 2 35.6 0.195 7.14 6.85 13.09
3/9/2021 2:30:00 AM 2.01 35.618 0.195 7.15 6.38 13.09
3/9/2021 2:45:00 AM 2.01 35.618 0.195 7.14 6.49 13.08
3/9/2021 3:00:00 AM 2.02 35.636 0.195 7.15 6.75 13.09
3/9/2021 3:15:00 AM 2.02 35.636 0.195 7.15 6.81 13.08
3/9/2021 3:30:00 AM 2.03 35.654 0.195 7.15 6.38 13.07
3/9/2021 3:45:00 AM 2.02 35.636 0.195 7.15 6.49 13.07
3/9/2021 4:00:00 AM 2.02 35.636 0.195 7.15 6.61 13.07
3/9/2021 4:15:00 AM 2.01 35.618 0.195 7.15 6.48 13.06
3/9/2021 4:30:00 AM 2.02 35.636 0.196 7.15 6.1 13.06
3/9/2021 4:45:00 AM 2.02 35.636 0.195 7.15 6.1 13.06
3/9/2021 5:00:00 AM 2.02 35.636 0.196 7.14 6.24 13.06
3/9/2021 5:15:00 AM 2.01 35.618 0.196 7.15 5.85 13.06
3/9/2021 5:30:00 AM 2 35.6 0.196 7.15 6.52 13.06
3/9/2021 5:45:00 AM 1.99 35.582 0.196 7.15 6.35 13.06
3/9/2021 6:00:00 AM 1.98 35.564 0.197 7.14 5.82 13.06
3/9/2021 6:15:00 AM 1.97 35.546 0.197 7.15 5.62 13.07
3/9/2021 6:30:00 AM 1.96 35.528 0.197 7.15 6.07 13.06
3/9/2021 6:45:00 AM 1.95 35.51 0.197 7.15 5.87 13.07
3/9/2021 7:00:00 AM 1.95 35.51 0.197 7.15 5.65 13.08
3/9/2021 7:15:00 AM 1.95 35.51 0.197 7.15 5.89 13.08
3/9/2021 7:30:00 AM 1.97 35.546 0.197 7.15 6.36 13.09
3/9/2021 7:45:00 AM 1.99 35.582 0.197 7.16 6.11 13.1
3/9/2021 8:00:00 AM 2.03 35.654 0.197 7.16 5.63 13.11
3/9/2021 8:15:00 AM 2.09 35.762 0.197 7.16 5.89 13.11
3/9/2021 8:30:00 AM 2.16 35.888 0.196 7.16 6.19 13.12
3/9/2021 8:45:00 AM 2.26 36.068 0.197 7.16 5.81 13.12
3/9/2021 9:00:00 AM 2.38 36.284 0.197 7.16 5.93 13.11
3/9/2021 9:15:00 AM 2.51 36.518 0.197 7.17 5.98 13.1
3/9/2021 9:30:00 AM 2.63 36.734 0.196 7.17 6.49 13.08
3/9/2021 9:45:00 AM 2.78 37.004 0.196 7.17 5.99 13.07
3/9/2021 10:00:00 AM 2.94 37.292 0.196 7.16 6.12 13.05
3/9/2021 10:15:00 AM 3.12 37.616 0.196 7.17 6.09 13.03
3/9/2021 10:30:00 AM 3.29 37.922 0.196 7.17 5.82 13
3/9/2021 10:45:00 AM 3.45 38.21 0.195 7.17 5.68 12.97
3/9/2021 11:00:00 AM 3.61 38.498 0.196 7.17 5.51 12.95
3/9/2021 11:15:00 AM 3.76 38.768 0.196 7.16 5.57 12.93
3/9/2021 11:30:00 AM 3.89 39.002 0.195 7.17 5.94 12.91
3/9/2021 11:45:00 AM 4.04 39.272 0.195 7.17 6.08 12.89
3/9/2021 12:00:00 PM 4.21 39.578 0.196 7.17 6.1 12.86
3/9/2021 12:15:00 PM 4.34 39.812 0.195 7.17 5.82 12.84
3/9/2021 12:30:00 PM 4.49 40.082 0.196 7.17 5.61 12.81
3/9/2021 12:45:00 PM 4.61 40.298 0.195 7.17 6.19 12.78
3/9/2021 1:00:00 PM 4.77 40.586 0.196 7.17 6.24 12.75
3/9/2021 1:15:00 PM 4.93 40.874 0.197 7.18 5.86 12.73
3/9/2021 1:30:00 PM 5.11 41.198 0.196 7.18 6.43 12.7
3/9/2021 1:45:00 PM 5.29 41.522 0.197 7.18 6.43 12.67
3/9/2021 2:00:00 PM 5.44 41.792 0.197 7.19 6.29 12.63
3/9/2021 2:15:00 PM 5.53 41.954 0.198 7.18 6.09 12.6
3/9/2021 2:30:00 PM 5.62 42.116 0.198 7.19 6.35 12.57
3/9/2021 2:45:00 PM 5.65 42.17 0.198 7.19 6.22 12.55
3/9/2021 3:00:00 PM 5.69 42.242 0.199 7.18 6.54 12.52
3/9/2021 3:15:00 PM 5.71 42.278 0.2 7.2 6.44 12.51
3/9/2021 3:30:00 PM 5.71 42.278 0.201 7.2 6.71 12.48
3/9/2021 3:45:00 PM 5.67 42.206 0.203 7.21 6.73 12.47
3/9/2021 4:00:00 PM 5.65 42.17 0.204 7.21 7.14 12.45
3/9/2021 4:15:00 PM 5.65 42.17 0.205 7.21 7.53 12.44
3/9/2021 4:30:00 PM 5.65 42.17 0.207 7.22 7.85 12.43
3/9/2021 4:45:00 PM 5.6 42.08 0.209 7.22 8.23 12.41
3/9/2021 5:00:00 PM 5.53 41.954 0.211 7.23 8.92 12.41
3/9/2021 5:15:00 PM 5.45 41.81 0.211 7.23 9.08 12.4
3/9/2021 5:30:00 PM 5.36 41.648 0.21 7.24 9.29 12.39
3/9/2021 5:45:00 PM 5.26 41.468 0.208 7.24 9.63 12.38
3/9/2021 6:00:00 PM 5.16 41.288 0.206 7.24 10.32 12.38
3/9/2021 6:15:00 PM 5.05 41.09 0.204 7.24 10.78 12.38
3/9/2021 6:30:00 PM 4.94 40.892 0.202 7.23 11.49 12.39
3/9/2021 6:45:00 PM 4.85 40.73 0.2 7.23 11.4 12.39
3/9/2021 7:00:00 PM 4.78 40.604 0.198 7.22 12.13 12.4
3/9/2021 7:15:00 PM 4.72 40.496 0.196 7.22 11.81 12.41
3/9/2021 7:30:00 PM 4.66 40.388 0.194 7.22 11.93 12.41
3/9/2021 7:45:00 PM 4.62 40.316 0.193 7.22 12.07 12.41
3/9/2021 8:00:00 PM 4.58 40.244 0.192 7.23 11.76 12.41
3/9/2021 8:15:00 PM 4.55 40.19 0.191 7.22 10.97 12.41
3/9/2021 8:30:00 PM 4.53 40.154 0.19 7.22 11.82 12.4
3/9/2021 8:45:00 PM 4.5 40.1 0.189 7.22 10.78 12.4
3/9/2021 9:00:00 PM 4.48 40.064 0.188 7.22 11.03 12.4
3/9/2021 9:15:00 PM 4.46 40.028 0.187 7.22 12.21 12.39
3/9/2021 9:30:00 PM 4.44 39.992 0.186 7.21 11.77 12.38
3/9/2021 9:45:00 PM 4.42 39.956 0.185 7.21 11.62 12.37
3/9/2021 10:00:00 PM 4.4 39.92 0.184 7.2 12.09 12.36
3/9/2021 10:15:00 PM 4.38 39.884 0.183 7.2 11.64 12.36
3/9/2021 10:30:00 PM 4.36 39.848 0.182 7.2 12.63 12.35
3/9/2021 10:45:00 PM 4.34 39.812 0.182 7.2 11.69 12.35
3/9/2021 11:00:00 PM 4.31 39.758 0.181 7.2 12.78 12.35
3/9/2021 11:15:00 PM 4.29 39.722 0.18 7.19 13.56 12.35
3/9/2021 11:30:00 PM 4.27 39.686 0.18 7.2 13.75 12.35
3/9/2021 11:45:00 PM 4.24 39.632 0.179 7.2 13.68 12.35
3/10/2021 12:00:00 AM 4.22 39.596 0.179 7.19 14.67 12.36
3/10/2021 12:15:00 AM 4.19 39.542 0.178 7.19 12.5 12.36
3/10/2021 12:30:00 AM 4.16 39.488 0.177 7.19 14.78 12.37
3/10/2021 12:45:00 AM 4.13 39.434 0.177 7.19 15.46 12.37
3/10/2021 1:00:00 AM 4.09 39.362 0.176 7.19 15.29 12.38
3/10/2021 1:15:00 AM 4.06 39.308 0.175 7.19 114.78 12.38
3/10/2021 1:30:00 AM 4.03 39.254 0.175 7.19 16.57 12.38
3/10/2021 1:45:00 AM 4 39.2 0.174 7.19 16.49 12.39
3/10/2021 2:00:00 AM 3.97 39.146 0.173 7.18 17.04 12.4
3/10/2021 2:15:00 AM 3.94 39.092 0.173 7.19 17.21 12.4
3/10/2021 2:30:00 AM 3.91 39.038 0.172 7.19 15.44 12.41
3/10/2021 2:45:00 AM 3.88 38.984 0.172 7.19 17.7 12.42
3/10/2021 3:00:00 AM 3.84 38.912 0.172 7.19 17.16 12.42
3/10/2021 3:15:00 AM 3.81 38.858 0.172 7.19 17.79 12.42
3/10/2021 3:30:00 AM 3.78 38.804 0.172 7.19 22.78 12.43
3/10/2021 3:45:00 AM 3.75 38.75 0.171 7.19 18.09 12.44
3/10/2021 4:00:00 AM 3.72 38.696 0.171 7.19 18.85 12.45
3/10/2021 4:15:00 AM 3.69 38.642 0.171 7.2 18.4 12.45
3/10/2021 4:30:00 AM 3.66 38.588 0.171 7.19 18.81 12.46
3/10/2021 4:45:00 AM 3.64 38.552 0.17 7.2 19.6 12.46
3/10/2021 5:00:00 AM 3.61 38.498 0.17 7.2 18.52 12.47
3/10/2021 5:15:00 AM 3.58 38.444 0.169 7.2 52.6 12.48
3/10/2021 5:30:00 AM 3.55 38.39 0.169 7.19 17.4 12.48
3/10/2021 5:45:00 AM 3.52 38.336 0.169 7.19 15.85 12.48
3/10/2021 6:00:00 AM 3.49 38.282 0.169 7.19 19.56 12.49
3/10/2021 6:15:00 AM 3.46 38.228 0.169 7.19 18.08 12.5
3/10/2021 6:30:00 AM 3.44 38.192 0.169 7.19 19.34 12.51
3/10/2021 6:45:00 AM 3.41 38.138 0.169 7.19 16.65 12.51
3/10/2021 7:00:00 AM 3.39 38.102 0.169 7.18 16.71 12.51
3/10/2021 7:15:00 AM 3.37 38.066 0.169 7.19 15.93 12.52
3/10/2021 7:30:00 AM 3.36 38.048 0.169 7.19 16.3 12.54
3/10/2021 7:45:00 AM 3.36 38.048 0.169 7.19 16.28 12.55
3/10/2021 8:00:00 AM 3.36 38.048 0.169 7.19 17.23 12.56
3/10/2021 8:15:00 AM 3.38 38.084 0.17 7.19 15.8 12.57
3/10/2021 8:30:00 AM 3.42 38.156 0.17 7.19 15.31 12.58
3/10/2021 8:45:00 AM 3.48 38.264 0.17 7.2 16.32 12.59
3/10/2021 9:00:00 AM 3.55 38.39 0.17 7.2 15.42 12.59
3/10/2021 9:15:00 AM 3.63 38.534 0.17 7.2 15.48 12.6
3/10/2021 9:30:00 AM 3.72 38.696 0.17 7.2 14.69 12.59
3/10/2021 9:45:00 AM 3.83 38.894 0.17 7.2 14 12.59
3/10/2021 10:00:00 AM 3.94 39.092 0.17 7.2 14.51 12.59
3/10/2021 10:15:00 AM 4.06 39.308 0.169 7.2 14.85 12.58
3/10/2021 10:30:00 AM 4.16 39.488 0.169 7.2 14.42 12.58
3/10/2021 10:45:00 AM 4.26 39.668 0.169 7.2 15.57 12.58
3/10/2021 11:00:00 AM 4.38 39.884 0.169 7.2 14.92 12.57
3/10/2021 11:15:00 AM 4.5 40.1 0.169 7.2 15.81 12.57
3/10/2021 11:30:00 AM 4.63 40.334 0.169 7.2 14.75 12.56
3/10/2021 11:45:00 AM 4.76 40.568 0.168 7.19 14.38 12.55
3/10/2021 12:00:00 PM 4.87 40.766 0.168 7.19 15.5 12.54
3/10/2021 12:15:00 PM 4.99 40.982 0.168 7.19 12.72 12.53
3/10/2021 12:30:00 PM 5.12 41.216 0.168 7.2 14.22 12.52
3/10/2021 12:45:00 PM 5.25 41.45 0.168 7.2 14.43 12.51
3/10/2021 1:00:00 PM 5.37 41.666 0.168 7.2 13.63 12.5
3/10/2021 1:15:00 PM 5.48 41.864 0.168 7.2 14.03 12.48
3/10/2021 1:30:00 PM 5.59 42.062 0.168 7.18 14.32 12.47
3/10/2021 1:45:00 PM 5.68 42.224 0.168 7.19 13.85 12.45
3/10/2021 2:00:00 PM 5.76 42.368 0.168 7.2 13.92 12.43
3/10/2021 2:15:00 PM 5.83 42.494 0.128 7.17 12.4 12.42
3/10/2021 2:30:00 PM 5.89 42.602 0.17 7.2 42.77 12.41
3/10/2021 2:45:00 PM 5.92 42.656 0.171 7.21 13.5 12.39
3/10/2021 3:00:00 PM 5.93 42.674 0.172 7.2 13.99 12.39
3/10/2021 3:15:00 PM 5.91 42.638 0.173 7.21 12.28 12.38
3/10/2021 3:30:00 PM 5.87 42.566 0.173 7.21 12.69 12.36
3/10/2021 3:45:00 PM 5.84 42.512 0.174 7.21 13.08 12.35
3/10/2021 4:00:00 PM 5.79 42.422 0.174 7.21 13.35 12.35
3/10/2021 4:15:00 PM 5.73 42.314 0.174 7.21 13.31 12.34
3/10/2021 4:30:00 PM 5.69 42.242 0.174 7.21 13.45 12.34
3/10/2021 4:45:00 PM 5.66 42.188 0.173 7.21 14.2 12.32
3/10/2021 5:00:00 PM 5.62 42.116 0.172 7.21 13.84 12.32
3/10/2021 5:15:00 PM 5.57 42.026 0.171 7.21 14.07 12.3
3/10/2021 5:30:00 PM 5.51 41.918 0.17 7.21 14.39 12.29
3/10/2021 5:45:00 PM 5.45 41.81 0.169 7.2 14.98 12.28
3/10/2021 6:00:00 PM 5.41 41.738 0.169 7.2 14.26 12.27
3/10/2021 6:15:00 PM 5.37 41.666 0.168 7.2 13.7 12.26
3/10/2021 6:30:00 PM 5.33 41.594 0.167 7.19 14.04 12.25
3/10/2021 6:45:00 PM 5.3 41.54 0.166 7.19 14.65 12.24
3/10/2021 7:00:00 PM 5.27 41.486 0.166 7.18 15.37 12.24
3/10/2021 7:15:00 PM 5.23 41.414 0.165 7.19 17.27 12.23
3/10/2021 7:30:00 PM 5.2 41.36 0.165 7.18 13.95 12.23
3/10/2021 7:45:00 PM 5.17 41.306 0.164 7.18 14.68 12.23
3/10/2021 8:00:00 PM 5.14 41.252 0.164 7.18 14.4 12.22
3/10/2021 8:15:00 PM 5.1 41.18 0.163 7.16 14.48 12.21
3/10/2021 8:30:00 PM 5.08 41.144 0.163 7.17 13.98 12.21
3/10/2021 8:45:00 PM 5.05 41.09 0.162 7.17 14.02 12.21
3/10/2021 9:00:00 PM 5.03 41.054 0.162 7.16 14.17 12.2
3/10/2021 9:15:00 PM 5 41 0.161 7.16 14.42 12.19
3/10/2021 9:30:00 PM 4.98 40.964 0.16 7.15 12.97 12.19
3/10/2021 9:45:00 PM 4.95 40.91 0.16 7.15 13.99 12.18
3/10/2021 10:00:00 PM 4.93 40.874 0.16 7.15 14.52 12.18
3/10/2021 10:15:00 PM 4.91 40.838 0.159 7.15 16.88 12.18
3/10/2021 10:30:00 PM 4.9 40.82 0.159 7.15 15.04 12.17
3/10/2021 10:45:00 PM 4.88 40.784 0.158 7.15 12.98 12.17
3/10/2021 11:00:00 PM 4.87 40.766 0.158 7.14 15.59 12.17
3/10/2021 11:15:00 PM 4.86 40.748 0.157 7.14 15.92 12.16
3/10/2021 11:30:00 PM 4.84 40.712 0.157 7.14 16.78 12.17
3/10/2021 11:45:00 PM 4.83 40.694 0.157 7.14 17.24 12.16
3/11/2021 12:00:00 AM 4.82 40.676 0.156 7.14 17.9 12.16
3/11/2021 12:15:00 AM 4.81 40.658 0.156 7.14 17.68 12.16
3/11/2021 12:30:00 AM 4.81 40.658 0.156 7.13 16.04 12.17
3/11/2021 12:45:00 AM 4.8 40.64 0.155 7.14 17.56 12.16
3/11/2021 1:00:00 AM 4.8 40.64 0.155 7.13 17.36 12.16
3/11/2021 1:15:00 AM 4.79 40.622 0.155 7.14 29.26 12.15
3/11/2021 1:30:00 AM 4.79 40.622 0.154 7.13 18.85 12.15
3/11/2021 1:45:00 AM 4.78 40.604 0.154 7.14 18.23 12.14
3/11/2021 2:00:00 AM 4.78 40.604 0.154 7.13 17.23 12.14
3/11/2021 2:15:00 AM 4.78 40.604 0.153 7.13 17.51 12.13
3/11/2021 2:30:00 AM 4.78 40.604 0.153 7.13 18.04 12.12
3/11/2021 2:45:00 AM 4.78 40.604 0.153 7.13 19.06 12.11
3/11/2021 3:00:00 AM 4.78 40.604 0.152 7.12 19.95 12.11
3/11/2021 3:15:00 AM 4.78 40.604 0.152 7.12 18.47 12.11
3/11/2021 3:30:00 AM 4.77 40.586 0.152 7.13 19.28 12.11
3/11/2021 3:45:00 AM 4.77 40.586 0.152 7.13 21.17 12.1
3/11/2021 4:00:00 AM 4.77 40.586 0.151 7.13 19.23 12.11
3/11/2021 4:15:00 AM 4.77 40.586 0.151 7.13 20.57 12.1
3/11/2021 4:30:00 AM 4.77 40.586 0.151 7.13 18.9 12.1
3/11/2021 4:45:00 AM 4.77 40.586 0.151 7.13 20.32 12.09
3/11/2021 5:00:00 AM 4.76 40.568 0.151 7.14 20.06 12.08
3/11/2021 5:15:00 AM 4.75 40.55 0.151 7.13 20.21 12.09
3/11/2021 5:30:00 AM 4.74 40.532 0.151 7.14 21.8 12.08
3/11/2021 5:45:00 AM 4.72 40.496 0.152 7.12 17.59 12.08
3/11/2021 6:00:00 AM 4.71 40.478 0.152 7.14 20.16 12.08
3/11/2021 6:15:00 AM 4.69 40.442 0.151 7.13 19.79 12.08
3/11/2021 6:30:00 AM 4.68 40.424 0.151 7.13 20.45 12.08
3/11/2021 6:45:00 AM 4.65 40.37 0.152 7.14 19.42 12.09
3/11/2021 7:00:00 AM 4.63 40.334 0.151 7.13 19.65 12.1
3/11/2021 7:15:00 AM 4.6 40.28 0.151 7.13 19.33 12.11
3/11/2021 7:30:00 AM 4.59 40.262 0.151 7.13 25.77 12.12
3/11/2021 7:45:00 AM 4.59 40.262 0.151 7.13 18.05 12.13
3/11/2021 8:00:00 AM 4.6 40.28 0.151 7.14 19.25 12.15
3/11/2021 8:15:00 AM 4.61 40.298 0.15 7.14 18.62 12.16
3/11/2021 8:30:00 AM 4.66 40.388 0.15 7.13 18.74 12.17
3/11/2021 8:45:00 AM 4.72 40.496 0.15 7.14 21.19 12.18
3/11/2021 9:00:00 AM 4.78 40.604 0.15 7.14 17.68 12.19
3/11/2021 9:15:00 AM 4.84 40.712 0.15 7.13 17.45 12.19
3/11/2021 9:30:00 AM 4.92 40.856 0.149 7.14 17.43 12.19
3/11/2021 9:45:00 AM 5 41 0.15 7.14 17.2 12.19
3/11/2021 10:00:00 AM 5.08 41.144 0.149 7.14 16.89 12.19
3/11/2021 10:15:00 AM 5.1 41.18 0.149 7.13 16.65 12.18
3/11/2021 10:30:00 AM 5.11 41.198 0.15 7.14 16.64 12.18
3/11/2021 10:45:00 AM 5.15 41.27 0.15 7.13 16.21 12.19
3/11/2021 11:00:00 AM 5.19 41.342 0.149 7.13 15.54 12.19
3/11/2021 11:15:00 AM 5.21 41.378 0.149 7.14 16.08 12.19
3/11/2021 11:30:00 AM 5.22 41.396 0.15 7.14 15.42 12.18
3/11/2021 11:45:00 AM 5.23 41.414 0.15 7.14 15.4 12.19
3/11/2021 12:00:00 PM 5.23 41.414 0.15 7.14 15.64 12.18
3/11/2021 12:15:00 PM 5.22 41.396 0.152 7.14 16.68 12.17
3/11/2021 12:30:00 PM 5.24 41.432 0.16 7.17 21.36 12.16
3/11/2021 12:45:00 PM 5.23 41.414 0.161 7.18 19.19 12.15
3/11/2021 1:00:00 PM 5.23 41.414 0.165 7.19 19.67 12.15
3/11/2021 1:15:00 PM 5.24 41.432 0.162 7.19 18.56 12.15
3/11/2021 1:30:00 PM 5.29 41.522 0.157 7.18 19.76 12.17
3/11/2021 1:45:00 PM 5.33 41.594 0.156 7.17 16.28 12.18
3/11/2021 2:00:00 PM 5.35 41.63 0.155 7.16 14.25 12.17
3/11/2021 2:15:00 PM 5.32 41.576 0.155 7.16 14.83 12.17
3/11/2021 2:30:00 PM 5.31 41.558 0.155 7.15 16.8 12.17
3/11/2021 2:45:00 PM 5.29 41.522 0.154 7.15 17.13 12.16
3/11/2021 3:00:00 PM 5.28 41.504 0.153 7.14 18.63 12.16
3/11/2021 3:15:00 PM 5.28 41.504 0.154 7.14 17.03 12.15
3/11/2021 3:30:00 PM 5.29 41.522 0.154 7.14 18.77 12.15
3/11/2021 3:45:00 PM 5.29 41.522 0.153 7.14 19.36 12.15
3/11/2021 4:00:00 PM 5.29 41.522 0.153 7.14 18.74 12.15
3/11/2021 4:15:00 PM 5.31 41.558 0.153 7.14 18.47 12.14
3/11/2021 4:30:00 PM 5.35 41.63 0.153 7.14 19.89 12.13
3/11/2021 4:45:00 PM 5.38 41.684 0.153 7.16 18.66 12.11
3/11/2021 5:00:00 PM 5.41 41.738 0.152 7.16 19.08 12.1
3/11/2021 5:15:00 PM 5.43 41.774 0.151 7.15 19.35 12.09
3/11/2021 5:30:00 PM 5.47 41.846 0.151 7.16 18.71 12.08
3/11/2021 5:45:00 PM 5.48 41.864 0.15 7.16 20.2 12.07
3/11/2021 6:00:00 PM 5.49 41.882 0.15 7.16 22.29 12.06
3/11/2021 6:15:00 PM 5.48 41.864 0.149 7.14 22.89 12.06
3/11/2021 6:30:00 PM 5.46 41.828 0.148 7.13 21.77 12.06
3/11/2021 6:45:00 PM 5.45 41.81 0.147 7.13 22.77 12.05
3/11/2021 7:00:00 PM 5.46 41.828 0.147 7.12 27.54 12.04
3/11/2021 7:15:00 PM 5.47 41.846 0.147 7.12 29.57 12.04
3/11/2021 7:30:00 PM 5.47 41.846 0.147 7.1 27.27 12.03
3/11/2021 7:45:00 PM 5.47 41.846 0.147 7.12 28.1 12.03
3/11/2021 8:00:00 PM 5.47 41.846 0.146 7.12 35.1 12.02
3/11/2021 8:15:00 PM 5.47 41.846 0.145 7.11 31.51 12.01
3/11/2021 8:30:00 PM 5.46 41.828 0.143 7.1 32.67 12.01
3/11/2021 8:45:00 PM 5.47 41.846 0.142 7.1 30.98 12.01
3/11/2021 9:00:00 PM 5.48 41.864 0.126 7.1 27.9 12
3/11/2021 9:15:00 PM 5.51 41.918 0.141 7.08 29.06 11.98
3/11/2021 9:30:00 PM 5.52 41.936 0.141 7.09 30.3 11.98
3/11/2021 9:45:00 PM 5.54 41.972 0.141 7.08 29.61 11.97
3/11/2021 10:00:00 PM 5.55 41.99 0.14 7.07 32.61 11.96
3/11/2021 10:15:00 PM 5.56 42.008 0.14 7.07 29.49 11.95
3/11/2021 10:30:00 PM 5.58 42.044 0.138 7.07 30.91 11.95
3/11/2021 10:45:00 PM 5.61 42.098 0.138 7.07 31.78 11.93
3/11/2021 11:00:00 PM 5.63 42.134 0.137 7.06 31.6 11.92
3/11/2021 11:15:00 PM 5.66 42.188 0.137 7.06 38.87 11.91
3/11/2021 11:30:00 PM 5.69 42.242 0.136 7.07 40.7 11.9
3/11/2021 11:45:00 PM 5.72 42.296 0.136 7.07 36.08 11.89
3/12/2021 12:00:00 AM 5.75 42.35 0.136 7.07 156.06 11.87
3/12/2021 12:15:00 AM 5.78 42.404 0.135 7.07 38.84 11.86
3/12/2021 12:30:00 AM 5.79 42.422 0.135 7.07 45.04 11.85
3/12/2021 12:45:00 AM 5.81 42.458 0.135 7.07 181.3 11.84
3/12/2021 1:00:00 AM 5.85 42.53 0.135 7.06 52.56 11.84
3/12/2021 1:15:00 AM 5.89 42.602 0.135 7.09 50.5 11.82
3/12/2021 1:30:00 AM 5.88 42.584 0.134 7.1 57.56 11.82
3/12/2021 1:45:00 AM 5.86 42.548 0.134 7.05 52.65 11.82
3/12/2021 2:00:00 AM 5.85 42.53 0.134 7.07 62.63 11.82
3/12/2021 2:15:00 AM 5.83 42.494 0.134 7.07 69.13 11.83
3/12/2021 2:30:00 AM 5.82 42.476 0.133 7.06 92.25 11.83
3/12/2021 2:45:00 AM 5.81 42.458 0.133 7.06 75.37 11.83
3/12/2021 3:00:00 AM 5.81 42.458 0.133 7.05 80.23 11.82
3/12/2021 3:15:00 AM 5.81 42.458 0.132 7.06 80.58 11.81
3/12/2021 3:30:00 AM 5.8 42.44 0.132 7.06 69.44 11.81
3/12/2021 3:45:00 AM 5.8 42.44 0.131 7.06 83.54 11.81
3/12/2021 4:00:00 AM 5.8 42.44 0.13 7.06 86.23 11.81
3/12/2021 4:15:00 AM 5.78 42.404 0.129 7.05 52.51 11.82
3/12/2021 4:30:00 AM 5.75 42.35 0.128 7.06 119.7 11.8
3/12/2021 4:45:00 AM 5.73 42.314 0.128 7.05 63.88 11.81
3/12/2021 5:00:00 AM 5.69 42.242 0.127 7.05 56.82 11.81
3/12/2021 5:15:00 AM 5.66 42.188 0.127 7.05 62.8 11.82
3/12/2021 5:30:00 AM 5.64 42.152 0.125 7.04 60.04 11.82
3/12/2021 5:45:00 AM 5.62 42.116 0.124 7.01 364.35 11.81
3/12/2021 6:00:00 AM 5.59 42.062 0.124 7.01 286.49 11.82
3/12/2021 6:15:00 AM 5.55 41.99 0.123 7.02 79.21 11.82
3/12/2021 6:30:00 AM 5.5 41.9 0.123 7.01 55.65 11.83
3/12/2021 6:45:00 AM 5.46 41.828 0.122 7 66.38 11.83
3/12/2021 7:00:00 AM 5.43 41.774 0.122 7 55.53 11.84
3/12/2021 7:15:00 AM 5.41 41.738 0.122 7 63.21 11.84
3/12/2021 7:30:00 AM 5.39 41.702 0.122 7 54.68 11.84
3/12/2021 7:45:00 AM 5.38 41.684 0.121 6.97 48.87 11.85
3/12/2021 8:00:00 AM 5.37 41.666 0.121 6.99 52.33 11.84
3/12/2021 8:15:00 AM 5.37 41.666 0.121 6.98 60.29 11.85
3/12/2021 8:30:00 AM 5.38 41.684 0.121 6.99 54.37 11.85
3/12/2021 8:45:00 AM 5.4 41.72 0.121 6.99 43.4 11.85
3/12/2021 9:00:00 AM 5.43 41.774 0.121 6.98 53.37 11.85
3/12/2021 9:15:00 AM 5.47 41.846 0.121 6.98 47.62 11.84
3/12/2021 9:30:00 AM 5.51 41.918 0.121 6.97 40.04 11.84
3/12/2021 9:45:00 AM 5.56 42.008 0.121 6.97 47.2 11.84
3/12/2021 10:00:00 AM 5.62 42.116 0.121 6.99 38.79 11.83
3/12/2021 10:15:00 AM 5.67 42.206 0.121 6.99 41.24 11.82
3/12/2021 10:30:00 AM 5.73 42.314 0.12 6.98 47.83 11.82
3/12/2021 10:45:00 AM 5.79 42.422 0.12 6.97 51.25 11.8
3/12/2021 11:00:00 AM 5.87 42.566 0.12 6.99 43.92 11.8
3/12/2021 11:15:00 AM 5.94 42.692 0.12 6.98 45.16 11.79
3/12/2021 11:30:00 AM 6.02 42.836 0.121 6.97 46.67 11.79
3/12/2021 11:45:00 AM 6.1 42.98 0.12 6.99 41.26 11.78
3/12/2021 12:00:00 PM 6.18 43.124 0.12 6.97 46.47 11.76
3/12/2021 12:15:00 PM 6.27 43.286 0.12 6.99 40.31 11.75
3/12/2021 12:30:00 PM 6.35 43.43 0.12 6.98 41.99 11.74
3/12/2021 12:45:00 PM 6.43 43.574 0.121 6.98 41.09 11.73
3/12/2021 1:00:00 PM 6.5 43.7 0.12 6.98 42.54 11.71
3/12/2021 1:15:00 PM 6.57 43.826 0.12 6.99 60.97 11.7
3/12/2021 1:30:00 PM 6.65 43.97 0.12 6.99 45.19 11.68
3/12/2021 1:45:00 PM 6.72 44.096 0.12 6.97 43.2 11.67
3/12/2021 2:00:00 PM 6.78 44.204 0.12 6.98 46.34 11.66
3/12/2021 2:15:00 PM 6.85 44.33 0.12 6.98 45.12 11.64
3/12/2021 2:30:00 PM 6.9 44.42 0.12 6.99 42.54 11.63
3/12/2021 2:45:00 PM 6.95 44.51 0.12 7 44.11 11.62
3/12/2021 3:00:00 PM 6.98 44.564 0.12 7 41.61 11.6
3/12/2021 3:15:00 PM 6.99 44.582 0.12 7 36.63 11.59
3/12/2021 3:30:00 PM 7 44.6 0.12 6.96 35.18 11.58
3/12/2021 3:45:00 PM 7.01 44.618 0.12 6.99 40.91 11.58
3/12/2021 4:00:00 PM 7.02 44.636 0.12 6.99 47.23 11.56
3/12/2021 4:15:00 PM 7.02 44.636 0.12 6.98 55.4 11.55
3/12/2021 4:30:00 PM 7.02 44.636 0.12 7 40.93 11.54
3/12/2021 4:45:00 PM 7 44.6 0.12 6.99 37.17 11.53
3/12/2021 5:00:00 PM 6.97 44.546 0.12 6.98 32.66 11.52
3/12/2021 5:15:00 PM 6.95 44.51 0.12 6.98 36.62 11.51
3/12/2021 5:30:00 PM 6.94 44.492 0.119 6.98 31.39 11.5
3/12/2021 5:45:00 PM 6.94 44.492 0.12 6.99 27.9 11.49
3/12/2021 6:00:00 PM 6.94 44.492 0.12 6.98 29.88 11.48
3/12/2021 6:15:00 PM 6.93 44.474 0.12 6.98 27.7 11.48
3/12/2021 6:30:00 PM 6.92 44.456 0.12 6.98 30.9 11.46
3/12/2021 6:45:00 PM 6.9 44.42 0.12 6.97 28.52 11.46
3/12/2021 7:00:00 PM 6.89 44.402 0.12 6.98 28.97 11.45
3/12/2021 7:15:00 PM 6.87 44.366 0.121 6.98 27.6 11.45
3/12/2021 7:30:00 PM 6.85 44.33 0.121 6.97 27.21 11.44
3/12/2021 7:45:00 PM 6.83 44.294 0.121 6.98 27.21 11.44
3/12/2021 8:00:00 PM 6.8 44.24 0.121 6.97 29.13 11.44
3/12/2021 8:15:00 PM 6.78 44.204 0.121 6.97 25.21 11.44
3/12/2021 8:30:00 PM 6.75 44.15 0.122 6.97 25.29 11.44
3/12/2021 8:45:00 PM 6.73 44.114 0.122 6.98 25.77 11.43
3/12/2021 9:00:00 PM 6.71 44.078 0.122 6.98 24.04 11.43
3/12/2021 9:15:00 PM 6.69 44.042 0.122 6.98 23.48 11.43
3/12/2021 9:30:00 PM 6.67 44.006 0.123 6.98 24.05 11.43
3/12/2021 9:45:00 PM 6.65 43.97 0.123 6.97 23.65 11.43
3/12/2021 10:00:00 PM 6.63 43.934 0.123 6.97 24.63 11.43
3/12/2021 10:15:00 PM 6.6 43.88 0.124 6.98 22.75 11.43
3/12/2021 10:30:00 PM 6.58 43.844 0.124 6.99 22.65 11.43
3/12/2021 10:45:00 PM 6.55 43.79 0.124 6.99 22.36 11.43
3/12/2021 11:00:00 PM 6.52 43.736 0.125 6.98 22.11 11.44
3/12/2021 11:15:00 PM 6.49 43.682 0.125 6.98 22.16 11.44
3/12/2021 11:30:00 PM 6.46 43.628 0.125 6.98 22.26 11.44
3/12/2021 11:45:00 PM 6.43 43.574 0.125 6.97 21.98 11.45
3/13/2021 12:00:00 AM 6.4 43.52 0.126 6.97 21.16 11.46
3/13/2021 12:15:00 AM 6.36 43.448 0.127 6.97 21.22 11.46
3/13/2021 12:30:00 AM 6.32 43.376 0.126 6.98 21.32 11.47
3/13/2021 12:45:00 AM 6.27 43.286 0.127 6.98 23.92 11.48
3/13/2021 1:00:00 AM 6.25 43.25 0.127 6.99 16.6 11.49
3/13/2021 1:15:00 AM 6.22 43.196 0.128 6.99 20.34 11.5
3/13/2021 1:30:00 AM 6.19 43.142 0.128 6.99 20.94 11.5
3/13/2021 1:45:00 AM 6.15 43.07 0.128 6.97 21.7 11.51
3/13/2021 2:00:00 AM 6.1 42.98 0.128 6.99 20.56 11.52
3/13/2021 2:15:00 AM 6.06 42.908 0.129 6.98 19.87 11.53
3/13/2021 2:30:00 AM 6.02 42.836 0.129 7 19.66 11.54
3/13/2021 2:45:00 AM 5.97 42.746 0.129 7 19.96 11.55
3/13/2021 3:00:00 AM 5.92 42.656 0.129 7 20.56 11.56
3/13/2021 3:15:00 AM 5.86 42.548 0.129 6.99 19.33 11.58
3/13/2021 3:30:00 AM 5.81 42.458 0.13 7 18.96 11.59
3/13/2021 3:45:00 AM 5.76 42.368 0.13 7 17.02 11.6
3/13/2021 4:00:00 AM 5.71 42.278 0.13 7.01 18.75 11.62
3/13/2021 4:15:00 AM 5.64 42.152 0.13 6.98 18.52 11.63
3/13/2021 4:30:00 AM 5.59 42.062 0.13 7 19.03 11.65
3/13/2021 4:45:00 AM 5.53 41.954 0.131 6.99 18.39 11.67
3/13/2021 5:00:00 AM 5.47 41.846 0.131 7.01 17.98 11.69
3/13/2021 5:15:00 AM 5.4 41.72 0.131 6.99 18.01 11.71
3/13/2021 5:30:00 AM 5.34 41.612 0.131 7.01 16.66 11.73
3/13/2021 5:45:00 AM 5.28 41.504 0.131 7.01 18.06 11.74
3/13/2021 6:00:00 AM 5.22 41.396 0.132 7.01 17.33 11.76
3/13/2021 6:15:00 AM 5.17 41.306 0.132 6.95 17.59 11.78
3/13/2021 6:30:00 AM 5.1 41.18 0.132 7 17.6 11.8
3/13/2021 6:45:00 AM 5.05 41.09 0.132 7.02 17.39 11.82
3/13/2021 7:00:00 AM 4.99 40.982 0.133 6.96 16.85 11.84
3/13/2021 7:15:00 AM 4.93 40.874 0.133 7.01 17.49 11.86
3/13/2021 7:30:00 AM 4.88 40.784 0.133 7.01 16.49 11.89
3/13/2021 7:45:00 AM 4.83 40.694 0.133 7 16.56 11.91
3/13/2021 8:00:00 AM 4.79 40.622 0.134 7.02 16.18 11.94
3/13/2021 8:15:00 AM 4.76 40.568 0.134 7.01 15.93 11.96
3/13/2021 8:30:00 AM 4.73 40.514 0.134 6.99 16.08 11.99
3/13/2021 8:45:00 AM 4.74 40.532 0.134 7.02 16 12
3/13/2021 9:00:00 AM 4.75 40.55 0.134 7.01 15.57 12.02
3/13/2021 9:15:00 AM 4.77 40.586 0.135 7.02 15.45 12.04
3/13/2021 9:30:00 AM 4.79 40.622 0.135 6.99 13.9 12.06
3/13/2021 9:45:00 AM 4.82 40.676 0.135 7.03 14.38 12.07
3/13/2021 10:00:00 AM 4.86 40.748 0.135 7.02 14.42 12.09
3/13/2021 10:15:00 AM 4.89 40.802 0.135 7.03 14.26 12.1
3/13/2021 10:30:00 AM 4.94 40.892 0.136 7.03 14.29 12.11
3/13/2021 10:45:00 AM 5 41 0.136 7.03 13.96 12.12
3/13/2021 11:00:00 AM 5.06 41.108 0.136 7.04 14.15 12.13
3/13/2021 11:15:00 AM 5.12 41.216 0.137 7.01 14.39 12.14
3/13/2021 11:30:00 AM 5.19 41.342 0.137 7.04 14.47 12.14
3/13/2021 11:45:00 AM 5.25 41.45 0.137 7.03 14.16 12.15
3/13/2021 12:00:00 PM 5.32 41.576 0.138 7.04 13.56 12.15
3/13/2021 12:15:00 PM 5.39 41.702 0.137 7.05 13.74 12.16
3/13/2021 12:30:00 PM 5.46 41.828 0.138 7.05 13.36 12.16
3/13/2021 12:45:00 PM 5.54 41.972 0.138 7.06 13.25 12.16
3/13/2021 1:00:00 PM 5.6 42.08 0.138 7.06 13.07 12.16
3/13/2021 1:15:00 PM 5.65 42.17 0.138 7.06 13.28 12.16
3/13/2021 1:30:00 PM 5.7 42.26 0.139 7.05 12.53 12.17
3/13/2021 1:45:00 PM 5.76 42.368 0.139 7.05 12.83 12.16
3/13/2021 2:00:00 PM 5.78 42.404 0.139 7.05 12.5 12.16
3/13/2021 2:15:00 PM 5.82 42.476 0.139 7.06 13.16 12.16
3/13/2021 2:30:00 PM 5.85 42.53 0.139 7.06 12.58 12.15
3/13/2021 2:45:00 PM 5.89 42.602 0.139 7.06 12.6 12.15
3/13/2021 3:00:00 PM 5.93 42.674 0.14 7.06 12.43 12.13
3/13/2021 3:15:00 PM 5.93 42.674 0.14 7.08 12.62 12.14
3/13/2021 3:30:00 PM 5.91 42.638 0.14 7.07 11.98 12.13
3/13/2021 3:45:00 PM 5.86 42.548 0.141 7.07 11.94 12.12
3/13/2021 4:00:00 PM 5.82 42.476 0.141 7.06 12.03 12.13
3/13/2021 4:15:00 PM 5.8 42.44 0.141 7.06 12.4 12.12
3/13/2021 4:30:00 PM 5.76 42.368 0.141 7.07 12 12.12
3/13/2021 4:45:00 PM 5.73 42.314 0.141 7.07 11.61 12.11
3/13/2021 5:00:00 PM 5.68 42.224 0.142 7.06 11.81 12.1
3/13/2021 5:15:00 PM 5.62 42.116 0.142 7.05 11.49 12.09
3/13/2021 5:30:00 PM 5.57 42.026 0.142 7.06 11.48 12.09
3/13/2021 5:45:00 PM 5.52 41.936 0.142 7.05 10.99 12.08
3/13/2021 6:00:00 PM 5.48 41.864 0.143 7.06 11.16 12.08
3/13/2021 6:15:00 PM 5.45 41.81 0.143 7.05 10.87 12.07
3/13/2021 6:30:00 PM 5.41 41.738 0.143 7.06 11.14 12.06
3/13/2021 6:45:00 PM 5.38 41.684 0.143 7.05 11.07 12.05
3/13/2021 7:00:00 PM 5.35 41.63 0.144 7.06 11.25 12.05
3/13/2021 7:15:00 PM 5.32 41.576 0.144 7.05 10.65 12.04
3/13/2021 7:30:00 PM 5.29 41.522 0.144 7.04 10.73 12.03
3/13/2021 7:45:00 PM 5.25 41.45 0.144 7.04 10.56 12.03
3/13/2021 8:00:00 PM 5.21 41.378 0.144 7.02 10.71 12.03
3/13/2021 8:15:00 PM 5.18 41.324 0.144 7.04 10.96 12.03
3/13/2021 8:30:00 PM 5.14 41.252 0.145 7.04 10.82 12.03
3/13/2021 8:45:00 PM 5.1 41.18 0.145 7.04 10.31 12.03
3/13/2021 9:00:00 PM 5.07 41.126 0.145 7.04 10.53 12.03
3/13/2021 9:15:00 PM 5.03 41.054 0.145 7.04 10.35 12.03
3/13/2021 9:30:00 PM 5 41 0.145 7.04 11.83 12.04
3/13/2021 9:45:00 PM 4.97 40.946 0.146 7.04 10.56 12.04
3/13/2021 10:00:00 PM 4.94 40.892 0.146 7.04 10.4 12.04
3/13/2021 10:15:00 PM 4.91 40.838 0.146 7.05 10.33 12.04
3/13/2021 10:30:00 PM 4.89 40.802 0.146 7.05 10.02 12.04
3/13/2021 10:45:00 PM 4.86 40.748 0.146 7.04 10.15 12.04
3/13/2021 11:00:00 PM 4.84 40.712 0.147 7.04 9.85 12.04
3/13/2021 11:15:00 PM 4.82 40.676 0.147 7.04 10.23 12.04
3/13/2021 11:30:00 PM 4.79 40.622 0.147 7.04 9.84 12.04
3/13/2021 11:45:00 PM 4.77 40.586 0.147 7.04 9.67 12.04
3/14/2021 12:00:00 AM 4.75 40.55 0.147 7.05 9.7 12.04
3/14/2021 12:15:00 AM 4.73 40.514 0.147 7.04 9.8 12.05
3/14/2021 12:30:00 AM 4.71 40.478 0.147 7.04 9.87 12.04
3/14/2021 12:45:00 AM 4.69 40.442 0.148 7.05 9.9 12.05
3/14/2021 1:00:00 AM 4.67 40.406 0.148 7.02 9.93 12.05
3/14/2021 1:15:00 AM 4.65 40.37 0.148 7.05 9.84 12.04
3/14/2021 1:30:00 AM 4.62 40.316 0.148 7.05 10.21 12.05
3/14/2021 1:45:00 AM 4.6 40.28 0.148 7.05 10.62 12.05
3/14/2021 3:00:00 AM 4.49 40.082 0.149 7.05 10.17 12.05
3/14/2021 4:15:00 AM 4.47 40.046 0.149 7.06 9.55 12.06
3/14/2021 4:30:00 AM 4.44 39.992 0.15 7.06 13.8 12.06
3/14/2021 4:45:00 AM 4.42 39.956 0.15 7.06 9.66 12.07
3/14/2021 5:00:00 AM 4.4 39.92 0.15 7.06 9.17 12.07
3/14/2021 5:15:00 AM 4.37 39.866 0.15 7.06 9.38 12.07
3/14/2021 5:30:00 AM 4.35 39.83 0.15 7.05 9.27 12.07
3/14/2021 5:45:00 AM 4.32 39.776 0.15 7.06 9.85 12.08
3/14/2021 6:00:00 AM 4.3 39.74 0.151 7.06 9.28 12.09
3/14/2021 6:15:00 AM 4.27 39.686 0.151 7.06 9.41 12.09
3/14/2021 6:30:00 AM 4.25 39.65 0.151 7.06 10.93 12.09
3/14/2021 6:45:00 AM 4.22 39.596 0.151 7.07 8.79 12.1
3/14/2021 7:00:00 AM 4.2 39.56 0.151 7.07 8.87 12.1
3/14/2021 7:15:00 AM 4.18 39.524 0.151 7.05 8.69 12.11
3/14/2021 7:30:00 AM 4.15 39.47 0.151 7.06 9.11 12.11
3/14/2021 7:45:00 AM 4.13 39.434 0.151 7.06 8.89 12.13
3/14/2021 8:00:00 AM 4.11 39.398 0.152 7.06 9.01 12.14
3/14/2021 8:15:00 AM 4.09 39.362 0.152 7.07 8.82 12.15
3/14/2021 8:30:00 AM 4.08 39.344 0.152 7.06 8.64 12.17
3/14/2021 8:45:00 AM 4.07 39.326 0.152 7.07 8.73 12.19
3/14/2021 9:00:00 AM 4.06 39.308 0.152 7.07 8.96 12.21
3/14/2021 9:15:00 AM 4.07 39.326 0.152 7.05 8.52 12.22
3/14/2021 9:30:00 AM 4.1 39.38 0.153 7.07 8.64 12.24
3/14/2021 9:45:00 AM 4.14 39.452 0.152 7.06 8.34 12.25
3/14/2021 10:00:00 AM 4.19 39.542 0.153 7.07 8.9 12.26
3/14/2021 10:15:00 AM 4.25 39.65 0.153 7.08 8.33 12.27
3/14/2021 10:30:00 AM 4.32 39.776 0.153 7.08 8.28 12.28
3/14/2021 10:45:00 AM 4.4 39.92 0.153 7.08 8.61 12.29
3/14/2021 11:00:00 AM 4.49 40.082 0.153 7.08 7.99 12.28
3/14/2021 11:15:00 AM 4.57 40.226 0.153 7.09 8.22 12.29
3/14/2021 11:30:00 AM 4.65 40.37 0.153 7.09 8.2 12.29
3/14/2021 11:45:00 AM 4.74 40.532 0.154 7.09 8.25 12.29
3/14/2021 12:00:00 PM 4.85 40.73 0.154 7.1 8.13 12.3
3/14/2021 12:15:00 PM 4.95 40.91 0.154 7.11 8.6 12.29
3/14/2021 12:30:00 PM 5.05 41.09 0.154 7.1 8.69 12.29
3/14/2021 12:45:00 PM 5.16 41.288 0.154 7.11 8.2 12.29
3/14/2021 1:00:00 PM 5.26 41.468 0.154 7.11 7.88 12.28
3/14/2021 1:15:00 PM 5.35 41.63 0.155 7.11 7.96 12.27
3/14/2021 1:30:00 PM 5.47 41.846 0.155 7.1 8.7 12.26
3/14/2021 1:45:00 PM 5.57 42.026 0.154 7.11 8.5 12.26
3/14/2021 2:00:00 PM 5.65 42.17 0.155 7.11 7.78 12.25
3/14/2021 2:15:00 PM 5.71 42.278 0.155 7.11 7.9 12.23
3/14/2021 2:30:00 PM 5.8 42.44 0.155 7.11 7.83 12.24
3/14/2021 2:45:00 PM 5.9 42.62 0.155 7.12 7.69 12.22
3/14/2021 3:00:00 PM 5.97 42.746 0.155 7.11 7.8 12.21
3/14/2021 3:15:00 PM 6.01 42.818 0.155 7.13 8.13 12.21
3/14/2021 3:30:00 PM 6.06 42.908 0.155 7.13 7.81 12.19
3/14/2021 3:45:00 PM 6.09 42.962 0.155 7.13 8.2 12.19
3/14/2021 4:00:00 PM 6.1 42.98 0.156 7.13 8.42 12.18
3/14/2021 4:15:00 PM 6.11 42.998 0.156 7.13 7.92 12.16
3/14/2021 4:30:00 PM 6.1 42.98 0.156 7.13 8.68 12.15
3/14/2021 4:45:00 PM 6.07 42.926 0.156 7.13 8.02 12.15
3/14/2021 5:00:00 PM 6.01 42.818 0.156 7.13 7.98 12.15
3/14/2021 5:15:00 PM 5.96 42.728 0.156 7.13 7.68 12.14
3/14/2021 5:30:00 PM 5.91 42.638 0.157 7.13 8.37 12.13
3/14/2021 5:45:00 PM 5.83 42.494 0.157 7.13 8.13 12.12
3/14/2021 6:00:00 PM 5.75 42.35 0.157 7.12 7.67 12.11
3/14/2021 6:15:00 PM 5.66 42.188 0.157 7.12 7.95 12.11
3/14/2021 6:30:00 PM 5.58 42.044 0.157 7.12 7.97 12.1
3/14/2021 6:45:00 PM 5.51 41.918 0.158 7.12 8.55 12.09
3/14/2021 7:00:00 PM 5.44 41.792 0.158 7.12 7.69 12.08
3/14/2021 7:15:00 PM 5.39 41.702 0.158 7.12 9.35 12.07
3/14/2021 7:30:00 PM 5.34 41.612 0.158 7.12 9.63 12.07
3/14/2021 7:45:00 PM 5.3 41.54 0.158 7.11 9.06 12.06
3/14/2021 8:00:00 PM 5.26 41.468 0.158 7.11 9.22 12.05
3/14/2021 8:15:00 PM 5.23 41.414 0.159 7.12 9.18 12.05
3/14/2021 8:30:00 PM 5.18 41.324 0.159 7.12 8.51 12.04
3/14/2021 8:45:00 PM 5.14 41.252 0.159 7.12 7.76 12.04
3/14/2021 9:00:00 PM 5.09 41.162 0.159 7.11 8.4 12.04
3/14/2021 9:15:00 PM 5.05 41.09 0.159 7.11 7.62 12.04
3/14/2021 9:30:00 PM 5 41 0.159 7.11 8.48 12.04
3/14/2021 9:45:00 PM 4.96 40.928 0.16 7.11 7.74 12.05
3/14/2021 10:00:00 PM 4.9 40.82 0.16 7.11 7.75 12.05
3/14/2021 10:15:00 PM 4.84 40.712 0.16 7.11 8.11 12.07
3/14/2021 10:30:00 PM 4.78 40.604 0.16 7.11 8.48 12.07
3/14/2021 10:45:00 PM 4.71 40.478 0.16 7.11 7.72 12.08
3/14/2021 11:00:00 PM 4.66 40.388 0.16 7.11 7.42 12.09
3/14/2021 11:15:00 PM 4.6 40.28 0.16 7.11 8.02 12.1
3/14/2021 11:30:00 PM 4.55 40.19 0.161 7.11 7.89 12.11
3/14/2021 11:45:00 PM 4.49 40.082 0.161 7.11 8.09 12.13
3/15/2021 12:00:00 AM 4.44 39.992 0.161 7.11 7.96 12.14
3/15/2021 12:15:00 AM 4.38 39.884 0.161 7.11 7.81 12.14
3/15/2021 12:30:00 AM 4.34 39.812 0.161 7.1 7.54 12.15
3/15/2021 12:45:00 AM 4.29 39.722 0.161 7.1 7.71 12.16
3/15/2021 1:00:00 AM 4.26 39.668 0.161 7.1 7.65 12.16
3/15/2021 1:15:00 AM 4.21 39.578 0.161 7.1 7.64 12.17
3/15/2021 1:30:00 AM 4.16 39.488 0.162 7.1 7.44 12.18
3/15/2021 1:45:00 AM 4.1 39.38 0.162 7.1 7.74 12.19
3/15/2021 2:00:00 AM 4.06 39.308 0.162 7.1 7.52 12.2
3/15/2021 2:15:00 AM 4.02 39.236 0.162 7.1 8.15 12.21
3/15/2021 2:30:00 AM 3.97 39.146 0.162 7.1 8.16 12.22
3/15/2021 2:45:00 AM 3.94 39.092 0.163 7.1 8 12.22
3/15/2021 3:00:00 AM 3.9 39.02 0.163 7.1 8.2 12.24
3/15/2021 3:15:00 AM 3.86 38.948 0.163 7.1 7.81 12.25
3/15/2021 3:30:00 AM 3.83 38.894 0.163 7.11 7.98 12.25
3/15/2021 3:45:00 AM 3.8 38.84 0.163 7.1 7.5 12.26
3/15/2021 4:00:00 AM 3.76 38.768 0.163 7.1 7.57 12.27
3/15/2021 4:15:00 AM 3.72 38.696 0.163 7.1 7.54 12.28
3/15/2021 4:30:00 AM 3.67 38.606 0.163 7.1 7.63 12.29
3/15/2021 4:45:00 AM 3.62 38.516 0.163 7.1 7.23 12.31
3/15/2021 5:00:00 AM 3.57 38.426 0.163 7.09 7.12 12.32
3/15/2021 5:15:00 AM 3.53 38.354 0.164 7.1 6.92 12.32
3/15/2021 5:30:00 AM 3.5 38.3 0.164 7.1 7.19 12.34
3/15/2021 5:45:00 AM 3.47 38.246 0.164 7.1 6.93 12.35
3/15/2021 6:00:00 AM 3.43 38.174 0.164 7.1 6.9 12.36
3/15/2021 6:15:00 AM 3.38 38.084 0.164 7.09 7.17 12.37
3/15/2021 6:30:00 AM 3.34 38.012 0.164 7.1 7.04 12.39
3/15/2021 6:45:00 AM 3.28 37.904 0.164 7.1 6.98 12.4
3/15/2021 7:00:00 AM 3.23 37.814 0.164 7.1 6.99 12.41
3/15/2021 7:15:00 AM 3.2 37.76 0.165 7.1 6.8 12.42
3/15/2021 7:30:00 AM 3.16 37.688 0.165 7.1 6.66 12.44
3/15/2021 7:45:00 AM 3.11 37.598 0.165 7.08 6.82 12.46
3/15/2021 8:00:00 AM 3.07 37.526 0.165 7.1 6.75 12.48
3/15/2021 8:15:00 AM 3.04 37.472 0.165 7.09 6.49 12.51
3/15/2021 8:30:00 AM 3.02 37.436 0.165 7.11 6.86 12.54
3/15/2021 8:45:00 AM 2.99 37.382 0.166 7.11 7.34 12.56
3/15/2021 9:00:00 AM 2.97 37.346 0.166 7.11 6.77 12.59
3/15/2021 9:15:00 AM 2.98 37.364 0.166 7.1 6.78 12.61
3/15/2021 9:30:00 AM 3.01 37.418 0.166 7.11 6.51 12.63
3/15/2021 9:45:00 AM 3.05 37.49 0.166 7.12 6.7 12.65
3/15/2021 10:00:00 AM 3.1 37.58 0.166 7.12 6.92 12.66
3/15/2021 10:15:00 AM 3.18 37.724 0.166 7.12 6.55 12.66
3/15/2021 10:30:00 AM 3.27 37.886 0.166 7.12 6.59 12.68
3/15/2021 10:45:00 AM 3.36 38.048 0.166 7.13 6.37 12.68
3/15/2021 11:00:00 AM 3.45 38.21 0.167 7.13 6.73 12.69
3/15/2021 11:15:00 AM 3.56 38.408 0.167 7.13 6.46 12.69
3/15/2021 11:30:00 AM 3.64 38.552 0.167 7.14 6.81 12.7
3/15/2021 11:45:00 AM 3.71 38.678 0.166 7.12 6.74 12.7
3/15/2021 12:00:00 PM 3.8 38.84 0.167 7.12 6.64 12.7
3/15/2021 12:15:00 PM 3.9 39.02 0.167 7.14 6.25 12.71
3/15/2021 12:30:00 PM 4.01 39.218 0.167 7.13 6.28 12.7
3/15/2021 12:45:00 PM 4.12 39.416 0.167 7.14 6.59 12.7
3/15/2021 1:00:00 PM 4.22 39.596 0.167 7.14 6.47 12.7
3/15/2021 1:15:00 PM 4.3 39.74 0.167 7.13 6.14 12.7
3/15/2021 1:30:00 PM 4.37 39.866 0.167 7.15 6.42 12.69
3/15/2021 1:45:00 PM 4.38 39.884 0.167 7.15 6.51 12.69
3/15/2021 2:00:00 PM 4.44 39.992 0.168 7.14 6.4 12.69
3/15/2021 2:15:00 PM 4.55 40.19 0.168 7.14 6.59 12.68
3/15/2021 2:30:00 PM 4.64 40.352 0.168 7.15 6.63 12.68
3/15/2021 2:45:00 PM 4.75 40.55 0.168 7.15 6.44 12.66
3/15/2021 3:00:00 PM 4.81 40.658 0.168 7.15 6.44 12.66
3/15/2021 3:15:00 PM 4.88 40.784 0.168 7.14 6.07 12.65
3/15/2021 3:30:00 PM 4.97 40.946 0.168 7.15 5.89 12.64
3/15/2021 3:45:00 PM 5 41 0.168 7.15 6.26 12.63
3/15/2021 4:00:00 PM 5.02 41.036 0.168 7.15 6.24 12.63
3/15/2021 4:15:00 PM 5 41 0.168 7.16 6.3 12.63
3/15/2021 4:30:00 PM 4.97 40.946 0.168 7.16 5.93 12.62
3/15/2021 4:45:00 PM 4.91 40.838 0.169 7.16 6.1 12.62
3/15/2021 5:00:00 PM 4.84 40.712 0.168 7.15 6.52 12.63
3/15/2021 5:15:00 PM 4.79 40.622 0.168 7.15 6.2 12.62
3/15/2021 5:30:00 PM 4.73 40.514 0.169 7.15 6.1 12.62
3/15/2021 5:45:00 PM 4.65 40.37 0.169 7.14 6.04 12.62
3/15/2021 6:00:00 PM 4.59 40.262 0.169 7.15 6.42 12.61
3/15/2021 6:15:00 PM 4.53 40.154 0.169 7.15 6.18 12.6
3/15/2021 6:30:00 PM 4.47 40.046 0.169 7.15 6.14 12.59
3/15/2021 6:45:00 PM 4.42 39.956 0.17 7.14 6.11 12.58
3/15/2021 7:00:00 PM 4.38 39.884 0.17 7.13 6.03 12.56
3/15/2021 7:15:00 PM 4.34 39.812 0.17 7.13 6.08 12.54
3/15/2021 7:30:00 PM 4.3 39.74 0.17 7.13 5.84 12.52
3/15/2021 7:45:00 PM 4.29 39.722 0.17 7.13 6.23 12.5
3/15/2021 8:00:00 PM 4.27 39.686 0.17 7.12 5.92 12.49
3/15/2021 8:15:00 PM 4.27 39.686 0.17 7.12 6.26 12.47
3/15/2021 8:30:00 PM 4.26 39.668 0.171 7.12 6 12.46
3/15/2021 8:45:00 PM 4.24 39.632 0.17 7.12 6.15 12.45
3/15/2021 9:00:00 PM 4.23 39.614 0.171 7.12 6.01 12.44
3/15/2021 9:15:00 PM 4.22 39.596 0.171 7.11 5.87 12.43
3/15/2021 9:30:00 PM 4.21 39.578 0.171 7.12 6.13 12.42
3/15/2021 9:45:00 PM 4.19 39.542 0.171 7.12 5.93 12.41
3/15/2021 10:00:00 PM 4.17 39.506 0.171 7.11 6.36 12.41
3/15/2021 10:15:00 PM 4.15 39.47 0.171 7.11 6.04 12.39
3/15/2021 10:30:00 PM 4.12 39.416 0.171 7.11 6.08 12.4
3/15/2021 10:45:00 PM 4.09 39.362 0.171 7.11 6.02 12.39
3/15/2021 11:00:00 PM 4.07 39.326 0.171 7.1 5.86 12.39
3/15/2021 11:15:00 PM 4.04 39.272 0.171 7.11 6.27 12.39
3/15/2021 11:30:00 PM 4.01 39.218 0.171 7.1 6.14 12.39
3/15/2021 11:45:00 PM 3.98 39.164 0.172 7.1 5.96 12.39
3/16/2021 12:00:00 AM 3.95 39.11 0.172 7.1 6.2 12.39
3/16/2021 12:15:00 AM 3.93 39.074 0.172 7.1 6.11 12.4
3/16/2021 12:30:00 AM 3.9 39.02 0.172 7.11 6.09 12.39
3/16/2021 12:45:00 AM 3.85 38.93 0.172 7.11 6.13 12.4
3/16/2021 1:00:00 AM 3.82 38.876 0.172 7.1 5.94 12.41
3/16/2021 1:15:00 AM 3.79 38.822 0.172 7.1 5.95 12.41
3/16/2021 1:30:00 AM 3.76 38.768 0.172 7.11 5.92 12.41
3/16/2021 1:45:00 AM 3.74 38.732 0.172 7.11 6.1 12.41
3/16/2021 2:00:00 AM 3.71 38.678 0.172 7.11 5.81 12.42
3/16/2021 2:15:00 AM 3.69 38.642 0.172 7.11 5.98 12.42
3/16/2021 2:30:00 AM 3.67 38.606 0.173 7.11 5.81 12.42
3/16/2021 2:45:00 AM 3.65 38.57 0.173 7.11 5.7 12.42
3/16/2021 3:00:00 AM 3.63 38.534 0.173 7.1 5.78 12.42
3/16/2021 3:15:00 AM 3.61 38.498 0.173 7.11 5.72 12.42
3/16/2021 3:30:00 AM 3.59 38.462 0.173 7.11 5.77 12.42
3/16/2021 3:45:00 AM 3.58 38.444 0.173 7.11 5.86 12.42
3/16/2021 4:00:00 AM 3.57 38.426 0.173 7.11 5.84 12.42
3/16/2021 4:15:00 AM 3.56 38.408 0.173 7.11 6 12.42
3/16/2021 4:30:00 AM 3.55 38.39 0.173 7.11 5.88 12.42
3/16/2021 4:45:00 AM 3.54 38.372 0.173 7.09 5.87 12.42
3/16/2021 5:00:00 AM 3.52 38.336 0.173 7.11 5.61 12.42
3/16/2021 5:15:00 AM 3.51 38.318 0.173 7.1 6.13 12.41
3/16/2021 5:30:00 AM 3.5 38.3 0.173 7.1 5.76 12.41
3/16/2021 5:45:00 AM 3.49 38.282 0.173 7.11 5.75 12.41
3/16/2021 6:00:00 AM 3.48 38.264 0.174 7.11 5.72 12.41
3/16/2021 6:15:00 AM 3.48 38.264 0.174 7.1 5.52 12.41
3/16/2021 6:30:00 AM 3.47 38.246 0.174 7.11 5.52 12.42
3/16/2021 6:45:00 AM 3.46 38.228 0.174 7.11 5.68 12.41
3/16/2021 7:00:00 AM 3.46 38.228 0.174 7.1 5.45 12.41
3/16/2021 7:15:00 AM 3.45 38.21 0.174 7.11 6.04 12.41
3/16/2021 7:30:00 AM 3.44 38.192 0.174 7.11 5.44 12.41
3/16/2021 7:45:00 AM 3.44 38.192 0.174 7.11 5.64 12.4
3/16/2021 8:00:00 AM 3.43 38.174 0.175 7.1 5.63 12.4
3/16/2021 8:15:00 AM 3.44 38.192 0.175 7.1 5.56 12.41
3/16/2021 8:30:00 AM 3.44 38.192 0.175 7.11 5.45 12.41
3/16/2021 8:45:00 AM 3.44 38.192 0.175 7.11 5.66 12.42
3/16/2021 9:00:00 AM 3.46 38.228 0.175 7.11 5.52 12.43
3/16/2021 9:15:00 AM 3.46 38.228 0.175 7.11 5.74 12.44
3/16/2021 9:30:00 AM 3.48 38.264 0.175 7.11 5.3 12.45
3/16/2021 9:45:00 AM 3.49 38.282 0.175 7.11 5.24 12.46
3/16/2021 10:00:00 AM 3.5 38.3 0.175 7.12 5.25 12.46
3/16/2021 10:15:00 AM 3.52 38.336 0.175 7.12 5.17 12.48
3/16/2021 10:30:00 AM 3.58 38.444 0.175 7.11 4.99 12.49
3/16/2021 10:45:00 AM 3.62 38.516 0.175 7.11 5.27 12.5
3/16/2021 11:00:00 AM 3.64 38.552 0.175 7.12 4.88 12.5
3/16/2021 11:15:00 AM 3.68 38.624 0.175 7.12 5.33 12.51
3/16/2021 11:30:00 AM 3.71 38.678 0.175 7.13 4.96 12.52
3/16/2021 11:45:00 AM 3.76 38.768 0.176 7.13 5 12.53
3/16/2021 12:00:00 PM 3.82 38.876 0.176 7.14 5.43 12.53
3/16/2021 12:15:00 PM 3.96 39.128 0.176 7.13 4.97 12.54
3/16/2021 12:30:00 PM 4.06 39.308 0.175 7.14 5.03 12.53
3/16/2021 12:45:00 PM 4.19 39.542 0.176 7.14 5.03 12.53
3/16/2021 1:00:00 PM 4.29 39.722 0.176 7.15 5.09 12.51
3/16/2021 1:15:00 PM 4.36 39.848 0.176 7.14 5.05 12.5
3/16/2021 1:30:00 PM 4.42 39.956 0.176 7.15 5.05 12.5
3/16/2021 1:45:00 PM 4.45 40.01 0.176 7.15 5.04 12.5
3/16/2021 2:00:00 PM 4.47 40.046 0.176 7.16 4.98 12.5
3/16/2021 2:15:00 PM 4.5 40.1 0.176 7.16 4.98 12.5
3/16/2021 2:30:00 PM 4.51 40.118 0.176 7.16 5.07 12.49
3/16/2021 2:45:00 PM 4.53 40.154 0.176 7.16 4.9 12.48
3/16/2021 3:00:00 PM 4.56 40.208 0.176 7.16 4.93 12.49
3/16/2021 3:15:00 PM 4.64 40.352 0.176 7.16 5.1 12.48
3/16/2021 3:30:00 PM 4.67 40.406 0.176 7.16 5.05 12.47
3/16/2021 3:45:00 PM 4.69 40.442 0.176 7.17 5.23 12.47
3/16/2021 4:00:00 PM 4.68 40.424 0.176 7.17 5.15 12.46
3/16/2021 4:15:00 PM 4.66 40.388 0.176 7.16 5.06 12.45
3/16/2021 4:30:00 PM 4.65 40.37 0.176 7.17 5.07 12.44
3/16/2021 4:45:00 PM 4.64 40.352 0.177 7.16 5.22 12.44
3/16/2021 5:00:00 PM 4.64 40.352 0.176 7.16 5.06 12.43
3/16/2021 5:15:00 PM 4.65 40.37 0.176 7.16 5.33 12.43
3/16/2021 5:30:00 PM 4.66 40.388 0.177 7.16 5.2 12.42
3/16/2021 5:45:00 PM 4.66 40.388 0.176 7.16 5.29 12.41
3/16/2021 6:00:00 PM 4.66 40.388 0.177 7.17 5.24 12.4
3/16/2021 6:15:00 PM 4.63 40.334 0.177 7.16 4.97 12.38
3/16/2021 6:30:00 PM 4.6 40.28 0.177 7.16 4.93 12.37
3/16/2021 6:45:00 PM 4.58 40.244 0.177 7.16 4.87 12.35
3/16/2021 7:00:00 PM 4.55 40.19 0.177 7.16 5.24 12.34
3/16/2021 7:15:00 PM 4.53 40.154 0.177 7.16 5.15 12.32
3/16/2021 7:30:00 PM 4.5 40.1 0.177 7.15 4.89 12.3
3/16/2021 7:45:00 PM 4.48 40.064 0.177 7.14 4.91 12.28
3/16/2021 8:00:00 PM 4.46 40.028 0.177 7.15 5.1 12.26
3/16/2021 8:15:00 PM 4.45 40.01 0.178 7.14 4.93 12.25
3/16/2021 8:30:00 PM 4.44 39.992 0.177 7.14 4.94 12.25
3/16/2021 8:45:00 PM 4.43 39.974 0.177 7.14 4.99 12.24
3/16/2021 9:00:00 PM 4.42 39.956 0.178 7.14 4.92 12.23
3/16/2021 9:15:00 PM 4.41 39.938 0.178 7.14 5.04 12.22
3/16/2021 9:30:00 PM 4.4 39.92 0.178 7.13 5.06 12.21
3/16/2021 9:45:00 PM 4.38 39.884 0.178 7.14 5.25 12.22
3/16/2021 10:00:00 PM 4.37 39.866 0.178 7.14 5.09 12.2
3/16/2021 10:15:00 PM 4.35 39.83 0.178 7.13 5.17 12.2
3/16/2021 10:30:00 PM 4.32 39.776 0.178 7.14 5.18 12.19
3/16/2021 10:45:00 PM 4.29 39.722 0.178 7.14 5.33 12.19
3/16/2021 11:00:00 PM 4.26 39.668 0.178 7.12 5.36 12.19
3/16/2021 11:15:00 PM 4.26 39.668 0.178 7.13 5.14 12.18
3/16/2021 11:30:00 PM 4.26 39.668 0.179 7.13 5.17 12.17
3/16/2021 11:45:00 PM 4.26 39.668 0.178 7.13 5.37 12.17
3/17/2021 12:00:00 AM 4.26 39.668 0.179 7.13 4.98 12.17
3/17/2021 12:15:00 AM 4.26 39.668 0.179 7.13 5.12 12.17
3/17/2021 12:30:00 AM 4.26 39.668 0.178 7.13 5.02 12.17
3/17/2021 12:45:00 AM 4.26 39.668 0.179 7.13 5.16 12.16
3/17/2021 1:00:00 AM 4.27 39.686 0.179 7.13 5.28 12.16
3/17/2021 1:15:00 AM 4.27 39.686 0.179 7.13 5.29 12.15
3/17/2021 1:30:00 AM 4.27 39.686 0.179 7.13 5.35 12.15
3/17/2021 1:45:00 AM 4.26 39.668 0.179 7.13 5.07 12.15
3/17/2021 2:00:00 AM 4.26 39.668 0.179 7.13 5.21 12.15
3/17/2021 2:15:00 AM 4.26 39.668 0.179 7.13 5.2 12.14
3/17/2021 2:30:00 AM 4.25 39.65 0.179 7.13 5.23 12.14
3/17/2021 2:45:00 AM 4.25 39.65 0.179 7.12 5.24 12.14
3/17/2021 3:00:00 AM 4.24 39.632 0.179 7.12 5.14 12.14
3/17/2021 3:15:00 AM 4.24 39.632 0.179 7.13 5.34 12.14
3/17/2021 3:30:00 AM 4.24 39.632 0.18 7.13 5.12 12.13
3/17/2021 3:45:00 AM 4.24 39.632 0.18 7.12 5.25 12.13
3/17/2021 4:00:00 AM 4.23 39.614 0.18 7.12 5.13 12.13
3/17/2021 4:15:00 AM 4.23 39.614 0.18 7.13 5.18 12.13
3/17/2021 4:30:00 AM 4.23 39.614 0.179 7.11 5.24 12.13
3/17/2021 4:45:00 AM 4.23 39.614 0.18 7.12 5.26 12.13
3/17/2021 5:00:00 AM 4.23 39.614 0.18 7.13 5.27 12.12
3/17/2021 5:15:00 AM 4.23 39.614 0.18 7.11 5.4 12.12
3/17/2021 5:30:00 AM 4.24 39.632 0.18 7.12 5.35 12.12
3/17/2021 5:45:00 AM 4.24 39.632 0.18 7.13 5.48 12.12
3/17/2021 6:00:00 AM 4.24 39.632 0.18 7.11 5.29 12.12
3/17/2021 6:15:00 AM 4.24 39.632 0.18 7.12 5.36 12.12
3/17/2021 6:30:00 AM 4.24 39.632 0.18 7.12 5.24 12.11
3/17/2021 6:45:00 AM 4.24 39.632 0.18 7.12 5.07 12.11
3/17/2021 7:00:00 AM 4.24 39.632 0.181 7.12 5.34 12.11
3/17/2021 7:15:00 AM 4.24 39.632 0.18 7.12 5.43 12.11
3/17/2021 7:30:00 AM 4.24 39.632 0.181 7.12 5.27 12.11
3/17/2021 7:45:00 AM 4.24 39.632 0.181 7.13 5.14 12.11
3/17/2021 8:00:00 AM 4.24 39.632 0.181 7.12 5.36 12.12
3/17/2021 8:15:00 AM 4.25 39.65 0.181 7.12 5.43 12.13
3/17/2021 8:30:00 AM 4.26 39.668 0.18 7.13 4.89 12.15
3/17/2021 8:45:00 AM 4.28 39.704 0.181 7.13 5.16 12.16
3/17/2021 9:00:00 AM 4.3 39.74 0.181 7.13 5.06 12.18
3/17/2021 9:15:00 AM 4.33 39.794 0.18 7.13 5.28 12.2
3/17/2021 9:30:00 AM 4.37 39.866 0.18 7.14 5.08 12.22
3/17/2021 9:45:00 AM 4.41 39.938 0.18 7.13 5.07 12.23
3/17/2021 10:00:00 AM 4.46 40.028 0.18 7.14 4.95 12.25
3/17/2021 10:15:00 AM 4.52 40.136 0.18 7.14 5.09 12.25
3/17/2021 10:30:00 AM 4.59 40.262 0.181 7.14 5.08 12.26
3/17/2021 10:45:00 AM 4.68 40.424 0.18 7.15 4.82 12.28
3/17/2021 11:00:00 AM 4.8 40.64 0.181 7.15 4.98 12.28
3/17/2021 11:15:00 AM 4.99 40.982 0.181 7.15 4.89 12.27
3/17/2021 11:30:00 AM 5.17 41.306 0.18 7.16 4.92 12.26
3/17/2021 11:45:00 AM 5.36 41.648 0.18 7.15 4.89 12.25
3/17/2021 12:00:00 PM 5.57 42.026 0.18 7.17 5.05 12.23
3/17/2021 12:15:00 PM 5.78 42.404 0.181 7.17 4.99 12.21
3/17/2021 12:30:00 PM 5.98 42.764 0.18 7.17 5.04 12.19
3/17/2021 12:45:00 PM 6.17 43.106 0.18 7.18 4.82 12.17
3/17/2021 1:00:00 PM 6.36 43.448 0.181 7.16 5.03 12.15
3/17/2021 1:15:00 PM 6.53 43.754 0.18 7.18 4.82 12.13
3/17/2021 1:30:00 PM 6.69 44.042 0.181 7.18 5 12.11
3/17/2021 1:45:00 PM 6.83 44.294 0.181 7.18 4.86 12.09
3/17/2021 2:00:00 PM 6.96 44.528 0.181 7.19 4.84 12.07
3/17/2021 2:15:00 PM 7.03 44.654 0.181 7.19 4.91 12.05
3/17/2021 2:30:00 PM 7.11 44.798 0.181 7.19 4.85 12.04
3/17/2021 2:45:00 PM 7.22 44.996 0.181 7.19 4.83 12.02
3/17/2021 3:00:00 PM 7.34 45.212 0.181 7.19 4.67 12.01
3/17/2021 3:15:00 PM 7.43 45.374 0.181 7.19 4.95 11.98
3/17/2021 3:30:00 PM 7.49 45.482 0.181 7.2 4.68 11.97
3/17/2021 3:45:00 PM 7.56 45.608 0.181 7.2 4.76 11.95
3/17/2021 4:00:00 PM 7.61 45.698 0.181 7.2 4.88 11.93
3/17/2021 4:15:00 PM 7.66 45.788 0.181 7.2 5.02 11.91
3/17/2021 4:30:00 PM 7.66 45.788 0.181 7.2 4.76 11.9
3/17/2021 4:45:00 PM 7.66 45.788 0.181 7.2 4.9 11.88
3/17/2021 5:00:00 PM 7.62 45.716 0.181 7.19 5.04 11.86
3/17/2021 5:15:00 PM 7.56 45.608 0.181 7.2 4.93 11.84
3/17/2021 5:30:00 PM 7.5 45.5 0.181 7.2 5.09 11.83
3/17/2021 5:45:00 PM 7.44 45.392 0.181 7.2 4.73 11.81
3/17/2021 6:00:00 PM 7.4 45.32 0.181 7.2 5.29 11.8
3/17/2021 6:15:00 PM 7.35 45.23 0.181 7.19 4.89 11.78
3/17/2021 6:30:00 PM 7.31 45.158 0.182 7.19 5.02 11.75
3/17/2021 6:45:00 PM 7.25 45.05 0.182 7.18 4.87 11.71
3/17/2021 7:00:00 PM 7.18 44.924 0.182 7.18 4.79 11.69
3/17/2021 7:15:00 PM 7.11 44.798 0.182 7.17 5.28 11.66
3/17/2021 7:30:00 PM 7.05 44.69 0.182 7.17 5.16 11.63
3/17/2021 7:45:00 PM 7 44.6 0.182 7.16 4.93 11.6
3/17/2021 8:00:00 PM 6.95 44.51 0.182 7.16 5.08 11.58
3/17/2021 8:15:00 PM 6.92 44.456 0.182 7.16 5.13 11.56
3/17/2021 8:30:00 PM 6.88 44.384 0.182 7.16 5.2 11.54
3/17/2021 8:45:00 PM 6.87 44.366 0.182 7.16 5 11.52
3/17/2021 9:00:00 PM 6.85 44.33 0.183 7.15 5.18 11.51
3/17/2021 9:15:00 PM 6.85 44.33 0.183 7.15 5.24 11.5
3/17/2021 9:30:00 PM 6.84 44.312 0.183 7.15 5.21 11.48
3/17/2021 9:45:00 PM 6.83 44.294 0.183 7.15 5.29 11.46
3/17/2021 10:00:00 PM 6.82 44.276 0.183 7.15 5.3 11.45
3/17/2021 10:15:00 PM 6.81 44.258 0.183 7.15 5.49 11.44
3/17/2021 10:30:00 PM 6.8 44.24 0.183 7.14 5.36 11.43
3/17/2021 10:45:00 PM 6.79 44.222 0.183 7.15 5.4 11.41
3/17/2021 11:00:00 PM 6.79 44.222 0.183 7.13 5.18 11.4
3/17/2021 11:15:00 PM 6.79 44.222 0.183 7.15 5.3 11.39
3/17/2021 11:30:00 PM 6.8 44.24 0.183 7.15 5.04 11.37
3/17/2021 11:45:00 PM 6.79 44.222 0.183 7.15 5.31 11.37
3/18/2021 12:00:00 AM 6.79 44.222 0.183 7.13 5.67 11.36
3/18/2021 12:15:00 AM 6.78 44.204 0.183 7.15 5.38 11.35
3/18/2021 12:30:00 AM 6.77 44.186 0.183 7.14 5.17 11.34
3/18/2021 12:45:00 AM 6.76 44.168 0.183 7.14 5.73 11.33
3/18/2021 1:00:00 AM 6.75 44.15 0.184 7.14 5.08 11.33
3/18/2021 1:15:00 AM 6.74 44.132 0.184 7.14 5.4 11.32
3/18/2021 1:30:00 AM 6.72 44.096 0.184 7.14 5.51 11.32
3/18/2021 1:45:00 AM 6.71 44.078 0.184 7.13 5.45 11.32
3/18/2021 2:00:00 AM 6.69 44.042 0.184 7.14 5.42 11.32
3/18/2021 2:15:00 AM 6.67 44.006 0.184 7.14 5.59 11.31
3/18/2021 2:30:00 AM 6.66 43.988 0.184 7.14 5.34 11.31
3/18/2021 2:45:00 AM 6.64 43.952 0.184 7.14 5.27 11.32
3/18/2021 3:00:00 AM 6.63 43.934 0.184 7.14 5.41 11.31
3/18/2021 3:15:00 AM 6.61 43.898 0.184 7.14 5.38 11.31
3/18/2021 3:30:00 AM 6.59 43.862 0.184 7.13 5.17 11.31
3/18/2021 3:45:00 AM 6.57 43.826 0.184 7.14 5.38 11.31
3/18/2021 4:00:00 AM 6.56 43.808 0.184 7.14 5.4 11.31
3/18/2021 4:15:00 AM 6.54 43.772 0.184 7.14 5.4 11.31
3/18/2021 4:30:00 AM 6.53 43.754 0.184 7.13 5.34 11.31
3/18/2021 4:45:00 AM 6.52 43.736 0.184 7.13 5.66 11.3
3/18/2021 5:00:00 AM 6.51 43.718 0.184 7.13 5.48 11.31
3/18/2021 5:15:00 AM 6.5 43.7 0.184 7.13 5.84 11.31
3/18/2021 5:30:00 AM 6.49 43.682 0.184 7.13 5.68 11.3
3/18/2021 5:45:00 AM 6.48 43.664 0.184 7.13 5.79 11.3
3/18/2021 6:00:00 AM 6.47 43.646 0.184 7.13 5.6 11.3
3/18/2021 6:15:00 AM 6.46 43.628 0.184 7.13 5.61 11.3
3/18/2021 6:30:00 AM 6.45 43.61 0.184 7.13 5.67 11.3
3/18/2021 6:45:00 AM 6.44 43.592 0.185 7.13 5.48 11.3
3/18/2021 7:00:00 AM 6.43 43.574 0.188 7.13 5.81 11.29
3/18/2021 7:15:00 AM 6.43 43.574 0.188 7.13 6.12 11.29
3/18/2021 7:30:00 AM 6.42 43.556 0.186 7.12 5.34 11.28
3/18/2021 7:45:00 AM 6.42 43.556 0.187 7.12 5.89 11.28
3/18/2021 8:00:00 AM 6.41 43.538 0.187 7.12 5.72 11.28
3/18/2021 8:15:00 AM 6.41 43.538 0.19 7.12 6.77 11.29
3/18/2021 8:30:00 AM 6.41 43.538 0.196 7.13 7.88 11.29
3/18/2021 8:45:00 AM 6.41 43.538 0.192 7.13 7.67 11.3
3/18/2021 9:00:00 AM 6.42 43.556 0.191 7.13 7.9 11.3
3/18/2021 9:15:00 AM 6.43 43.574 0.191 7.12 8.02 11.3
3/18/2021 9:30:00 AM 6.43 43.574 0.19 7.13 7.39 11.31
3/18/2021 9:45:00 AM 6.46 43.628 0.187 6.84 9.02 11.14
3/18/2021 10:00:00 AM 6.47 43.646 0.187 6.84 9.35 11.15
3/18/2021 10:15:00 AM 6.49 43.682 0.186 6.87 9.21 11.16
3/18/2021 10:30:00 AM 6.51 43.718 0.186 6.88 8.91 11.17
3/18/2021 10:45:00 AM 6.53 43.754 0.185 6.9 8.82 11.19
3/18/2021 11:00:00 AM 6.54 43.772 0.185 6.91 8.55 11.2
3/18/2021 11:15:00 AM 6.56 43.808 0.184 6.92 8.33 11.21
3/18/2021 11:30:00 AM 6.58 43.844 0.183 6.93 7.94 11.22
3/18/2021 11:45:00 AM 6.59 43.862 0.183 6.93 7.69 11.23
3/18/2021 12:00:00 PM 6.6 43.88 0.183 6.93 7.29 11.23
3/18/2021 12:15:00 PM 6.61 43.898 0.183 6.94 7.3 11.25
3/18/2021 12:30:00 PM 6.63 43.934 0.183 6.95 7.58 11.26
3/18/2021 12:45:00 PM 6.65 43.97 0.183 6.95 7.99 11.27
3/18/2021 1:00:00 PM 6.66 43.988 0.183 6.96 7.84 11.27
3/18/2021 1:15:00 PM 6.66 43.988 0.182 6.96 7.61 11.28
3/18/2021 1:30:00 PM 6.66 43.988 0.183 6.97 8.48 11.28
3/18/2021 1:45:00 PM 6.67 44.006 0.183 6.98 8.86 11.28
3/18/2021 2:00:00 PM 6.67 44.006 0.184 6.98 9.36 11.28
3/18/2021 2:15:00 PM 6.68 44.024 0.184 6.98 9.55 11.3
3/18/2021 2:30:00 PM 6.69 44.042 0.183 6.99 10.1 11.3
3/18/2021 2:45:00 PM 6.68 44.024 0.183 6.99 10.25 11.31
3/18/2021 3:00:00 PM 6.68 44.024 0.182 7 11.84 11.31
3/18/2021 3:15:00 PM 6.67 44.006 0.181 7.01 11.64 11.3
3/18/2021 3:30:00 PM 6.69 44.042 0.18 7.01 13.85 11.31
3/18/2021 3:45:00 PM 6.69 44.042 0.18 7.02 14.41 11.3
3/18/2021 4:00:00 PM 6.68 44.024 0.179 7.02 15.56 11.3
3/18/2021 4:15:00 PM 6.66 43.988 0.178 7.01 14.28 11.3
3/18/2021 4:30:00 PM 6.62 43.916 0.177 7 14.18 11.29
3/18/2021 4:45:00 PM 6.59 43.862 0.176 7 13.88 11.28
3/18/2021 5:00:00 PM 6.55 43.79 0.176 6.99 14.52 11.26
3/18/2021 5:15:00 PM 6.52 43.736 0.175 6.99 16.16 11.27
3/18/2021 5:30:00 PM 6.5 43.7 0.175 6.99 20.83 11.26
3/18/2021 5:45:00 PM 6.47 43.646 0.176 7 20.91 11.27
3/18/2021 6:00:00 PM 6.43 43.574 0.176 6.99 21.76 11.28
3/18/2021 6:15:00 PM 6.38 43.484 0.176 6.98 21.75 11.29
3/18/2021 6:30:00 PM 6.33 43.394 0.176 6.96 22.2 11.29
3/18/2021 6:45:00 PM 6.29 43.322 0.176 6.96 23.74 11.29
3/18/2021 7:00:00 PM 6.24 43.232 0.173 6.94 25.17 11.29
3/18/2021 7:15:00 PM 6.2 43.16 0.171 6.93 25.89 11.3
3/18/2021 7:30:00 PM 6.16 43.088 0.168 6.94 25.99 11.3
3/18/2021 7:45:00 PM 6.11 42.998 0.166 6.93 25.84 11.31
3/18/2021 8:00:00 PM 6.07 42.926 0.164 6.92 26.6 11.31
3/18/2021 8:15:00 PM 6.03 42.854 0.163 6.91 28.05 11.32
3/18/2021 8:30:00 PM 6 42.8 0.161 6.91 29.86 11.32
3/18/2021 8:45:00 PM 5.96 42.728 0.16 6.92 28.15 11.32
3/18/2021 9:00:00 PM 5.93 42.674 0.158 6.9 30.58 11.33
3/18/2021 9:15:00 PM 5.9 42.62 0.156 6.89 32.83 11.33
3/18/2021 9:30:00 PM 5.86 42.548 0.155 6.89 33.78 11.34
3/18/2021 9:45:00 PM 5.83 42.494 0.154 6.88 34.44 11.35
3/18/2021 10:00:00 PM 5.79 42.422 0.152 6.88 35.85 11.35
3/18/2021 10:15:00 PM 5.76 42.368 0.152 6.88 38.02 11.35
3/18/2021 10:30:00 PM 5.72 42.296 0.152 6.88 40.52 11.35
3/18/2021 10:45:00 PM 5.69 42.242 0.152 6.86 42.32 11.36
3/18/2021 11:00:00 PM 5.65 42.17 0.151 6.86 41.75 11.37
3/18/2021 11:15:00 PM 5.61 42.098 0.151 6.86 42.84 11.38
3/18/2021 11:30:00 PM 5.57 42.026 0.151 6.86 43.9 11.39
3/18/2021 11:45:00 PM 5.53 41.954 0.15 6.87 37.87 11.39
3/19/2021 12:00:00 AM 5.5 41.9 0.149 6.86 43.07 11.4
3/19/2021 12:15:00 AM 5.47 41.846 0.149 6.86 44.63 11.41
3/19/2021 12:30:00 AM 5.44 41.792 0.148 6.87 46.28 11.42
3/19/2021 12:45:00 AM 5.4 41.72 0.148 6.86 45.96 11.42
3/19/2021 1:00:00 AM 5.37 41.666 0.147 6.87 45.59 11.44
3/19/2021 1:15:00 AM 5.33 41.594 0.147 6.87 46.79 11.44
3/19/2021 1:30:00 AM 5.29 41.522 0.146 6.87 47.56 11.45
3/19/2021 1:45:00 AM 5.24 41.432 0.146 6.87 51.57 11.46
3/19/2021 2:00:00 AM 5.2 41.36 0.145 6.87 39.51 11.46
3/19/2021 2:15:00 AM 5.16 41.288 0.145 6.87 47.08 11.48
3/19/2021 2:30:00 AM 5.12 41.216 0.145 6.87 51.63 11.48
3/19/2021 2:45:00 AM 5.07 41.126 0.144 6.87 50.83 11.49
3/19/2021 3:00:00 AM 5.03 41.054 0.145 6.87 43.06 11.5
3/19/2021 3:15:00 AM 4.98 40.964 0.145 6.86 47.6 11.51
3/19/2021 3:30:00 AM 4.94 40.892 0.144 6.87 48.05 11.52
3/19/2021 3:45:00 AM 4.88 40.784 0.144 6.87 47.2 11.54
3/19/2021 4:00:00 AM 4.84 40.712 0.144 6.87 46.36 11.55
3/19/2021 4:15:00 AM 4.8 40.64 0.144 6.86 47.84 11.55
3/19/2021 4:30:00 AM 4.75 40.55 0.144 6.86 45.22 11.56
3/19/2021 4:45:00 AM 4.7 40.46 0.144 6.87 47.47 11.57
3/19/2021 5:00:00 AM 4.65 40.37 0.144 6.88 51.56 11.58
3/19/2021 5:15:00 AM 4.6 40.28 0.144 6.86 47.55 11.6
3/19/2021 5:30:00 AM 4.55 40.19 0.143 6.86 47.37 11.61
3/19/2021 5:45:00 AM 4.5 40.1 0.143 6.86 47.8 11.62
3/19/2021 6:00:00 AM 4.45 40.01 0.143 6.85 47.7 11.63
3/19/2021 6:15:00 AM 4.41 39.938 0.142 6.85 46.5 11.65
3/19/2021 6:30:00 AM 4.36 39.848 0.142 6.85 46.69 11.66
3/19/2021 6:45:00 AM 4.3 39.74 0.141 6.86 46.17 11.68
3/19/2021 7:00:00 AM 4.25 39.65 0.141 6.84 45.07 11.69
3/19/2021 7:15:00 AM 4.21 39.578 0.141 6.85 45.37 11.7
3/19/2021 7:30:00 AM 4.16 39.488 0.141 6.86 44 11.72
3/19/2021 7:45:00 AM 4.11 39.398 0.141 6.85 43.42 11.73
3/19/2021 8:00:00 AM 4.07 39.326 0.141 6.85 42.62 11.75
3/19/2021 8:15:00 AM 4.03 39.254 0.14 6.86 41.14 11.77
3/19/2021 8:30:00 AM 4.02 39.236 0.141 6.86 41.14 11.79
3/19/2021 8:45:00 AM 3.97 39.146 0.141 6.86 42.69 11.8
3/19/2021 9:00:00 AM 3.95 39.11 0.141 6.86 39 11.82
3/19/2021 9:15:00 AM 3.93 39.074 0.141 6.86 38.43 11.84
3/19/2021 9:30:00 AM 3.92 39.056 0.141 6.87 36.92 11.86
3/19/2021 9:45:00 AM 3.94 39.092 0.141 6.86 36.35 11.87
3/19/2021 10:00:00 AM 3.96 39.128 0.141 6.86 36.73 11.88
3/19/2021 10:15:00 AM 3.98 39.164 0.141 6.86 34.52 11.91
3/19/2021 10:30:00 AM 4.01 39.218 0.142 6.87 32.77 11.92
3/19/2021 10:45:00 AM 4.07 39.326 0.142 6.87 32.53 11.94
3/19/2021 11:00:00 AM 4.11 39.398 0.142 6.87 31.72 11.95
3/19/2021 11:15:00 AM 4.17 39.506 0.142 6.88 30.18 11.96
3/19/2021 11:30:00 AM 4.23 39.614 0.143 6.87 30.33 11.97
3/19/2021 11:45:00 AM 4.3 39.74 0.143 6.88 29.65 11.99
3/19/2021 12:00:00 PM 4.39 39.902 0.143 6.88 29.16 11.99
3/19/2021 12:15:00 PM 4.46 40.028 0.143 6.88 27.56 12
3/19/2021 12:30:00 PM 4.54 40.172 0.143 6.88 27.29 12.01
3/19/2021 12:45:00 PM 4.63 40.334 0.144 6.88 27.01 12.02
3/19/2021 1:00:00 PM 4.72 40.496 0.144 6.88 26.42 12.03
3/19/2021 1:15:00 PM 4.81 40.658 0.144 6.89 26.05 12.03
3/19/2021 1:30:00 PM 4.89 40.802 0.145 6.88 25.46 12.04
3/19/2021 1:45:00 PM 4.98 40.964 0.145 6.89 25.28 12.04
3/19/2021 2:00:00 PM 5.06 41.108 0.145 6.9 24.21 12.04
3/19/2021 2:15:00 PM 5.15 41.27 0.145 6.89 23.67 12.04
3/19/2021 2:30:00 PM 5.22 41.396 0.146 6.89 23.57 12.04
3/19/2021 2:45:00 PM 5.29 41.522 0.146 6.9 23.4 12.05
3/19/2021 3:00:00 PM 5.36 41.648 0.146 6.9 23.1 12.04
3/19/2021 3:15:00 PM 5.41 41.738 0.146 6.9 23.08 12.05
3/19/2021 3:30:00 PM 5.46 41.828 0.147 6.9 21.82 12.05
3/19/2021 3:45:00 PM 5.5 41.9 0.147 6.89 21.64 12.04
3/19/2021 4:00:00 PM 5.53 41.954 0.147 6.89 21.14 12.04
3/19/2021 4:15:00 PM 5.55 41.99 0.148 6.9 20.96 12.04
3/19/2021 4:30:00 PM 5.56 42.008 0.148 6.9 20.5 12.04
3/19/2021 4:45:00 PM 5.56 42.008 0.148 6.89 20.77 12.04
3/19/2021 5:00:00 PM 5.53 41.954 0.148 6.89 19.75 12.03
3/19/2021 5:15:00 PM 5.5 41.9 0.149 6.89 19.16 12.03
3/19/2021 5:30:00 PM 5.45 41.81 0.149 6.89 18.85 12.02
3/19/2021 5:45:00 PM 5.4 41.72 0.15 6.89 18.68 12.01
3/19/2021 6:00:00 PM 5.34 41.612 0.15 6.89 18.41 12.01
3/19/2021 6:15:00 PM 5.28 41.504 0.15 6.89 17.95 12
3/19/2021 6:30:00 PM 5.23 41.414 0.151 6.89 17.86 11.99
3/19/2021 6:45:00 PM 5.18 41.324 0.151 6.89 17.46 11.98
3/19/2021 7:00:00 PM 5.14 41.252 0.151 6.89 17.36 11.97
3/19/2021 7:15:00 PM 5.11 41.198 0.152 6.88 17.04 11.96
3/19/2021 7:30:00 PM 5.08 41.144 0.152 6.89 17.06 11.95
3/19/2021 7:45:00 PM 5.06 41.108 0.152 6.88 17.09 11.93
3/19/2021 8:00:00 PM 5.04 41.072 0.153 6.88 16.75 11.92
3/19/2021 8:15:00 PM 5.01 41.018 0.153 6.88 16.74 11.92
3/19/2021 8:30:00 PM 4.97 40.946 0.153 6.88 16.26 11.91
3/19/2021 8:45:00 PM 4.94 40.892 0.153 6.87 16.27 11.91
3/19/2021 9:00:00 PM 4.91 40.838 0.153 6.88 15.71 11.91
3/19/2021 9:15:00 PM 4.88 40.784 0.154 6.88 15.79 11.91
3/19/2021 9:30:00 PM 4.84 40.712 0.154 6.88 15.53 11.91
3/19/2021 9:45:00 PM 4.8 40.64 0.154 6.88 15.62 11.91
3/19/2021 10:00:00 PM 4.75 40.55 0.155 6.88 15.1 11.92
3/19/2021 10:15:00 PM 4.71 40.478 0.155 6.89 15.23 11.92
3/19/2021 10:30:00 PM 4.66 40.388 0.155 6.88 14.73 11.92
3/19/2021 10:45:00 PM 4.62 40.316 0.155 6.9 14 11.93
3/19/2021 11:00:00 PM 4.58 40.244 0.155 6.89 14.13 11.93
3/19/2021 11:15:00 PM 4.54 40.172 0.156 6.89 14.46 11.94
3/19/2021 11:30:00 PM 4.5 40.1 0.156 6.89 13.87 11.94
3/19/2021 11:45:00 PM 4.47 40.046 0.156 6.9 13.77 11.95
3/20/2021 12:00:00 AM 4.43 39.974 0.156 6.9 13.61 11.95
3/20/2021 12:15:00 AM 4.4 39.92 0.157 6.9 13.62 11.95
3/20/2021 12:30:00 AM 4.37 39.866 0.157 6.89 13.47 11.96
3/20/2021 12:45:00 AM 4.34 39.812 0.157 6.89 13.48 11.96
3/20/2021 1:00:00 AM 4.31 39.758 0.157 6.9 13.32 11.96
3/20/2021 1:15:00 AM 4.28 39.704 0.157 6.9 13 11.97
3/20/2021 1:30:00 AM 4.25 39.65 0.157 6.9 13.02 11.97
3/20/2021 1:45:00 AM 4.23 39.614 0.157 6.9 12.6 11.97
3/20/2021 2:00:00 AM 4.2 39.56 0.157 6.9 12.27 11.97
3/20/2021 2:15:00 AM 4.17 39.506 0.158 6.9 12.54 11.98
3/20/2021 2:30:00 AM 4.15 39.47 0.158 6.9 11.9 11.98
3/20/2021 2:45:00 AM 4.12 39.416 0.158 6.9 12.15 11.99
3/20/2021 3:00:00 AM 4.09 39.362 0.158 6.9 12.45 12
3/20/2021 3:15:00 AM 4.06 39.308 0.158 6.9 11.83 12
3/20/2021 3:30:00 AM 4.03 39.254 0.158 6.9 12.14 12
3/20/2021 3:45:00 AM 4 39.2 0.159 6.91 12.07 12.01
3/20/2021 4:00:00 AM 3.97 39.146 0.159 6.91 11.86 12.02
3/20/2021 4:15:00 AM 3.94 39.092 0.159 6.91 11.63 12.02
3/20/2021 4:30:00 AM 3.91 39.038 0.159 6.91 11.27 12.03
3/20/2021 4:45:00 AM 3.88 38.984 0.159 6.91 11.26 12.03
3/20/2021 5:00:00 AM 3.85 38.93 0.159 6.9 11 12.04
3/20/2021 5:15:00 AM 3.81 38.858 0.16 6.91 11.3 12.05
3/20/2021 5:30:00 AM 3.78 38.804 0.16 6.91 11.68 12.06
3/20/2021 5:45:00 AM 3.74 38.732 0.16 6.91 11.22 12.08
3/20/2021 6:00:00 AM 3.7 38.66 0.16 6.91 11.17 12.09
3/20/2021 6:15:00 AM 3.66 38.588 0.16 6.91 11.25 12.09
3/20/2021 6:30:00 AM 3.63 38.534 0.16 6.91 10.88 12.11
3/20/2021 6:45:00 AM 3.59 38.462 0.16 6.92 11.33 12.13
3/20/2021 7:00:00 AM 3.55 38.39 0.16 6.91 10.88 12.14
3/20/2021 7:15:00 AM 3.51 38.318 0.16 6.91 10.52 12.14
3/20/2021 7:30:00 AM 3.48 38.264 0.161 6.91 10.96 12.16
3/20/2021 7:45:00 AM 3.45 38.21 0.161 6.92 11.17 12.18
3/20/2021 8:00:00 AM 3.43 38.174 0.161 6.92 10.87 12.2
3/20/2021 8:15:00 AM 3.41 38.138 0.161 6.93 10.6 12.22
3/20/2021 8:30:00 AM 3.4 38.12 0.161 6.92 10.42 12.26
3/20/2021 8:45:00 AM 3.4 38.12 0.161 6.93 10.33 12.27
3/20/2021 9:00:00 AM 3.41 38.138 0.161 6.94 10.2 12.31
3/20/2021 9:15:00 AM 3.44 38.192 0.162 6.94 10.38 12.32
3/20/2021 9:30:00 AM 3.49 38.282 0.162 6.94 10.1 12.34
3/20/2021 9:45:00 AM 3.56 38.408 0.162 6.95 9.95 12.36
3/20/2021 10:00:00 AM 3.63 38.534 0.162 6.95 9.7 12.36
3/20/2021 10:15:00 AM 3.72 38.696 0.162 6.95 9.91 12.38
3/20/2021 10:30:00 AM 3.82 38.876 0.162 6.95 9.37 12.39
3/20/2021 10:45:00 AM 3.92 39.056 0.162 6.95 9.63 12.39
3/20/2021 11:00:00 AM 4.03 39.254 0.162 6.96 9.86 12.39
3/20/2021 11:15:00 AM 4.13 39.434 0.162 6.95 9.91 12.39
3/20/2021 11:30:00 AM 4.25 39.65 0.162 6.95 9.26 12.4
3/20/2021 11:45:00 AM 4.36 39.848 0.162 6.96 9.13 12.41
3/20/2021 12:00:00 PM 4.48 40.064 0.163 6.96 9.38 12.42
3/20/2021 12:15:00 PM 4.6 40.28 0.163 6.96 9.09 12.41
3/20/2021 12:30:00 PM 4.72 40.496 0.163 6.96 9.09 12.41
3/20/2021 12:45:00 PM 4.84 40.712 0.163 6.96 9.09 12.41
3/20/2021 1:00:00 PM 4.98 40.964 0.163 6.97 8.98 12.41
3/20/2021 1:15:00 PM 5.1 41.18 0.163 6.97 8.67 12.41
3/20/2021 1:30:00 PM 5.23 41.414 0.163 6.97 9.18 12.4
3/20/2021 1:45:00 PM 5.34 41.612 0.163 6.97 9.27 12.39
3/20/2021 2:00:00 PM 5.46 41.828 0.163 6.98 8.97 12.39
3/20/2021 2:15:00 PM 5.57 42.026 0.163 6.98 8.82 12.38
3/20/2021 2:30:00 PM 5.68 42.224 0.163 6.97 8.9 12.37
3/20/2021 2:45:00 PM 5.78 42.404 0.163 6.97 9.1 12.36
3/20/2021 3:00:00 PM 5.85 42.53 0.163 6.97 8.59 12.35
3/20/2021 3:15:00 PM 5.92 42.656 0.163 6.98 8.62 12.33
3/20/2021 3:30:00 PM 5.98 42.764 0.163 6.98 8.66 12.33
3/20/2021 3:45:00 PM 6.02 42.836 0.163 6.98 8.64 12.32
3/20/2021 4:00:00 PM 6.05 42.89 0.163 6.97 8.25 12.31
3/20/2021 4:15:00 PM 6.07 42.926 0.164 6.97 8.67 12.3
3/20/2021 4:30:00 PM 6.07 42.926 0.164 6.98 8.24 12.28
3/20/2021 4:45:00 PM 6.06 42.908 0.164 6.97 8.16 12.28
3/20/2021 5:00:00 PM 6.04 42.872 0.164 6.98 8.29 12.26
3/20/2021 5:15:00 PM 6 42.8 0.164 6.98 8.34 12.25
3/20/2021 5:30:00 PM 5.94 42.692 0.164 6.97 8.12 12.23
3/20/2021 5:45:00 PM 5.88 42.584 0.164 6.96 8.24 12.21
3/20/2021 6:00:00 PM 5.81 42.458 0.164 6.97 8.13 12.2
3/20/2021 6:15:00 PM 5.75 42.35 0.165 6.97 8.06 12.18
3/20/2021 6:30:00 PM 5.68 42.224 0.164 6.96 8.39 12.16
3/20/2021 6:45:00 PM 5.63 42.134 0.165 6.96 8.52 12.13
3/20/2021 7:00:00 PM 5.59 42.062 0.165 6.96 8.36 12.11
3/20/2021 7:15:00 PM 5.55 41.99 0.165 6.96 8.39 12.09
3/20/2021 7:30:00 PM 5.52 41.936 0.165 6.96 8.68 12.06
3/20/2021 7:45:00 PM 5.49 41.882 0.166 6.96 8.58 12.02
3/20/2021 8:00:00 PM 5.46 41.828 0.165 6.95 8.98 12
3/20/2021 8:15:00 PM 5.43 41.774 0.166 6.96 8.63 11.98
3/20/2021 8:30:00 PM 5.41 41.738 0.166 6.95 8.32 11.97
3/20/2021 8:45:00 PM 5.38 41.684 0.166 6.95 8.36 11.96
3/20/2021 9:00:00 PM 5.35 41.63 0.166 6.94 8.37 11.94
3/20/2021 9:15:00 PM 5.31 41.558 0.166 6.94 8.02 11.93
3/20/2021 9:30:00 PM 5.28 41.504 0.166 6.94 8.41 11.92
3/20/2021 9:45:00 PM 5.24 41.432 0.166 6.95 8.47 11.92
3/20/2021 10:00:00 PM 5.2 41.36 0.166 6.95 8.2 11.91
3/20/2021 10:15:00 PM 5.15 41.27 0.166 6.95 8.03 11.91
3/20/2021 10:30:00 PM 5.11 41.198 0.166 6.94 8.34 11.9
3/20/2021 10:45:00 PM 5.06 41.108 0.166 6.94 8.33 11.9
3/20/2021 11:00:00 PM 5.01 41.018 0.166 6.94 8.24 11.9
3/20/2021 11:15:00 PM 4.96 40.928 0.166 6.94 8.21 11.91
3/20/2021 11:30:00 PM 4.92 40.856 0.166 6.94 7.96 11.91
3/20/2021 11:45:00 PM 4.87 40.766 0.166 6.94 8.04 11.92
3/21/2021 12:00:00 AM 4.82 40.676 0.166 6.94 8.19 11.92
3/21/2021 12:15:00 AM 4.78 40.604 0.166 6.94 8.58 11.93
3/21/2021 12:30:00 AM 4.73 40.514 0.167 6.95 8.86 11.92
3/21/2021 12:45:00 AM 4.69 40.442 0.167 6.94 8.32 11.93
3/21/2021 1:00:00 AM 4.65 40.37 0.167 6.95 8.4 11.93
3/21/2021 1:15:00 AM 4.61 40.298 0.167 6.95 8.23 11.93
3/21/2021 1:30:00 AM 4.58 40.244 0.167 6.95 8.17 11.94
3/21/2021 1:45:00 AM 4.54 40.172 0.167 6.95 7.82 11.94
3/21/2021 2:00:00 AM 4.51 40.118 0.167 6.94 7.78 11.94
3/21/2021 2:15:00 AM 4.48 40.064 0.167 6.95 7.83 11.94
3/21/2021 2:30:00 AM 4.44 39.992 0.167 6.94 8.19 11.95
3/21/2021 2:45:00 AM 4.41 39.938 0.167 6.95 8.41 11.95
3/21/2021 3:00:00 AM 4.38 39.884 0.167 6.94 7.94 11.95
3/21/2021 3:15:00 AM 4.35 39.83 0.167 6.94 7.98 11.95
3/21/2021 3:30:00 AM 4.32 39.776 0.168 6.95 8.07 11.96
3/21/2021 3:45:00 AM 4.29 39.722 0.168 6.94 8.12 11.96
3/21/2021 4:00:00 AM 4.26 39.668 0.168 6.95 8.11 11.96
3/21/2021 4:15:00 AM 4.22 39.596 0.168 6.94 7.9 11.97
3/21/2021 4:30:00 AM 4.19 39.542 0.168 6.95 7.68 11.96
3/21/2021 4:45:00 AM 4.16 39.488 0.168 6.94 7.6 11.97
3/21/2021 5:00:00 AM 4.13 39.434 0.168 6.95 7.76 11.98
3/21/2021 5:15:00 AM 4.1 39.38 0.168 6.95 7.82 11.98
3/21/2021 5:30:00 AM 4.07 39.326 0.168 6.95 7.65 11.98
3/21/2021 5:45:00 AM 4.04 39.272 0.168 6.94 7.9 11.99
3/21/2021 6:00:00 AM 4 39.2 0.169 6.95 7.86 12
3/21/2021 6:15:00 AM 3.97 39.146 0.169 6.95 7.75 12.01
3/21/2021 6:30:00 AM 3.94 39.092 0.169 6.95 7.9 12.01
3/21/2021 6:45:00 AM 3.91 39.038 0.169 6.95 7.6 12.02
3/21/2021 7:00:00 AM 3.87 38.966 0.169 6.95 7.88 12.03
3/21/2021 7:15:00 AM 3.84 38.912 0.169 6.95 7.85 12.04
3/21/2021 7:30:00 AM 3.81 38.858 0.169 6.95 7.83 12.05
3/21/2021 7:45:00 AM 3.78 38.804 0.169 6.95 7.72 12.07
3/21/2021 8:00:00 AM 3.76 38.768 0.169 6.95 7.75 12.09
3/21/2021 8:15:00 AM 3.74 38.732 0.169 6.96 7.73 12.13
3/21/2021 8:30:00 AM 3.73 38.714 0.17 6.96 7.8 12.16
3/21/2021 8:45:00 AM 3.74 38.732 0.17 6.96 7.55 12.18
3/21/2021 9:00:00 AM 3.75 38.75 0.169 6.97 7.49 12.22
3/21/2021 9:15:00 AM 3.8 38.84 0.17 6.97 7.4 12.23
3/21/2021 9:30:00 AM 3.87 38.966 0.17 6.98 7.41 12.26
3/21/2021 9:45:00 AM 3.96 39.128 0.17 6.99 7.44 12.27
3/21/2021 10:00:00 AM 4.06 39.308 0.17 6.98 7.49 12.27
3/21/2021 10:15:00 AM 4.17 39.506 0.17 6.99 7.46 12.28
3/21/2021 10:30:00 AM 4.3 39.74 0.17 6.99 7.39 12.28
3/21/2021 10:45:00 AM 4.44 39.992 0.17 6.99 7.24 12.27
3/21/2021 11:00:00 AM 4.58 40.244 0.17 7 6.99 12.28
3/21/2021 11:15:00 AM 4.73 40.514 0.17 7 6.97 12.28
3/21/2021 11:30:00 AM 4.86 40.748 0.17 7.01 7.22 12.27
3/21/2021 11:45:00 AM 5.01 41.018 0.17 7 7.21 12.27
3/21/2021 12:00:00 PM 5.15 41.27 0.17 7 7.19 12.26
3/21/2021 12:15:00 PM 5.3 41.54 0.17 7.01 6.95 12.25
3/21/2021 12:30:00 PM 5.44 41.792 0.17 7.01 6.56 12.25
3/21/2021 12:45:00 PM 5.59 42.062 0.17 7.01 7.09 12.24
3/21/2021 1:00:00 PM 5.75 42.35 0.17 7.01 6.73 12.23
3/21/2021 1:15:00 PM 5.9 42.62 0.17 7.01 6.69 12.22
3/21/2021 1:30:00 PM 6.05 42.89 0.17 7.01 6.78 12.21
3/21/2021 1:45:00 PM 6.2 43.16 0.17 7.02 6.82 12.19
3/21/2021 2:00:00 PM 6.34 43.412 0.17 7.02 6.96 12.18
3/21/2021 2:15:00 PM 6.47 43.646 0.17 7.02 6.68 12.17
3/21/2021 2:30:00 PM 6.6 43.88 0.171 7.02 6.78 12.16
3/21/2021 2:45:00 PM 6.72 44.096 0.17 7.02 6.79 12.15
3/21/2021 3:00:00 PM 6.81 44.258 0.17 7.02 6.9 12.13
3/21/2021 3:15:00 PM 6.9 44.42 0.17 7.01 6.74 12.12
3/21/2021 3:30:00 PM 6.98 44.564 0.171 7.02 6.74 12.1
3/21/2021 3:45:00 PM 7.02 44.636 0.17 7.01 6.61 12.09
3/21/2021 4:00:00 PM 7.06 44.708 0.17 7.01 6.67 12.07
3/21/2021 4:15:00 PM 7.07 44.726 0.171 7.01 6.72 12.06
3/21/2021 4:30:00 PM 7.07 44.726 0.17 7.01 6.69 12.06
3/21/2021 4:45:00 PM 7.06 44.708 0.171 7.01 6.78 12.04
3/21/2021 5:00:00 PM 7.03 44.654 0.171 7.01 6.73 12.03
3/21/2021 5:15:00 PM 6.98 44.564 0.171 7.01 6.6 12.01
3/21/2021 5:30:00 PM 6.91 44.438 0.171 7.01 6.8 12
3/21/2021 5:45:00 PM 6.83 44.294 0.171 7 6.48 11.98
3/21/2021 6:00:00 PM 6.74 44.132 0.171 7 6.85 11.96
3/21/2021 6:15:00 PM 6.66 43.988 0.171 7 6.63 11.94
3/21/2021 6:30:00 PM 6.58 43.844 0.171 7 6.83 11.92
3/21/2021 6:45:00 PM 6.51 43.718 0.172 7.01 8.3 11.9
3/21/2021 7:00:00 PM 6.46 43.628 0.172 7 6.7 11.87
3/21/2021 7:15:00 PM 6.41 43.538 0.172 7 6.63 11.84
3/21/2021 7:30:00 PM 6.36 43.448 0.172 6.99 6.78 11.8
3/21/2021 7:45:00 PM 6.32 43.376 0.172 6.99 6.71 11.78
3/21/2021 8:00:00 PM 6.28 43.304 0.172 6.98 6.83 11.75
3/21/2021 8:15:00 PM 6.25 43.25 0.172 6.98 6.78 11.71
3/21/2021 8:30:00 PM 6.22 43.196 0.172 6.97 6.98 11.69
3/21/2021 8:45:00 PM 6.2 43.16 0.172 6.97 6.98 11.67
3/21/2021 9:00:00 PM 6.17 43.106 0.172 6.97 6.82 11.66
3/21/2021 9:15:00 PM 6.14 43.052 0.172 6.98 6.98 11.65
3/21/2021 9:30:00 PM 6.11 42.998 0.173 6.97 6.99 11.63
3/21/2021 9:45:00 PM 6.08 42.944 0.173 6.98 7.06 11.63
3/21/2021 10:00:00 PM 6.05 42.89 0.173 6.97 7.04 11.62
3/21/2021 10:15:00 PM 6.01 42.818 0.173 6.98 7.08 11.62
3/21/2021 10:30:00 PM 5.97 42.746 0.173 6.97 6.91 11.61
3/21/2021 10:45:00 PM 5.92 42.656 0.173 6.97 7.13 11.6
3/21/2021 11:00:00 PM 5.88 42.584 0.173 6.97 7.06 11.6
3/21/2021 11:15:00 PM 5.83 42.494 0.173 6.98 7.14 11.6
3/21/2021 11:30:00 PM 5.77 42.386 0.173 6.97 7.06 11.61
3/21/2021 11:45:00 PM 5.72 42.296 0.173 6.97 7.24 11.61
3/22/2021 12:00:00 AM 5.66 42.188 0.173 6.97 7.22 11.61
3/22/2021 12:15:00 AM 5.6 42.08 0.173 6.97 7.23 11.62
3/22/2021 12:30:00 AM 5.55 41.99 0.174 6.97 7.01 11.62
3/22/2021 12:45:00 AM 5.49 41.882 0.174 6.97 7.23 11.63
3/22/2021 1:00:00 AM 5.43 41.774 0.174 6.97 7.07 11.63
3/22/2021 1:15:00 AM 5.38 41.684 0.174 6.97 7.1 11.64
3/22/2021 1:30:00 AM 5.32 41.576 0.174 6.97 7.19 11.64
3/22/2021 1:45:00 AM 5.27 41.486 0.174 6.97 7.35 11.65
3/22/2021 2:00:00 AM 5.22 41.396 0.174 6.97 7.4 11.65
3/22/2021 2:15:00 AM 5.18 41.324 0.174 6.97 7.8 11.66
3/22/2021 2:30:00 AM 5.13 41.234 0.174 6.97 8.46 11.66
3/22/2021 2:45:00 AM 5.09 41.162 0.175 6.97 8.49 11.68
3/22/2021 3:00:00 AM 5.05 41.09 0.175 6.97 8.59 11.68
3/22/2021 3:15:00 AM 5.01 41.018 0.175 6.97 8.75 11.67
3/22/2021 3:30:00 AM 4.97 40.946 0.175 6.97 8.29 11.69
3/22/2021 3:45:00 AM 4.93 40.874 0.175 6.97 8.24 11.69
3/22/2021 4:00:00 AM 4.89 40.802 0.175 6.97 8.18 11.69
3/22/2021 4:15:00 AM 4.85 40.73 0.175 6.96 8.14 11.7
3/22/2021 4:30:00 AM 4.82 40.676 0.175 6.97 7.92 11.7
3/22/2021 4:45:00 AM 4.78 40.604 0.175 6.97 7.88 11.71
3/22/2021 5:00:00 AM 4.74 40.532 0.175 6.97 7.59 11.72
3/22/2021 5:15:00 AM 4.71 40.478 0.176 6.97 7.76 11.71
3/22/2021 5:30:00 AM 4.67 40.406 0.176 6.97 7.29 11.72
3/22/2021 5:45:00 AM 4.64 40.352 0.176 6.96 7.2 11.73
3/22/2021 6:00:00 AM 4.6 40.28 0.176 6.96 7.05 11.74
3/22/2021 6:15:00 AM 4.57 40.226 0.176 6.96 7.1 11.75
3/22/2021 6:30:00 AM 4.53 40.154 0.176 6.96 6.96 11.75
3/22/2021 6:45:00 AM 4.5 40.1 0.176 6.97 6.87 11.76
3/22/2021 7:00:00 AM 4.46 40.028 0.176 6.96 7.24 11.77
3/22/2021 7:15:00 AM 4.43 39.974 0.176 6.96 6.92 11.78
3/22/2021 7:30:00 AM 4.4 39.92 0.176 6.97 7.04 11.79
3/22/2021 7:45:00 AM 4.38 39.884 0.176 6.97 6.98 11.81
3/22/2021 8:00:00 AM 4.36 39.848 0.176 6.97 7.02 11.84
3/22/2021 8:15:00 AM 4.35 39.83 0.177 6.97 6.81 11.87
3/22/2021 8:30:00 AM 4.35 39.83 0.176 6.98 6.56 11.91
3/22/2021 8:45:00 AM 4.35 39.83 0.177 6.99 6.55 11.94
3/22/2021 9:00:00 AM 4.38 39.884 0.177 6.99 6.66 11.97
3/22/2021 9:15:00 AM 4.43 39.974 0.176 7 6.56 11.99
3/22/2021 9:30:00 AM 4.51 40.118 0.177 7 6.45 12.02
3/22/2021 9:45:00 AM 4.61 40.298 0.177 7 6.52 12.03
3/22/2021 10:00:00 AM 4.72 40.496 0.177 7.01 6.57 12.05
3/22/2021 10:15:00 AM 4.85 40.73 0.177 7.02 6.66 12.05
3/22/2021 10:30:00 AM 4.99 40.982 0.177 7.03 6.74 12.06
3/22/2021 10:45:00 AM 5.14 41.252 0.177 7.03 6.61 12.06
3/22/2021 11:00:00 AM 5.29 41.522 0.177 7.03 6.45 12.06
3/22/2021 11:15:00 AM 5.44 41.792 0.177 7.04 6.67 12.05
3/22/2021 11:30:00 AM 5.6 42.08 0.177 7.03 6.4 12.05
3/22/2021 11:45:00 AM 5.76 42.368 0.177 7.03 6.39 12.05
3/22/2021 12:00:00 PM 5.92 42.656 0.177 7.02 6.43 12.04
3/22/2021 12:15:00 PM 6.08 42.944 0.177 7.02 6.48 12.03
3/22/2021 12:30:00 PM 6.24 43.232 0.177 7.03 6.7 12.03
3/22/2021 12:45:00 PM 6.4 43.52 0.177 7.03 6.34 12.01
3/22/2021 1:00:00 PM 6.55 43.79 0.177 7.03 6.34 12
3/22/2021 1:15:00 PM 6.72 44.096 0.177 7.03 6.16 11.99
3/22/2021 1:30:00 PM 6.88 44.384 0.177 7.03 6.07 11.97
3/22/2021 1:45:00 PM 7.04 44.672 0.177 7.03 6.26 11.96
3/22/2021 2:00:00 PM 7.19 44.942 0.177 7.05 6.24 11.95
3/22/2021 2:15:00 PM 7.34 45.212 0.177 7.04 6.26 11.93
3/22/2021 2:30:00 PM 7.48 45.464 0.177 7.04 6.11 11.92
3/22/2021 2:45:00 PM 7.61 45.698 0.177 7.04 6.14 11.89
3/22/2021 3:00:00 PM 7.73 45.914 0.177 7.04 6.09 11.88
3/22/2021 3:15:00 PM 7.83 46.094 0.177 7.04 6.21 11.86
3/22/2021 3:30:00 PM 7.92 46.256 0.177 7.04 6.09 11.85
3/22/2021 3:45:00 PM 7.98 46.364 0.177 7.04 6.29 11.83
3/22/2021 4:00:00 PM 8.03 46.454 0.177 7.04 6.19 11.81
3/22/2021 4:15:00 PM 8.06 46.508 0.177 7.04 6.38 11.8
3/22/2021 4:30:00 PM 8.06 46.508 0.177 7.04 6.29 11.79
3/22/2021 4:45:00 PM 8.05 46.49 0.177 7.03 6.14 11.77
3/22/2021 5:00:00 PM 8.01 46.418 0.177 7.03 6.23 11.76
3/22/2021 5:15:00 PM 7.96 46.328 0.177 7.03 6.14 11.74
3/22/2021 5:30:00 PM 7.88 46.184 0.177 7.02 6.22 11.72
3/22/2021 5:45:00 PM 7.79 46.022 0.178 7.03 6.3 11.7
3/22/2021 6:00:00 PM 7.69 45.842 0.178 7.03 6.46 11.68
3/22/2021 6:15:00 PM 7.59 45.662 0.178 7.02 6.39 11.65
3/22/2021 6:30:00 PM 7.51 45.518 0.178 7.02 6.35 11.63
3/22/2021 6:45:00 PM 7.43 45.374 0.178 7.02 6.22 11.6
3/22/2021 7:00:00 PM 7.36 45.248 0.178 7.01 6.38 11.58
3/22/2021 7:15:00 PM 7.28 45.104 0.178 7.01 6.41 11.54
3/22/2021 7:30:00 PM 7.22 44.996 0.178 7 6.53 11.5
3/22/2021 7:45:00 PM 7.16 44.888 0.178 7 6.5 11.47
3/22/2021 8:00:00 PM 7.11 44.798 0.178 7 6.5 11.43
3/22/2021 8:15:00 PM 7.07 44.726 0.178 7 6.86 11.4
3/22/2021 8:30:00 PM 7.03 44.654 0.178 7 6.54 11.38
3/22/2021 8:45:00 PM 7 44.6 0.179 6.99 6.79 11.36
3/22/2021 9:00:00 PM 6.97 44.546 0.179 6.99 6.6 11.34
3/22/2021 9:15:00 PM 6.95 44.51 0.179 6.99 6.94 11.32
3/22/2021 9:30:00 PM 6.92 44.456 0.179 6.98 6.82 11.3
3/22/2021 9:45:00 PM 6.89 44.402 0.179 6.98 7.13 11.29
3/22/2021 10:00:00 PM 6.86 44.348 0.179 6.98 7.08 11.28
3/22/2021 10:15:00 PM 6.83 44.294 0.179 6.98 6.87 11.28
3/22/2021 10:30:00 PM 6.79 44.222 0.179 6.98 6.74 11.27
3/22/2021 10:45:00 PM 6.75 44.15 0.179 6.98 6.95 11.26
3/22/2021 11:00:00 PM 6.71 44.078 0.179 6.98 6.52 11.26
3/22/2021 11:15:00 PM 6.66 43.988 0.18 6.98 6.63 11.25
3/22/2021 11:30:00 PM 6.61 43.898 0.18 6.98 6.83 11.25
3/22/2021 11:45:00 PM 6.56 43.808 0.18 6.99 6.57 11.26
3/23/2021 12:00:00 AM 6.51 43.718 0.18 6.98 6.38 11.26
3/23/2021 12:15:00 AM 6.45 43.61 0.18 6.98 6.51 11.26
3/23/2021 12:30:00 AM 6.4 43.52 0.18 6.98 6.56 11.26
3/23/2021 12:45:00 AM 6.34 43.412 0.18 6.98 6.4 11.28
3/23/2021 1:00:00 AM 6.28 43.304 0.18 6.98 6.55 11.28
3/23/2021 1:15:00 AM 6.22 43.196 0.18 6.98 6.37 11.29
3/23/2021 1:30:00 AM 6.16 43.088 0.18 6.98 6.65 11.3
3/23/2021 1:45:00 AM 6.09 42.962 0.18 6.98 6.42 11.31
3/23/2021 2:00:00 AM 6.03 42.854 0.181 6.98 6.36 11.32
3/23/2021 2:15:00 AM 5.97 42.746 0.18 6.98 6.37 11.32
3/23/2021 2:30:00 AM 5.91 42.638 0.181 6.98 6.5 11.34
3/23/2021 2:45:00 AM 5.86 42.548 0.181 6.99 6.52 11.34
3/23/2021 3:00:00 AM 5.81 42.458 0.181 6.98 6.46 11.35
3/23/2021 3:15:00 AM 5.76 42.368 0.181 6.99 6.48 11.36
3/23/2021 3:30:00 AM 5.71 42.278 0.181 6.98 6.55 11.37
3/23/2021 3:45:00 AM 5.66 42.188 0.181 6.98 6.41 11.37
3/23/2021 4:00:00 AM 5.61 42.098 0.181 6.98 6.35 11.39
3/23/2021 4:15:00 AM 5.56 42.008 0.181 6.99 6.5 11.39
3/23/2021 4:30:00 AM 5.51 41.918 0.181 6.99 6.47 11.4
3/23/2021 4:45:00 AM 5.47 41.846 0.181 6.98 6.57 11.41
3/23/2021 5:00:00 AM 5.42 41.756 0.181 6.98 6.42 11.41
3/23/2021 5:15:00 AM 5.38 41.684 0.181 6.98 6.33 11.42
3/23/2021 5:30:00 AM 5.34 41.612 0.182 6.98 6.65 11.43
3/23/2021 5:45:00 AM 5.3 41.54 0.182 6.98 6.4 11.44
3/23/2021 6:00:00 AM 5.26 41.468 0.182 6.98 6.31 11.45
3/23/2021 6:15:00 AM 5.22 41.396 0.182 6.99 6.51 11.45
3/23/2021 6:30:00 AM 5.18 41.324 0.182 6.99 6.23 11.46
3/23/2021 6:45:00 AM 5.14 41.252 0.182 6.99 6.9 11.47
3/23/2021 7:00:00 AM 5.11 41.198 0.182 6.98 6.5 11.48
3/23/2021 7:15:00 AM 5.07 41.126 0.182 6.98 6.15 11.5
3/23/2021 7:30:00 AM 5.04 41.072 0.182 6.99 6.35 11.51
3/23/2021 7:45:00 AM 5.01 41.018 0.182 6.99 6.25 11.53
3/23/2021 8:00:00 AM 4.99 40.982 0.182 6.99 6.34 11.57
3/23/2021 8:15:00 AM 4.99 40.982 0.182 7 6.24 11.61
3/23/2021 8:30:00 AM 5 41 0.182 7.01 6.08 11.67
3/23/2021 8:45:00 AM 5.02 41.036 0.182 7.01 6.21 11.71
3/23/2021 9:00:00 AM 5.05 41.09 0.182 7.01 6.15 11.74
3/23/2021 9:15:00 AM 5.1 41.18 0.182 7.02 6.21 11.77
3/23/2021 9:30:00 AM 5.18 41.324 0.182 7.02 5.96 11.8
3/23/2021 9:45:00 AM 5.28 41.504 0.182 7.03 5.95 11.82
3/23/2021 10:00:00 AM 5.41 41.738 0.182 7.04 6.23 11.83
3/23/2021 10:15:00 AM 5.54 41.972 0.182 7.04 5.73 11.84
3/23/2021 10:30:00 AM 5.69 42.242 0.182 7.04 5.91 11.85
3/23/2021 10:45:00 AM 5.85 42.53 0.182 7.04 5.77 11.86
3/23/2021 11:00:00 AM 6 42.8 0.182 7.05 5.87 11.85
3/23/2021 11:15:00 AM 6.16 43.088 0.182 7.04 5.78 11.85
3/23/2021 11:30:00 AM 6.29 43.322 0.182 7.04 5.71 11.85
3/23/2021 11:45:00 AM 6.43 43.574 0.182 7.05 5.73 11.86
3/23/2021 12:00:00 PM 6.51 43.718 0.182 7.04 5.73 11.85
3/23/2021 12:15:00 PM 6.66 43.988 0.182 7.05 5.78 11.86
3/23/2021 12:30:00 PM 6.8 44.24 0.182 7.05 5.87 11.86
3/23/2021 12:45:00 PM 6.92 44.456 0.182 7.05 5.78 11.86
3/23/2021 1:00:00 PM 7.02 44.636 0.182 7.05 5.66 11.86
3/23/2021 1:15:00 PM 7.11 44.798 0.182 7.05 5.81 11.86
3/23/2021 1:30:00 PM 7.14 44.852 0.182 7.04 5.77 11.85
3/23/2021 1:45:00 PM 7.17 44.906 0.182 7.05 5.77 11.86
3/23/2021 2:00:00 PM 7.28 45.104 0.182 7.06 5.79 11.87
3/23/2021 2:15:00 PM 7.34 45.212 0.182 7.06 5.73 11.86
3/23/2021 2:30:00 PM 7.43 45.374 0.183 7.06 5.84 11.85
3/23/2021 2:45:00 PM 7.46 45.428 0.182 7.06 5.68 11.85
3/23/2021 3:00:00 PM 7.49 45.482 0.183 7.06 5.7 11.84
3/23/2021 3:15:00 PM 7.59 45.662 0.183 7.07 5.88 11.84
3/23/2021 3:30:00 PM 7.7 45.86 0.183 7.08 5.93 11.83
3/23/2021 3:45:00 PM 7.8 46.04 0.183 7.08 5.93 11.82
3/23/2021 4:00:00 PM 7.85 46.13 0.183 7.07 5.78 11.79
3/23/2021 4:15:00 PM 7.89 46.202 0.183 7.07 5.78 11.79
3/23/2021 4:30:00 PM 7.91 46.238 0.183 7.07 5.9 11.77
3/23/2021 4:45:00 PM 7.95 46.31 0.182 7.07 5.86 11.76
3/23/2021 5:00:00 PM 7.99 46.382 0.183 7.07 5.7 11.75
3/23/2021 5:15:00 PM 7.98 46.364 0.183 7.07 5.85 11.73
3/23/2021 5:30:00 PM 7.95 46.31 0.183 7.07 5.66 11.7
3/23/2021 5:45:00 PM 7.92 46.256 0.183 7.07 5.81 11.68
3/23/2021 6:00:00 PM 7.9 46.22 0.183 7.07 5.9 11.66
3/23/2021 6:15:00 PM 7.85 46.13 0.183 7.06 5.79 11.62
3/23/2021 6:30:00 PM 7.81 46.058 0.183 7.06 5.95 11.6
3/23/2021 6:45:00 PM 7.77 45.986 0.183 7.05 5.74 11.56
3/23/2021 7:00:00 PM 7.72 45.896 0.183 7.05 5.76 11.52
3/23/2021 7:15:00 PM 7.68 45.824 0.183 7.05 5.87 11.47
3/23/2021 7:30:00 PM 7.65 45.77 0.183 7.04 5.82 11.42
3/23/2021 7:45:00 PM 7.62 45.716 0.184 7.03 5.98 11.37
3/23/2021 8:00:00 PM 7.6 45.68 0.184 7.02 5.94 11.32
3/23/2021 8:15:00 PM 7.58 45.644 0.184 7.02 5.98 11.28
3/23/2021 8:30:00 PM 7.57 45.626 0.184 7.01 6.13 11.25
3/23/2021 8:45:00 PM 7.55 45.59 0.184 7.01 5.99 11.22
3/23/2021 9:00:00 PM 7.53 45.554 0.184 7.01 6.17 11.19
3/23/2021 9:15:00 PM 7.5 45.5 0.184 7 6.28 11.18
3/23/2021 9:30:00 PM 7.48 45.464 0.184 7 6.36 11.16
3/23/2021 9:45:00 PM 7.46 45.428 0.184 7 6.18 11.13
3/23/2021 10:00:00 PM 7.44 45.392 0.184 7 6.3 11.12
3/23/2021 10:15:00 PM 7.43 45.374 0.184 6.99 6.07 11.11
3/23/2021 10:30:00 PM 7.41 45.338 0.185 6.99 6.19 11.09
3/23/2021 10:45:00 PM 7.39 45.302 0.185 6.99 6.03 11.08
3/23/2021 11:00:00 PM 7.38 45.284 0.184 6.99 6.12 11.06
3/23/2021 11:15:00 PM 7.37 45.266 0.185 6.99 6.26 11.04
3/23/2021 11:30:00 PM 7.36 45.248 0.185 6.99 6.44 11.04
3/23/2021 11:45:00 PM 7.35 45.23 0.185 6.98 6.38 11.03
3/24/2021 12:00:00 AM 7.34 45.212 0.185 6.99 6.21 11.01
3/24/2021 12:15:00 AM 7.33 45.194 0.185 6.98 6.42 11.01
3/24/2021 12:30:00 AM 7.33 45.194 0.185 6.98 6.32 10.99
3/24/2021 12:45:00 AM 7.33 45.194 0.185 6.98 6.52 10.99
3/24/2021 1:00:00 AM 7.32 45.176 0.185 6.98 6.19 10.98
3/24/2021 1:15:00 AM 7.32 45.176 0.185 6.98 6.27 10.98
3/24/2021 1:30:00 AM 7.31 45.158 0.185 6.98 6.13 10.97
3/24/2021 1:45:00 AM 7.3 45.14 0.185 6.98 6.12 10.96
3/24/2021 2:00:00 AM 7.29 45.122 0.185 6.98 6.18 10.95
3/24/2021 2:15:00 AM 7.29 45.122 0.186 6.98 6.2 10.95
3/24/2021 2:30:00 AM 7.28 45.104 0.185 6.99 6.28 10.94
3/24/2021 2:45:00 AM 7.28 45.104 0.186 6.98 6.13 10.94
3/24/2021 3:00:00 AM 7.28 45.104 0.186 6.98 6.2 10.93
3/24/2021 3:15:00 AM 7.28 45.104 0.186 6.98 6.15 10.93
3/24/2021 3:30:00 AM 7.28 45.104 0.186 6.98 6.18 10.92
3/24/2021 3:45:00 AM 7.28 45.104 0.186 6.98 6.28 10.92
3/24/2021 4:00:00 AM 7.29 45.122 0.186 6.97 6.27 10.91
3/24/2021 4:15:00 AM 7.29 45.122 0.186 6.98 6.29 10.9
3/24/2021 4:30:00 AM 7.29 45.122 0.186 6.98 6.35 10.9
3/24/2021 4:45:00 AM 7.29 45.122 0.187 6.97 6.13 10.89
3/24/2021 5:00:00 AM 7.29 45.122 0.186 6.97 6.18 10.89
3/24/2021 5:15:00 AM 7.29 45.122 0.186 6.97 6.18 10.88
3/24/2021 5:30:00 AM 7.29 45.122 0.187 6.97 6.17 10.88
3/24/2021 5:45:00 AM 7.29 45.122 0.186 6.97 6.09 10.88
3/24/2021 6:00:00 AM 7.29 45.122 0.186 6.97 6.33 10.87
3/24/2021 6:15:00 AM 7.28 45.104 0.187 6.98 7.1 10.86
3/24/2021 6:30:00 AM 7.29 45.122 0.187 6.97 6.86 10.86
3/24/2021 6:45:00 AM 7.31 45.158 0.191 6.98 11.29 10.85
3/24/2021 7:00:00 AM 7.31 45.158 0.189 6.98 9.18 10.84
3/24/2021 7:15:00 AM 7.31 45.158 0.19 6.96 8.75 10.82
3/24/2021 7:30:00 AM 7.3 45.14 0.189 6.97 9.23 10.81
3/24/2021 7:45:00 AM 7.3 45.14 0.188 6.96 8.22 10.81
3/24/2021 8:00:00 AM 7.3 45.14 0.188 6.96 7.61 10.83
3/24/2021 8:15:00 AM 7.3 45.14 0.187 6.96 7.44 10.84
3/24/2021 8:30:00 AM 7.31 45.158 0.187 6.96 6.99 10.85
3/24/2021 8:45:00 AM 7.32 45.176 0.187 6.96 6.57 10.87
3/24/2021 9:00:00 AM 7.33 45.194 0.187 6.96 6.31 10.88
3/24/2021 9:15:00 AM 7.36 45.248 0.187 6.96 6.33 10.92
3/24/2021 9:30:00 AM 7.38 45.284 0.187 6.97 6.22 10.95
3/24/2021 9:45:00 AM 7.41 45.338 0.187 6.98 6.17 10.97
3/24/2021 10:00:00 AM 7.43 45.374 0.187 6.99 6.07 10.98
3/24/2021 10:15:00 AM 7.45 45.41 0.187 6.98 6.31 11
3/24/2021 10:30:00 AM 7.48 45.464 0.186 6.99 5.96 11.02
3/24/2021 10:45:00 AM 7.52 45.536 0.186 6.99 5.93 11.05
3/24/2021 11:00:00 AM 7.56 45.608 0.186 7 5.82 11.08
3/24/2021 11:15:00 AM 7.6 45.68 0.186 7.01 5.83 11.11
3/24/2021 11:30:00 AM 7.66 45.788 0.186 7.02 5.97 11.15
3/24/2021 11:45:00 AM 7.74 45.932 0.186 7.03 5.92 11.18
3/24/2021 12:00:00 PM 7.81 46.058 0.186 7.04 5.82 11.21
3/24/2021 12:15:00 PM 7.87 46.166 0.185 7.04 6.02 11.23
3/24/2021 12:30:00 PM 7.95 46.31 0.186 7.04 6.05 11.25
3/24/2021 12:45:00 PM 8.04 46.472 0.186 7.05 5.86 11.27
3/24/2021 1:00:00 PM 8.1 46.58 0.186 7.07 5.87 11.27
3/24/2021 1:15:00 PM 8.17 46.706 0.186 7.06 5.88 11.28
3/24/2021 1:30:00 PM 8.23 46.814 0.186 7.06 5.79 11.29
3/24/2021 1:45:00 PM 8.33 46.994 0.185 7.08 5.71 11.31
3/24/2021 2:00:00 PM 8.41 47.138 0.185 7.07 5.79 11.31
3/24/2021 2:15:00 PM 8.55 47.39 0.185 7.08 5.61 11.33
3/24/2021 2:30:00 PM 8.72 47.696 0.184 7.11 6.01 11.34
3/24/2021 2:45:00 PM 8.84 47.912 0.184 7.09 5.84 11.34
3/24/2021 3:00:00 PM 8.98 48.164 0.184 7.1 6.12 11.33
3/24/2021 3:15:00 PM 9.11 48.398 0.184 7.12 5.85 11.32
3/24/2021 3:30:00 PM 9.25 48.65 0.184 7.11 5.96 11.32
3/24/2021 3:45:00 PM 9.32 48.776 0.184 7.11 5.94 11.33
3/24/2021 4:00:00 PM 9.32 48.776 0.184 7.09 5.93 11.32
3/24/2021 4:15:00 PM 9.38 48.884 0.183 7.1 5.88 11.32
3/24/2021 4:30:00 PM 9.44 48.992 0.183 7.1 5.92 11.31
3/24/2021 4:45:00 PM 9.54 49.172 0.183 7.12 6.35 11.3
3/24/2021 5:00:00 PM 9.54 49.172 0.182 7.11 6.09 11.28
3/24/2021 5:15:00 PM 9.61 49.298 0.183 7.12 6.21 11.27
3/24/2021 5:30:00 PM 9.56 49.208 0.183 7.1 6.18 11.24
3/24/2021 5:45:00 PM 9.54 49.172 0.182 7.1 6.38 11.21
3/24/2021 6:00:00 PM 9.54 49.172 0.183 7.1 6.04 11.17
3/24/2021 6:15:00 PM 9.56 49.208 0.182 7.1 6.32 11.15
3/24/2021 6:30:00 PM 9.54 49.172 0.182 7.09 6.27 11.11
3/24/2021 6:45:00 PM 9.52 49.136 0.182 7.08 6.2 11.06
3/24/2021 7:00:00 PM 9.48 49.064 0.182 7.07 6.51 11.01
3/24/2021 7:15:00 PM 9.44 48.992 0.182 7.07 6.25 10.94
3/24/2021 7:30:00 PM 9.37 48.866 0.182 7.05 6.52 10.88
3/24/2021 7:45:00 PM 9.31 48.758 0.182 7.04 7.52 10.81
3/24/2021 8:00:00 PM 9.26 48.668 0.182 7.02 6.65 10.75
3/24/2021 8:15:00 PM 9.24 48.632 0.182 7.02 6.79 10.71
3/24/2021 8:30:00 PM 9.23 48.614 0.183 7.02 7.17 10.67
3/24/2021 8:45:00 PM 9.23 48.614 0.182 7.01 6.75 10.64
3/24/2021 9:00:00 PM 9.25 48.65 0.183 7.02 6.68 10.61
3/24/2021 9:15:00 PM 9.27 48.686 0.183 7.01 6.88 10.59
3/24/2021 9:30:00 PM 9.28 48.704 0.183 7.01 6.7 10.57
3/24/2021 9:45:00 PM 9.29 48.722 0.183 7 6.92 10.55
3/24/2021 10:00:00 PM 9.3 48.74 0.183 7.01 6.89 10.52
3/24/2021 10:15:00 PM 9.29 48.722 0.183 7.01 7.07 10.51
3/24/2021 10:30:00 PM 9.28 48.704 0.183 7 6.84 10.49
3/24/2021 10:45:00 PM 9.26 48.668 0.183 6.99 6.72 10.47
3/24/2021 11:00:00 PM 9.25 48.65 0.183 6.99 7.18 10.45
3/24/2021 11:15:00 PM 9.24 48.632 0.183 6.98 7.03 10.44
3/24/2021 11:30:00 PM 9.23 48.614 0.183 6.99 6.89 10.42
3/24/2021 11:45:00 PM 9.22 48.596 0.183 6.99 6.97 10.41
3/25/2021 12:00:00 AM 9.2 48.56 0.184 6.99 7.03 10.4
3/25/2021 12:15:00 AM 9.18 48.524 0.183 6.99 6.91 10.4
3/25/2021 12:30:00 AM 9.16 48.488 0.183 6.99 7.27 10.39
3/25/2021 12:45:00 AM 9.15 48.47 0.184 6.99 7.11 10.38
3/25/2021 1:00:00 AM 9.14 48.452 0.184 6.99 7.04 10.37
3/25/2021 1:15:00 AM 9.12 48.416 0.184 6.99 6.88 10.37
3/25/2021 1:30:00 AM 9.1 48.38 0.184 6.99 7.04 10.36
3/25/2021 1:45:00 AM 9.08 48.344 0.184 6.98 7.17 10.35
3/25/2021 2:00:00 AM 9.07 48.326 0.184 6.99 7.29 10.35
3/25/2021 2:15:00 AM 9.05 48.29 0.184 6.98 7.29 10.34
3/25/2021 2:30:00 AM 9.03 48.254 0.184 6.98 7.09 10.34
3/25/2021 2:45:00 AM 9.01 48.218 0.185 6.99 7.37 10.34
3/25/2021 3:00:00 AM 8.98 48.164 0.185 6.98 7.18 10.34
3/25/2021 3:15:00 AM 8.95 48.11 0.185 6.98 7.27 10.34
3/25/2021 3:30:00 AM 8.91 48.038 0.185 6.98 7.07 10.34
3/25/2021 3:45:00 AM 8.88 47.984 0.185 6.98 7.47 10.34
3/25/2021 4:00:00 AM 8.85 47.93 0.185 6.98 7.5 10.34
3/25/2021 4:15:00 AM 8.82 47.876 0.185 6.98 7.12 10.34
3/25/2021 4:30:00 AM 8.8 47.84 0.186 6.98 7.16 10.34
3/25/2021 4:45:00 AM 8.78 47.804 0.186 6.99 7.44 10.33
3/25/2021 5:00:00 AM 8.77 47.786 0.186 6.98 7.62 10.33
3/25/2021 5:15:00 AM 8.77 47.786 0.186 6.99 7.12 10.33
3/25/2021 5:30:00 AM 8.76 47.768 0.186 6.98 7.42 10.33
3/25/2021 5:45:00 AM 8.76 47.768 0.186 6.98 7.37 10.33
3/25/2021 6:00:00 AM 8.76 47.768 0.187 6.98 7.07 10.33
3/25/2021 6:15:00 AM 8.76 47.768 0.187 6.98 7.22 10.32
3/25/2021 6:30:00 AM 8.76 47.768 0.187 6.97 7.4 10.31
3/25/2021 6:45:00 AM 8.76 47.768 0.187 6.97 7.31 10.32
3/25/2021 7:00:00 AM 8.75 47.75 0.187 6.97 7.26 10.32
3/25/2021 7:15:00 AM 8.73 47.714 0.188 6.97 7.31 10.32
3/25/2021 7:30:00 AM 8.71 47.678 0.188 6.97 7.09 10.34
3/25/2021 7:45:00 AM 8.7 47.66 0.188 6.98 7.06 10.37
3/25/2021 8:00:00 AM 8.7 47.66 0.188 6.99 7.15 10.42
3/25/2021 8:15:00 AM 8.68 47.624 0.188 7 7.01 10.48
3/25/2021 8:30:00 AM 8.69 47.642 0.188 7 7.11 10.54
3/25/2021 8:45:00 AM 8.7 47.66 0.188 7.01 6.87 10.61
3/25/2021 9:00:00 AM 8.75 47.75 0.188 7.02 6.89 10.67
3/25/2021 9:15:00 AM 8.81 47.858 0.188 7.03 6.97 10.73
3/25/2021 9:30:00 AM 8.89 48.002 0.188 7.04 6.96 10.78
3/25/2021 9:45:00 AM 8.98 48.164 0.188 7.05 7.08 10.83
3/25/2021 10:00:00 AM 9.11 48.398 0.188 7.07 6.82 10.87
3/25/2021 10:15:00 AM 9.25 48.65 0.188 7.08 6.58 10.89
3/25/2021 10:30:00 AM 9.42 48.956 0.188 7.08 6.81 10.92
3/25/2021 10:45:00 AM 9.57 49.226 0.188 7.08 6.39 10.93
3/25/2021 11:00:00 AM 9.74 49.532 0.188 7.1 6.79 10.95
3/25/2021 11:15:00 AM 9.92 49.856 0.188 7.11 6.88 10.96
3/25/2021 11:30:00 AM 10.06 50.108 0.188 7.1 6.64 10.97
3/25/2021 11:45:00 AM 10.17 50.306 0.188 7.1 6.95 10.98
3/25/2021 12:00:00 PM 10.25 50.45 0.188 7.09 6.83 10.99
3/25/2021 12:15:00 PM 10.31 50.558 0.188 7.1 6.68 11
3/25/2021 12:30:00 PM 10.39 50.702 0.188 7.11 6.45 11.03
3/25/2021 12:45:00 PM 10.49 50.882 0.188 7.12 6.5 11.04
3/25/2021 1:00:00 PM 10.6 51.08 0.188 7.12 6.97 11.05
3/25/2021 1:15:00 PM 10.73 51.314 0.188 7.12 6.59 11.07
3/25/2021 1:30:00 PM 10.88 51.584 0.188 7.14 6.71 11.08
3/25/2021 1:45:00 PM 11.04 51.872 0.189 7.14 6.32 11.08
3/25/2021 2:00:00 PM 11.17 52.106 0.189 7.13 6.45 11.09
3/25/2021 2:15:00 PM 11.27 52.286 0.189 7.15 6.7 11.08
3/25/2021 2:30:00 PM 11.37 52.466 0.188 7.14 6.69 11.07
3/25/2021 2:45:00 PM 11.42 52.556 0.189 7.14 6.54 11.08
3/25/2021 3:00:00 PM 11.48 52.664 0.189 7.14 6.86 11.06
3/25/2021 3:15:00 PM 11.52 52.736 0.189 7.15 6.43 11.07
3/25/2021 3:30:00 PM 11.56 52.808 0.189 7.16 6.78 11.06
3/25/2021 3:45:00 PM 11.57 52.826 0.189 7.15 6.51 11.06
3/25/2021 4:00:00 PM 11.56 52.808 0.189 7.15 6.69 11.03
3/25/2021 4:15:00 PM 11.54 52.772 0.189 7.14 6.5 11.01
3/25/2021 4:30:00 PM 11.52 52.736 0.189 7.13 6.74 10.99
3/25/2021 4:45:00 PM 11.51 52.718 0.189 7.13 6.68 10.96
3/25/2021 5:00:00 PM 11.51 52.718 0.19 7.13 6.62 10.94
3/25/2021 5:15:00 PM 11.47 52.646 0.189 7.12 6.75 10.88
3/25/2021 5:30:00 PM 11.43 52.574 0.19 7.11 6.59 10.81
3/25/2021 5:45:00 PM 11.38 52.484 0.19 7.1 6.99 10.72
3/25/2021 6:00:00 PM 11.32 52.376 0.19 7.09 6.64 10.66
3/25/2021 6:15:00 PM 11.27 52.286 0.19 7.07 6.78 10.58
3/25/2021 6:30:00 PM 11.23 52.214 0.19 7.06 6.82 10.53
3/25/2021 6:45:00 PM 11.19 52.142 0.19 7.05 6.61 10.47
3/25/2021 7:00:00 PM 11.16 52.088 0.191 7.04 6.58 10.41
3/25/2021 7:15:00 PM 11.13 52.034 0.191 7.03 6.48 10.35
3/25/2021 7:30:00 PM 11.1 51.98 0.191 7.02 6.58 10.31
3/25/2021 7:45:00 PM 11.08 51.944 0.191 7.02 6.98 10.26
3/25/2021 8:00:00 PM 11.06 51.908 0.191 7.01 6.69 10.22
3/25/2021 8:15:00 PM 11.05 51.89 0.191 7.01 7.13 10.18
3/25/2021 8:30:00 PM 11.05 51.89 0.185 7.01 7.32 10.15
3/25/2021 8:45:00 PM 11.05 51.89 0.191 7 7.05 10.12
3/25/2021 9:00:00 PM 11.04 51.872 0.191 6.99 6.97 10.09
3/25/2021 9:15:00 PM 11.02 51.836 0.191 6.99 7.09 10.06
3/25/2021 9:30:00 PM 11 51.8 0.192 6.99 7.14 10.03
3/25/2021 9:45:00 PM 10.99 51.782 0.191 6.98 7.19 10.02
3/25/2021 10:00:00 PM 10.99 51.782 0.191 6.99 7.16 9.99
3/25/2021 10:15:00 PM 10.98 51.764 0.192 6.98 6.94 9.98
3/25/2021 10:30:00 PM 10.98 51.764 0.192 6.98 6.89 9.96
3/25/2021 10:45:00 PM 10.97 51.746 0.192 6.97 6.97 9.93
3/25/2021 11:00:00 PM 10.95 51.71 0.193 6.97 7.39 9.91
3/25/2021 11:15:00 PM 10.95 51.71 0.193 6.97 6.93 9.9
3/25/2021 11:30:00 PM 10.96 51.728 0.193 6.97 7.24 9.89
3/25/2021 11:45:00 PM 10.95 51.71 0.193 6.97 6.8 9.87
3/26/2021 12:00:00 AM 10.95 51.71 0.193 6.97 7.06 9.86
3/26/2021 12:15:00 AM 10.95 51.71 0.193 6.97 6.92 9.85
3/26/2021 12:30:00 AM 10.95 51.71 0.193 6.96 6.92 9.83
3/26/2021 12:45:00 AM 10.95 51.71 0.193 6.96 7.05 9.82
3/26/2021 1:00:00 AM 10.94 51.692 0.193 6.96 7.17 9.81
3/26/2021 1:15:00 AM 10.94 51.692 0.193 6.96 7.08 9.79
3/26/2021 1:30:00 AM 10.93 51.674 0.193 6.97 7.19 9.79
3/26/2021 1:45:00 AM 10.93 51.674 0.193 6.97 7.35 9.78
3/26/2021 2:00:00 AM 10.93 51.674 0.194 6.96 7.29 9.77
3/26/2021 2:15:00 AM 10.93 51.674 0.194 6.97 7.21 9.76
3/26/2021 2:30:00 AM 10.94 51.692 0.193 6.97 7.26 9.76
3/26/2021 2:45:00 AM 10.94 51.692 0.193 6.97 7.33 9.76
3/26/2021 3:00:00 AM 10.95 51.71 0.194 6.97 8.15 9.75
3/26/2021 3:15:00 AM 10.92 51.656 0.195 6.96 7.88 9.74
3/26/2021 3:30:00 AM 10.89 51.602 0.195 6.95 7.58 9.73
3/26/2021 3:45:00 AM 10.86 51.548 0.195 6.95 7.93 9.72
3/26/2021 4:00:00 AM 10.84 51.512 0.195 6.95 8.23 9.7
3/26/2021 4:15:00 AM 10.83 51.494 0.195 6.95 7.73 9.7
3/26/2021 4:30:00 AM 10.81 51.458 0.195 6.94 7.78 9.7
3/26/2021 4:45:00 AM 10.79 51.422 0.195 6.95 7.54 9.7
3/26/2021 5:00:00 AM 10.76 51.368 0.195 6.95 7.42 9.7
3/26/2021 5:15:00 AM 10.75 51.35 0.195 6.95 7.5 9.69
3/26/2021 5:30:00 AM 10.72 51.296 0.196 6.95 7.42 9.7
3/26/2021 5:45:00 AM 10.72 51.296 0.196 6.95 7.15 9.69
3/26/2021 6:00:00 AM 10.72 51.296 0.195 6.95 7.26 9.69
3/26/2021 6:15:00 AM 10.72 51.296 0.196 6.96 7.82 9.69
3/26/2021 6:30:00 AM 10.72 51.296 0.196 6.96 7.98 9.69
3/26/2021 6:45:00 AM 10.73 51.314 0.197 6.95 7.46 9.67
3/26/2021 7:00:00 AM 10.72 51.296 0.196 6.95 7.9 9.67
3/26/2021 7:15:00 AM 10.69 51.242 0.196 6.95 7.62 9.67
3/26/2021 7:30:00 AM 10.66 51.188 0.196 6.95 7.27 9.7
3/26/2021 7:45:00 AM 10.63 51.134 0.196 6.96 7.52 9.73
3/26/2021 8:00:00 AM 10.63 51.134 0.196 6.97 7.19 9.79
3/26/2021 8:15:00 AM 10.66 51.188 0.196 6.99 7.35 9.88
3/26/2021 8:30:00 AM 10.68 51.224 0.196 7 7.35 9.96
3/26/2021 8:45:00 AM 10.71 51.278 0.196 7.02 7.17 10.02
3/26/2021 9:00:00 AM 10.74 51.332 0.196 7.03 7.34 10.09
3/26/2021 9:15:00 AM 10.8 51.44 0.196 7.05 6.92 10.16
3/26/2021 9:30:00 AM 10.85 51.53 0.195 7.05 6.72 10.2
3/26/2021 9:45:00 AM 10.9 51.62 0.196 7.05 6.69 10.24
3/26/2021 10:00:00 AM 11.01 51.818 0.195 7.08 7.11 10.3
3/26/2021 10:15:00 AM 11.08 51.944 0.195 7.08 6.95 10.34
3/26/2021 10:30:00 AM 11.21 52.178 0.195 7.09 7.02 10.37
3/26/2021 10:45:00 AM 11.34 52.412 0.195 7.11 6.91 10.41
3/26/2021 11:00:00 AM 11.53 52.754 0.195 7.12 7.03 10.45
3/26/2021 11:15:00 AM 11.71 53.078 0.195 7.13 7.32 10.48
3/26/2021 11:30:00 AM 11.85 53.33 0.195 7.13 6.92 10.49
3/26/2021 11:45:00 AM 11.97 53.546 0.195 7.13 7.16 10.5
3/26/2021 12:00:00 PM 12.08 53.744 0.195 7.14 6.56 10.52
3/26/2021 12:15:00 PM 12.18 53.924 0.195 7.14 7.08 10.54
3/26/2021 12:30:00 PM 12.36 54.248 0.195 7.16 6.94 10.57
3/26/2021 12:45:00 PM 12.34 54.212 0.195 7.14 6.79 10.56
3/26/2021 1:00:00 PM 12.29 54.122 0.195 7.14 6.73 10.57
3/26/2021 1:15:00 PM 12.16 53.888 0.195 7.15 6.88 10.57
3/26/2021 1:30:00 PM 12.01 53.618 0.195 7.14 6.76 10.54
3/26/2021 1:45:00 PM 11.87 53.366 0.195 7.13 6.81 10.49
3/26/2021 2:00:00 PM 11.75 53.15 0.195 7.14 6.86 10.5
3/26/2021 2:15:00 PM 11.73 53.114 0.195 7.14 6.88 10.56
3/26/2021 2:30:00 PM 11.76 53.168 0.195 7.14 7.13 10.6
3/26/2021 2:45:00 PM 11.74 53.132 0.195 7.14 7.11 10.58
3/26/2021 3:00:00 PM 11.76 53.168 0.195 7.15 6.79 10.61
3/26/2021 3:15:00 PM 11.74 53.132 0.195 7.16 6.86 10.64
3/26/2021 3:30:00 PM 11.71 53.078 0.195 7.16 6.98 10.65
3/26/2021 3:45:00 PM 11.72 53.096 0.195 7.18 7.32 10.67
3/26/2021 4:00:00 PM 11.73 53.114 0.194 7.17 6.8 10.68
3/26/2021 4:15:00 PM 11.77 53.186 0.194 7.18 6.83 10.7
3/26/2021 4:30:00 PM 11.75 53.15 0.194 7.18 6.72 10.69
3/26/2021 4:45:00 PM 11.72 53.096 0.195 7.18 6.68 10.69
3/26/2021 5:00:00 PM 11.78 53.204 0.194 7.19 7.14 10.69
3/26/2021 5:15:00 PM 11.76 53.168 0.194 7.18 6.98 10.67
3/26/2021 5:30:00 PM 11.72 53.096 0.194 7.17 7.76 10.63
3/26/2021 5:45:00 PM 11.67 53.006 0.194 7.16 7.36 10.61
3/26/2021 6:00:00 PM 11.6 52.88 0.194 7.16 7.31 10.56
3/26/2021 6:15:00 PM 11.5 52.7 0.194 7.14 6.85 10.5
3/26/2021 6:30:00 PM 11.4 52.52 0.194 7.13 6.94 10.43
3/26/2021 6:45:00 PM 11.32 52.376 0.194 7.12 6.94 10.38
3/26/2021 7:00:00 PM 11.24 52.232 0.194 7.11 7.24 10.33
3/26/2021 7:15:00 PM 11.19 52.142 0.194 7.11 7.28 10.27
3/26/2021 7:30:00 PM 11.14 52.052 0.195 7.09 7.03 10.22
3/26/2021 7:45:00 PM 11.09 51.962 0.195 7.08 7.38 10.17
3/26/2021 8:00:00 PM 11.04 51.872 0.195 7.07 7.09 10.12
3/26/2021 8:15:00 PM 10.99 51.782 0.195 7.05 7.22 10.08
3/26/2021 8:30:00 PM 10.95 51.71 0.195 7.05 7.57 10.04
3/26/2021 8:45:00 PM 10.91 51.638 0.195 7.05 7.65 10.02
3/26/2021 9:00:00 PM 10.88 51.584 0.195 7.04 7.97 10
3/26/2021 9:15:00 PM 10.85 51.53 0.195 7.04 7.69 9.99
3/26/2021 9:30:00 PM 10.81 51.458 0.195 7.04 7.55 9.97
3/26/2021 9:45:00 PM 10.79 51.422 0.195 7.03 7.61 9.96
3/26/2021 10:00:00 PM 10.77 51.386 0.195 7.02 7.86 9.95
3/26/2021 10:15:00 PM 10.76 51.368 0.195 7.02 7.57 9.94
3/26/2021 10:30:00 PM 10.76 51.368 0.195 7.03 7.59 9.93
3/26/2021 10:45:00 PM 10.73 51.314 0.195 7.02 7.72 9.92
3/26/2021 11:00:00 PM 10.7 51.26 0.195 7.01 7.36 9.91
3/26/2021 11:15:00 PM 10.66 51.188 0.195 7.01 7.42 9.9
3/26/2021 11:30:00 PM 10.62 51.116 0.196 7 7.32 9.89
3/26/2021 11:45:00 PM 10.57 51.026 0.196 7 8.02 9.89
3/27/2021 12:00:00 AM 10.53 50.954 0.196 7.01 7.41 9.89
3/27/2021 12:15:00 AM 10.48 50.864 0.196 7 7.68 9.89
3/27/2021 12:30:00 AM 10.43 50.774 0.196 7 7.52 9.89
3/27/2021 12:45:00 AM 10.38 50.684 0.196 7.01 7.63 9.89
3/27/2021 1:00:00 AM 10.33 50.594 0.196 7 7.59 9.9
3/27/2021 1:15:00 AM 10.28 50.504 0.197 7.01 7.72 9.9
3/27/2021 1:30:00 AM 10.23 50.414 0.197 7 7.72 9.9
3/27/2021 1:45:00 AM 10.18 50.324 0.197 7.01 8.08 9.91
3/27/2021 2:00:00 AM 10.12 50.216 0.197 7.01 7.79 9.91
3/27/2021 2:15:00 AM 10.07 50.126 0.197 7.01 7.67 9.92
3/27/2021 2:30:00 AM 10.02 50.036 0.197 7 7.84 9.92
3/27/2021 2:45:00 AM 9.98 49.964 0.197 7.01 7.89 9.93
3/27/2021 3:00:00 AM 9.93 49.874 0.198 7 7.59 9.93
3/27/2021 3:15:00 AM 9.88 49.784 0.198 7 7.74 9.94
3/27/2021 3:30:00 AM 9.83 49.694 0.198 7 7.53 9.95
3/27/2021 3:45:00 AM 9.79 49.622 0.198 7.01 7.79 9.96
3/27/2021 4:00:00 AM 9.73 49.514 0.198 7.01 7.96 9.97
3/27/2021 4:15:00 AM 9.68 49.424 0.198 7 7.73 9.97
3/27/2021 4:30:00 AM 9.62 49.316 0.199 7 7.79 9.98
3/27/2021 4:45:00 AM 9.57 49.226 0.199 7 7.66 9.99
3/27/2021 5:00:00 AM 9.52 49.136 0.199 7 7.82 10
3/27/2021 5:15:00 AM 9.47 49.046 0.199 7 7.9 10.01
3/27/2021 5:30:00 AM 9.42 48.956 0.199 7 7.83 10.02
3/27/2021 5:45:00 AM 9.36 48.848 0.199 7 8.24 10.03
3/27/2021 6:00:00 AM 9.3 48.74 0.199 7.01 8.22 10.04
3/27/2021 6:15:00 AM 9.24 48.632 0.199 7 7.97 10.06
3/27/2021 6:30:00 AM 9.19 48.542 0.2 7.01 7.98 10.07
3/27/2021 6:45:00 AM 9.14 48.452 0.199 7 7.47 10.08
3/27/2021 7:00:00 AM 9.09 48.362 0.2 7.01 7.76 10.09
3/27/2021 7:15:00 AM 9.04 48.272 0.199 7.01 8.12 10.12
3/27/2021 7:30:00 AM 8.98 48.164 0.2 7.01 7.15 10.15
3/27/2021 7:45:00 AM 8.94 48.092 0.2 7.01 7.3 10.2
3/27/2021 8:00:00 AM 8.9 48.02 0.2 7.02 7.18 10.27
3/27/2021 8:15:00 AM 8.88 47.984 0.2 7.03 7.44 10.35
3/27/2021 8:30:00 AM 8.88 47.984 0.2 7.04 7.22 10.44
3/27/2021 8:45:00 AM 8.89 48.002 0.2 7.05 7.23 10.52
3/27/2021 9:00:00 AM 8.92 48.056 0.2 7.07 7.31 10.6
3/27/2021 9:15:00 AM 9.02 48.236 0.2 7.08 7.16 10.7
3/27/2021 9:30:00 AM 9.12 48.416 0.2 7.09 7.32 10.76
3/27/2021 9:45:00 AM 9.23 48.614 0.2 7.09 7.33 10.82
3/27/2021 10:00:00 AM 9.35 48.83 0.2 7.11 8.08 10.86
3/27/2021 10:15:00 AM 9.47 49.046 0.2 7.12 7.88 10.9
3/27/2021 10:30:00 AM 9.57 49.226 0.2 7.11 7.7 10.93
3/27/2021 10:45:00 AM 9.76 49.568 0.2 7.14 8.07 10.97
3/27/2021 11:00:00 AM 9.95 49.91 0.2 7.14 7.88 10.99
3/27/2021 11:15:00 AM 10.14 50.252 0.201 7.15 7.52 11.03
3/27/2021 11:30:00 AM 10.31 50.558 0.2 7.15 7.34 11.02
3/27/2021 11:45:00 AM 10.54 50.972 0.2 7.16 7.07 11.05
3/27/2021 12:00:00 PM 10.74 51.332 0.2 7.15 7.01 11.06
3/27/2021 12:15:00 PM 10.94 51.692 0.201 7.13 7.1 11.07
3/27/2021 12:30:00 PM 11.11 51.998 0.2 7.14 7.2 11.08
3/27/2021 12:45:00 PM 11.23 52.214 0.201 7.14 6.86 11.09
3/27/2021 1:00:00 PM 11.36 52.448 0.2 7.15 7.13 11.11
3/27/2021 1:15:00 PM 11.43 52.574 0.201 7.14 7.13 11.12
3/27/2021 1:30:00 PM 11.52 52.736 0.2 7.14 7.61 11.14
3/27/2021 1:45:00 PM 11.59 52.862 0.201 7.16 7.14 11.16
3/27/2021 2:00:00 PM 11.64 52.952 0.2 7.16 7 11.16
3/27/2021 2:15:00 PM 11.69 53.042 0.2 7.16 6.93 11.18
3/27/2021 2:30:00 PM 11.69 53.042 0.2 7.16 7.12 11.18
3/27/2021 2:45:00 PM 11.66 52.988 0.201 7.14 6.92 11.18
3/27/2021 3:00:00 PM 11.63 52.934 0.201 7.15 6.76 11.18
3/27/2021 3:15:00 PM 11.6 52.88 0.2 7.15 6.89 11.17
3/27/2021 3:30:00 PM 11.55 52.79 0.2 7.16 7.16 11.16
3/27/2021 3:45:00 PM 11.52 52.736 0.2 7.16 7.01 11.14
3/27/2021 4:00:00 PM 11.5 52.7 0.201 7.15 7.02 11.13
3/27/2021 4:15:00 PM 11.48 52.664 0.201 7.14 6.81 11.11
3/27/2021 4:30:00 PM 11.47 52.646 0.201 7.14 7.14 11.11
3/27/2021 4:45:00 PM 11.47 52.646 0.201 7.15 6.91 11.1
3/27/2021 5:00:00 PM 11.48 52.664 0.201 7.16 6.94 11.1
3/27/2021 5:15:00 PM 11.46 52.628 0.201 7.15 7.13 11.07
3/27/2021 5:30:00 PM 11.46 52.628 0.201 7.15 6.98 11.05
3/27/2021 5:45:00 PM 11.44 52.592 0.201 7.15 6.83 11.02
3/27/2021 6:00:00 PM 11.41 52.538 0.201 7.14 6.92 10.99
3/27/2021 6:15:00 PM 11.37 52.466 0.201 7.14 7.11 10.94
3/27/2021 6:30:00 PM 11.33 52.394 0.201 7.13 6.67 10.89
3/27/2021 6:45:00 PM 11.27 52.286 0.201 7.12 7.02 10.8
3/27/2021 7:00:00 PM 11.19 52.142 0.202 7.11 6.85 10.69
3/27/2021 7:15:00 PM 11.14 52.052 0.202 7.1 6.72 10.62
3/27/2021 7:30:00 PM 11.09 51.962 0.202 7.09 7.19 10.52
3/27/2021 7:45:00 PM 11.03 51.854 0.203 7.07 6.7 10.43
3/27/2021 8:00:00 PM 10.98 51.764 0.203 7.05 6.86 10.35
3/27/2021 8:15:00 PM 10.93 51.674 0.203 7.05 7.17 10.29
3/27/2021 8:30:00 PM 10.86 51.548 0.203 7.04 7.64 10.24
3/27/2021 8:45:00 PM 10.8 51.44 0.203 7.03 7 10.2
3/27/2021 9:00:00 PM 10.74 51.332 0.203 7.02 7.07 10.17
3/27/2021 9:15:00 PM 10.68 51.224 0.203 7.02 7.51 10.15
3/27/2021 9:30:00 PM 10.62 51.116 0.203 7.02 7.32 10.13
3/27/2021 9:45:00 PM 10.56 51.008 0.204 7.01 7.42 10.12
3/27/2021 10:00:00 PM 10.51 50.918 0.204 7.01 7.07 10.11
3/27/2021 10:15:00 PM 10.45 50.81 0.204 7.01 6.88 10.1
3/27/2021 10:30:00 PM 10.4 50.72 0.204 7.01 7.42 10.09
3/27/2021 10:45:00 PM 10.35 50.63 0.204 7.01 7.43 10.08
3/27/2021 11:00:00 PM 10.3 50.54 0.204 7.01 7.53 10.07
3/27/2021 11:15:00 PM 10.25 50.45 0.204 7.01 7.08 10.07
3/27/2021 11:30:00 PM 10.21 50.378 0.204 7 7.27 10.06
3/27/2021 11:45:00 PM 10.16 50.288 0.204 7 7.05 10.05
3/28/2021 12:00:00 AM 10.12 50.216 0.205 7.01 7.06 10.04
3/28/2021 12:15:00 AM 10.08 50.144 0.204 7 7.36 10.02
3/28/2021 12:30:00 AM 10.03 50.054 0.205 7.01 7.26 10.02
3/28/2021 12:45:00 AM 9.99 49.982 0.205 7.01 7.43 10.01
3/28/2021 1:00:00 AM 9.95 49.91 0.205 7.01 7.92 10
3/28/2021 1:15:00 AM 9.91 49.838 0.205 7.01 7.64 10
3/28/2021 1:30:00 AM 9.87 49.766 0.205 7.01 7.66 9.99
3/28/2021 1:45:00 AM 9.84 49.712 0.205 7.01 8.46 9.99
3/28/2021 2:00:00 AM 9.8 49.64 0.205 7 7.97 9.99
3/28/2021 2:15:00 AM 9.77 49.586 0.205 7.01 7.6 9.98
3/28/2021 2:30:00 AM 9.74 49.532 0.205 7.01 7.54 9.98
3/28/2021 2:45:00 AM 9.71 49.478 0.205 7 7.68 9.98
3/28/2021 3:00:00 AM 9.68 49.424 0.205 7 7.52 9.98
3/28/2021 3:15:00 AM 9.66 49.388 0.205 7 7.42 9.97
3/28/2021 3:30:00 AM 9.63 49.334 0.205 7 7.49 9.97
3/28/2021 3:45:00 AM 9.61 49.298 0.205 7 7.72 9.97
3/28/2021 4:00:00 AM 9.59 49.262 0.205 7 7.31 9.97
3/28/2021 4:15:00 AM 9.56 49.208 0.205 7 7.53 9.96
3/28/2021 4:30:00 AM 9.54 49.172 0.205 7.01 7.41 9.96
3/28/2021 4:45:00 AM 9.51 49.118 0.206 7 7.15 9.97
3/28/2021 5:00:00 AM 9.5 49.1 0.206 7 7.17 9.96
3/28/2021 5:15:00 AM 9.48 49.064 0.205 7 7.56 9.97
3/28/2021 5:30:00 AM 9.46 49.028 0.206 7 7.14 9.97
3/28/2021 5:45:00 AM 9.44 48.992 0.206 7.01 7.45 9.96
3/28/2021 6:00:00 AM 9.43 48.974 0.206 7.01 7.07 9.97
3/28/2021 6:15:00 AM 9.41 48.938 0.206 7 6.89 9.98
3/28/2021 6:30:00 AM 9.39 48.902 0.206 7 7.88 9.99
3/28/2021 6:45:00 AM 9.36 48.848 0.208 7.01 10.51 10
3/28/2021 7:00:00 AM 9.35 48.83 0.206 7.04 26.81 10.02
3/28/2021 7:15:00 AM 9.32 48.776 0.208 7.04 17.53 10.01
3/28/2021 7:30:00 AM 9.3 48.74 0.212 7.03 16.15 9.99
3/28/2021 7:45:00 AM 9.29 48.722 0.21 7.05 18.56 9.98
3/28/2021 8:00:00 AM 9.29 48.722 0.207 7.05 15.12 9.99
3/28/2021 8:15:00 AM 9.3 48.74 0.205 7.04 13.04 9.98
3/28/2021 8:30:00 AM 9.31 48.758 0.205 7.02 12.69 10
3/28/2021 8:45:00 AM 9.31 48.758 0.206 7.01 10.04 10.02
3/28/2021 9:00:00 AM 9.32 48.776 0.206 7.01 9.26 10.07
3/28/2021 9:15:00 AM 9.34 48.812 0.205 7.02 8.83 10.1
3/28/2021 9:30:00 AM 9.37 48.866 0.205 7.02 8.32 10.15
3/28/2021 9:45:00 AM 9.38 48.884 0.206 7.02 7.84 10.17
3/28/2021 10:00:00 AM 9.41 48.938 0.206 7.03 7.68 10.26
3/28/2021 10:15:00 AM 9.43 48.974 0.206 7.04 7.47 10.3
3/28/2021 10:30:00 AM 9.46 49.028 0.206 7.04 7.35 10.34
3/28/2021 10:45:00 AM 9.51 49.118 0.206 7.05 7.53 10.45
3/28/2021 11:00:00 AM 9.59 49.262 0.206 7.07 7.25 10.56
3/28/2021 11:15:00 AM 9.66 49.388 0.206 7.09 7.42 10.62
3/28/2021 11:30:00 AM 9.74 49.532 0.205 7.09 7.11 10.66
3/28/2021 11:45:00 AM 9.77 49.586 0.205 7.09 6.8 10.67
3/28/2021 12:00:00 PM 9.8 49.64 0.204 7.09 7.07 10.67
3/28/2021 12:15:00 PM 9.86 49.748 0.204 7.11 7.04 10.72
3/28/2021 12:30:00 PM 9.9 49.82 0.204 7.11 7.21 10.72
3/28/2021 12:45:00 PM 9.97 49.946 0.204 7.12 7.33 10.76
3/28/2021 1:00:00 PM 10 50 0.204 7.12 7.14 10.74
3/28/2021 1:15:00 PM 10.02 50.036 0.205 7.12 7.14 10.7
3/28/2021 1:30:00 PM 10.02 50.036 0.206 7.13 8.19 10.67
3/28/2021 1:45:00 PM 10.04 50.072 0.205 7.12 7.07 10.66
3/28/2021 2:00:00 PM 10.03 50.054 0.204 7.11 6.87 10.63
3/28/2021 2:15:00 PM 10.08 50.144 0.204 7.12 9.96 10.67
3/28/2021 2:30:00 PM 10.09 50.162 0.203 7.14 9.16 10.68
3/28/2021 2:45:00 PM 10.18 50.324 0.202 7.15 11.59 10.72
3/28/2021 3:00:00 PM 10.2 50.36 0.203 7.17 11.33 10.68
3/28/2021 3:15:00 PM 10.25 50.45 0.202 7.17 11.23 10.73
3/28/2021 3:30:00 PM 10.23 50.414 0.199 7.16 11.09 10.69
3/28/2021 3:45:00 PM 10.24 50.432 0.196 7.18 14.4 10.67
3/28/2021 4:00:00 PM 10.24 50.432 0.195 7.22 26.01 10.58
3/28/2021 4:15:00 PM 10.18 50.324 0.199 7.2 18.4 10.62
3/28/2021 4:30:00 PM 10.16 50.288 0.197 7.21 20.16 10.61
3/28/2021 4:45:00 PM 10.08 50.144 0.196 7.19 17.47 10.57
3/28/2021 5:00:00 PM 10.06 50.108 0.196 7.18 16.13 10.63
3/28/2021 5:15:00 PM 10.08 50.144 0.196 7.18 13.81 10.71
3/28/2021 5:30:00 PM 10.09 50.162 0.197 7.17 12.56 10.73
3/28/2021 5:45:00 PM 10.02 50.036 0.198 7.17 11.98 10.69
3/28/2021 6:00:00 PM 9.96 49.928 0.2 7.17 12.55 10.69
3/28/2021 6:15:00 PM 9.87 49.766 0.201 7.16 12.98 10.65
3/28/2021 6:30:00 PM 9.76 49.568 0.202 7.16 12.65 10.62
3/28/2021 6:45:00 PM 9.65 49.37 0.202 7.15 13.02 10.57
3/28/2021 7:00:00 PM 9.52 49.136 0.204 7.15 12.98 10.54
3/28/2021 7:15:00 PM 9.42 48.956 0.203 7.15 13.1 10.51
3/28/2021 7:30:00 PM 9.32 48.776 0.203 7.15 15.54 10.48
3/28/2021 7:45:00 PM 9.25 48.65 0.201 7.14 15.28 10.45
3/28/2021 8:00:00 PM 9.16 48.488 0.2 7.14 15.5 10.43
3/28/2021 8:15:00 PM 9.1 48.38 0.198 7.14 16.24 10.41
3/28/2021 8:30:00 PM 9.06 48.308 0.196 7.13 16.78 10.4
3/28/2021 8:45:00 PM 9.01 48.218 0.194 7.14 18.05 10.4
3/28/2021 9:00:00 PM 8.97 48.146 0.193 7.14 18.34 10.39
3/28/2021 9:15:00 PM 8.92 48.056 0.191 7.14 19.52 10.4
3/28/2021 9:30:00 PM 8.89 48.002 0.189 7.14 17.25 10.39
3/28/2021 9:45:00 PM 8.83 47.894 0.188 7.13 16.78 10.4
3/28/2021 10:00:00 PM 8.8 47.84 0.187 7.12 16.15 10.39
3/28/2021 10:15:00 PM 8.77 47.786 0.186 7.12 15.75 10.39
3/28/2021 10:30:00 PM 8.73 47.714 0.185 7.11 16.13 10.39
3/28/2021 10:45:00 PM 8.7 47.66 0.185 7.11 16.24 10.38
3/28/2021 11:00:00 PM 8.66 47.588 0.185 7.11 14.7 10.39
3/28/2021 11:15:00 PM 8.62 47.516 0.184 7.1 15.18 10.39
3/28/2021 11:30:00 PM 8.59 47.462 0.184 7.11 16.31 10.39
3/28/2021 11:45:00 PM 8.52 47.336 0.184 7.1 14.48 10.39
3/29/2021 12:00:00 AM 8.46 47.228 0.184 7.1 13.96 10.4
3/29/2021 12:15:00 AM 8.4 47.12 0.183 7.1 14.61 10.4
3/29/2021 12:30:00 AM 8.35 47.03 0.182 7.1 15.02 10.42
3/29/2021 12:45:00 AM 8.31 46.958 0.182 7.09 14.65 10.42
3/29/2021 1:00:00 AM 8.26 46.868 0.181 7.09 14.39 10.43
3/29/2021 1:15:00 AM 8.21 46.778 0.18 7.09 15.03 10.44
3/29/2021 1:30:00 AM 8.16 46.688 0.178 7.07 15.51 10.45
3/29/2021 1:45:00 AM 8.12 46.616 0.179 7.07 15.84 10.45
3/29/2021 2:00:00 AM 8.07 46.526 0.178 7.08 16.21 10.47
3/29/2021 2:15:00 AM 8.02 46.436 0.178 7.08 16.84 10.47
3/29/2021 2:30:00 AM 7.97 46.346 0.178 7.08 17.23 10.48
3/29/2021 2:45:00 AM 7.92 46.256 0.177 7.08 19.81 10.49
3/29/2021 3:00:00 AM 7.88 46.184 0.176 7.09 17.58 10.5
3/29/2021 3:15:00 AM 7.82 46.076 0.176 7.08 17.89 10.51
3/29/2021 3:30:00 AM 7.73 45.914 0.175 7.07 18.11 10.53
3/29/2021 3:45:00 AM 7.67 45.806 0.175 7.08 17.51 10.53
3/29/2021 4:00:00 AM 7.62 45.716 0.175 7.07 18.05 10.55
3/29/2021 4:15:00 AM 7.59 45.662 0.175 7.08 17.82 10.56
3/29/2021 4:30:00 AM 7.53 45.554 0.175 7.08 17.95 10.57
3/29/2021 4:45:00 AM 7.47 45.446 0.175 7.08 16.78 10.58
3/29/2021 5:00:00 AM 7.42 45.356 0.175 7.09 17.55 10.6
3/29/2021 5:15:00 AM 7.38 45.284 0.175 7.09 16.88 10.61
3/29/2021 5:30:00 AM 7.34 45.212 0.175 7.09 16.73 10.63
3/29/2021 5:45:00 AM 7.32 45.176 0.176 7.09 17.06 10.64
3/29/2021 6:00:00 AM 7.28 45.104 0.176 7.09 16.63 10.65
3/29/2021 6:15:00 AM 7.23 45.014 0.176 7.1 17.35 10.66
3/29/2021 6:30:00 AM 7.2 44.96 0.176 7.09 16.07 10.67
3/29/2021 6:45:00 AM 7.16 44.888 0.177 7.1 15.64 10.68
3/29/2021 7:00:00 AM 7.11 44.798 0.177 7.09 16.05 10.7
3/29/2021 7:15:00 AM 7.07 44.726 0.177 7.09 15.87 10.71
3/29/2021 7:30:00 AM 7.04 44.672 0.177 7.09 15.96 10.73
3/29/2021 7:45:00 AM 7.01 44.618 0.177 7.1 15.43 10.76
3/29/2021 8:00:00 AM 6.98 44.564 0.178 7.11 15.54 10.8
3/29/2021 8:15:00 AM 6.96 44.528 0.178 7.1 15.54 10.84
3/29/2021 8:30:00 AM 6.95 44.51 0.178 7.1 15.14 10.88
3/29/2021 8:45:00 AM 6.92 44.456 0.179 7.11 15.76 10.95
3/29/2021 9:00:00 AM 6.92 44.456 0.179 7.11 14.77 11
3/29/2021 9:15:00 AM 6.9 44.42 0.18 7.12 14.85 11.04
3/29/2021 9:30:00 AM 6.92 44.456 0.18 7.13 14.69 11.09
3/29/2021 9:45:00 AM 6.92 44.456 0.18 7.13 15.01 11.14
3/29/2021 10:00:00 AM 6.92 44.456 0.181 7.14 14.06 11.17
3/29/2021 10:15:00 AM 6.93 44.474 0.181 7.13 14.32 11.22
3/29/2021 10:30:00 AM 6.95 44.51 0.181 7.15 14.54 11.26
3/29/2021 10:45:00 AM 7.01 44.618 0.181 7.15 13.87 11.3
3/29/2021 11:00:00 AM 7.13 44.834 0.182 7.17 15.18 11.33
3/29/2021 11:15:00 AM 7.27 45.086 0.182 7.17 14.21 11.35
3/29/2021 11:30:00 AM 7.43 45.374 0.182 7.18 14.02 11.38
3/29/2021 11:45:00 AM 7.53 45.554 0.183 7.19 14.03 11.41
3/29/2021 12:00:00 PM 7.62 45.716 0.183 7.19 14.43 11.41
3/29/2021 12:15:00 PM 7.77 45.986 0.184 7.19 14.93 11.44
3/29/2021 12:30:00 PM 7.84 46.112 0.184 7.2 15.37 11.45
3/29/2021 12:45:00 PM 7.95 46.31 0.184 7.2 14.96 11.47
3/29/2021 1:00:00 PM 8.09 46.562 0.185 7.21 14.42 11.49
3/29/2021 1:15:00 PM 8.15 46.67 0.185 7.2 14.73 11.49
3/29/2021 1:30:00 PM 8.24 46.832 0.185 7.2 15.02 11.52
3/29/2021 1:45:00 PM 8.4 47.12 0.185 7.22 14.64 11.53
3/29/2021 2:00:00 PM 8.52 47.336 0.186 7.22 14.88 11.54
3/29/2021 2:15:00 PM 8.68 47.624 0.185 7.23 15.02 11.55
3/29/2021 2:30:00 PM 8.79 47.822 0.186 7.23 14.76 11.56
3/29/2021 2:45:00 PM 8.9 48.02 0.185 7.22 14.5 11.57
3/29/2021 3:00:00 PM 9 48.2 0.185 7.23 14.64 11.57
3/29/2021 3:15:00 PM 9.07 48.326 0.185 7.22 14.57 11.57
3/29/2021 3:30:00 PM 9.13 48.434 0.185 7.22 14.09 11.57
3/29/2021 3:45:00 PM 9.17 48.506 0.185 7.22 14.31 11.58
3/29/2021 4:00:00 PM 9.21 48.578 0.185 7.22 14.35 11.57
3/29/2021 4:15:00 PM 9.23 48.614 0.184 7.22 14.14 11.57
3/29/2021 4:30:00 PM 9.23 48.614 0.185 7.21 13.96 11.56
3/29/2021 4:45:00 PM 9.19 48.542 0.184 7.21 14.11 11.55
3/29/2021 5:00:00 PM 9.15 48.47 0.184 7.2 14.42 11.54
3/29/2021 5:15:00 PM 9.09 48.362 0.185 7.19 13.64 11.51
3/29/2021 5:30:00 PM 9.01 48.218 0.185 7.19 13.35 11.5
3/29/2021 5:45:00 PM 8.9 48.02 0.185 7.18 14.21 11.47
3/29/2021 6:00:00 PM 8.79 47.822 0.185 7.17 13.54 11.43
3/29/2021 6:15:00 PM 8.67 47.606 0.185 7.17 13.85 11.38
3/29/2021 6:30:00 PM 8.55 47.39 0.185 7.15 13 11.33
3/29/2021 6:45:00 PM 8.44 47.192 0.185 7.14 12.81 11.28
3/29/2021 7:00:00 PM 8.33 46.994 0.186 7.13 13.2 11.24
3/29/2021 7:15:00 PM 8.23 46.814 0.186 7.11 13.3 11.21
3/29/2021 7:30:00 PM 8.14 46.652 0.186 7.1 12.79 11.16
3/29/2021 7:45:00 PM 8.06 46.508 0.186 7.08 12.7 11.12
3/29/2021 8:00:00 PM 7.98 46.364 0.186 7.08 13.27 11.09
3/29/2021 8:15:00 PM 7.92 46.256 0.186 7.07 12.36 11.07
3/29/2021 8:30:00 PM 7.85 46.13 0.187 7.07 12.64 11.05
3/29/2021 8:45:00 PM 7.8 46.04 0.187 7.08 12.23 11.04
3/29/2021 9:00:00 PM 7.75 45.95 0.187 7.08 12.3 11.03
3/29/2021 9:15:00 PM 7.7 45.86 0.187 7.07 12.29 11.01
3/29/2021 9:30:00 PM 7.66 45.788 0.187 7.07 12.18 11
3/29/2021 9:45:00 PM 7.62 45.716 0.187 7.07 11.93 11
3/29/2021 10:00:00 PM 7.58 45.644 0.187 7.07 12.48 10.99
3/29/2021 10:15:00 PM 7.55 45.59 0.187 7.06 12.59 10.99
3/29/2021 10:30:00 PM 7.51 45.518 0.187 7.05 12.48 10.99
3/29/2021 10:45:00 PM 7.48 45.464 0.187 7.06 12.52 10.99
3/29/2021 11:00:00 PM 7.44 45.392 0.187 7.06 12.3 10.98
3/29/2021 11:15:00 PM 7.4 45.32 0.187 7.05 11.84 10.97
3/29/2021 11:30:00 PM 7.36 45.248 0.187 7.05 12.16 10.97
3/29/2021 11:45:00 PM 7.32 45.176 0.187 7.05 11.79 10.97
3/30/2021 12:00:00 AM 7.27 45.086 0.187 7.05 11.41 10.96
3/30/2021 12:15:00 AM 7.22 44.996 0.187 7.05 12.31 10.96
3/30/2021 12:30:00 AM 7.17 44.906 0.187 7.05 11.48 10.96
3/30/2021 12:45:00 AM 7.11 44.798 0.187 7.04 10.87 10.97
3/30/2021 1:00:00 AM 7.05 44.69 0.187 7.04 11.03 10.98
3/30/2021 1:15:00 AM 7 44.6 0.187 7.04 10.84 10.98
3/30/2021 1:30:00 AM 6.94 44.492 0.187 7.04 10.94 11
3/30/2021 1:45:00 AM 6.88 44.384 0.188 7.04 10.7 11
3/30/2021 2:00:00 AM 6.82 44.276 0.187 7.04 10.91 11.01
3/30/2021 2:15:00 AM 6.75 44.15 0.188 7.04 10.62 11.02
3/30/2021 2:30:00 AM 6.69 44.042 0.188 7.04 10.23 11.03
3/30/2021 2:45:00 AM 6.63 43.934 0.179 7.06 10.21 11.04
3/30/2021 3:00:00 AM 6.57 43.826 0.188 7.07 10.5 11.05
3/30/2021 3:15:00 AM 6.51 43.718 0.188 7.06 10.01 11.06
3/30/2021 3:30:00 AM 6.46 43.628 0.188 7.06 9.82 11.07
3/30/2021 3:45:00 AM 6.4 43.52 0.188 7.05 10.45 11.08
3/30/2021 4:00:00 AM 6.34 43.412 0.188 7.06 10.16 11.1
3/30/2021 4:15:00 AM 6.29 43.322 0.188 7.05 9.98 11.1
3/30/2021 4:30:00 AM 6.24 43.232 0.188 7.05 9.77 11.11
3/30/2021 4:45:00 AM 6.18 43.124 0.188 7.06 9.82 11.12
3/30/2021 5:00:00 AM 6.13 43.034 0.188 7.05 10 11.13
3/30/2021 5:15:00 AM 6.09 42.962 0.188 7.06 9.56 11.14
3/30/2021 5:30:00 AM 6.04 42.872 0.188 7.06 9.33 11.15
3/30/2021 5:45:00 AM 5.99 42.782 0.188 7.07 9.22 11.16
3/30/2021 6:00:00 AM 5.94 42.692 0.188 7.06 9.79 11.17
3/30/2021 6:15:00 AM 5.9 42.62 0.188 7.05 9.39 11.18
3/30/2021 6:30:00 AM 5.86 42.548 0.188 7.05 9.15 11.18
3/30/2021 6:45:00 AM 5.81 42.458 0.188 7.04 9.14 11.19
3/30/2021 7:00:00 AM 5.77 42.386 0.189 7.05 9.35 11.2
3/30/2021 7:15:00 AM 5.73 42.314 0.189 7.05 8.96 11.23
3/30/2021 7:30:00 AM 5.7 42.26 0.189 7.05 8.91 11.26
3/30/2021 7:45:00 AM 5.67 42.206 0.189 7.05 8.9 11.29
3/30/2021 8:00:00 AM 5.66 42.188 0.189 7.07 8.78 11.35
3/30/2021 8:15:00 AM 5.66 42.188 0.189 7.08 8.98 11.41
3/30/2021 8:30:00 AM 5.66 42.188 0.189 7.08 8.68 11.46
3/30/2021 8:45:00 AM 5.68 42.224 0.189 7.09 8.65 11.51
3/30/2021 9:00:00 AM 5.73 42.314 0.189 7.1 8.47 11.57
3/30/2021 9:15:00 AM 5.82 42.476 0.189 7.1 8.3 11.63
3/30/2021 9:30:00 AM 5.92 42.656 0.189 7.12 8.1 11.67
3/30/2021 9:45:00 AM 6.04 42.872 0.189 7.14 8.26 11.7
3/30/2021 10:00:00 AM 6.17 43.106 0.189 7.13 7.95 11.73
3/30/2021 10:15:00 AM 6.32 43.376 0.189 7.15 8.24 11.74
3/30/2021 10:30:00 AM 6.48 43.664 0.189 7.15 7.93 11.77
3/30/2021 10:45:00 AM 6.66 43.988 0.189 7.15 7.84 11.78
3/30/2021 11:00:00 AM 6.84 44.312 0.189 7.16 7.97 11.79
3/30/2021 11:15:00 AM 7.01 44.618 0.189 7.16 7.72 11.8
3/30/2021 11:30:00 AM 7.2 44.96 0.189 7.16 7.46 11.81
3/30/2021 11:45:00 AM 7.38 45.284 0.189 7.17 7.52 11.81
3/30/2021 12:00:00 PM 7.56 45.608 0.189 7.17 7.4 11.82
3/30/2021 12:15:00 PM 7.75 45.95 0.189 7.17 7.15 11.82
3/30/2021 12:30:00 PM 7.93 46.274 0.189 7.18 7.52 11.82
3/30/2021 12:45:00 PM 8.11 46.598 0.189 7.17 7.45 11.82
3/30/2021 1:00:00 PM 8.3 46.94 0.189 7.18 7.32 11.82
3/30/2021 1:15:00 PM 8.47 47.246 0.189 7.18 7.25 11.82
3/30/2021 1:30:00 PM 8.65 47.57 0.189 7.16 7.26 11.81
3/30/2021 1:45:00 PM 8.82 47.876 0.189 7.17 7.22 11.81
3/30/2021 2:00:00 PM 9 48.2 0.189 7.19 7.44 11.8
3/30/2021 2:15:00 PM 9.15 48.47 0.189 7.18 7.1 11.8
3/30/2021 2:30:00 PM 9.31 48.758 0.189 7.2 7.11 11.8
3/30/2021 2:45:00 PM 9.46 49.028 0.189 7.2 6.97 11.79
3/30/2021 3:00:00 PM 9.59 49.262 0.189 7.2 7.16 11.78
3/30/2021 3:15:00 PM 9.72 49.496 0.189 7.2 7.19 11.77
3/30/2021 3:30:00 PM 9.79 49.622 0.189 7.2 6.99 11.75
3/30/2021 3:45:00 PM 9.86 49.748 0.189 7.2 10.3 11.74
3/30/2021 4:00:00 PM 9.92 49.856 0.189 7.19 7.03 11.73
3/30/2021 4:15:00 PM 9.96 49.928 0.189 7.18 6.99 11.71
3/30/2021 4:30:00 PM 9.97 49.946 0.189 7.18 7.31 11.68
3/30/2021 4:45:00 PM 9.96 49.928 0.189 7.17 6.87 11.67
3/30/2021 5:00:00 PM 9.93 49.874 0.189 7.17 6.74 11.65
3/30/2021 5:15:00 PM 9.88 49.784 0.189 7.17 7.09 11.62
3/30/2021 5:30:00 PM 9.84 49.712 0.19 7.16 7.09 11.59
3/30/2021 5:45:00 PM 9.77 49.586 0.189 7.16 6.93 11.56
3/30/2021 6:00:00 PM 9.7 49.46 0.19 7.16 6.95 11.52
3/30/2021 6:15:00 PM 9.6 49.28 0.19 7.14 6.77 11.45
3/30/2021 6:30:00 PM 9.49 49.082 0.19 7.13 6.9 11.38
3/30/2021 6:45:00 PM 9.39 48.902 0.19 7.12 6.75 11.32
3/30/2021 7:00:00 PM 9.32 48.776 0.19 7.12 6.83 11.27
3/30/2021 7:15:00 PM 9.24 48.632 0.19 7.12 6.75 11.21
3/30/2021 7:30:00 PM 9.15 48.47 0.191 7.1 6.8 11.13
3/30/2021 7:45:00 PM 9.07 48.326 0.191 7.09 6.69 11.06
3/30/2021 8:00:00 PM 9 48.2 0.191 7.07 6.9 10.99
3/30/2021 8:15:00 PM 8.94 48.092 0.191 7.07 6.65 10.94
3/30/2021 8:30:00 PM 8.89 48.002 0.191 7.06 7.06 10.9
3/30/2021 8:45:00 PM 8.85 47.93 0.191 7.06 6.95 10.87
3/30/2021 9:00:00 PM 8.83 47.894 0.191 7.06 6.9 10.84
3/30/2021 9:15:00 PM 8.81 47.858 0.191 7.05 7.05 10.82
3/30/2021 9:30:00 PM 8.8 47.84 0.191 7.05 6.75 10.79
3/30/2021 9:45:00 PM 8.8 47.84 0.191 7.05 7.05 10.76
3/30/2021 10:00:00 PM 8.8 47.84 0.191 7.05 6.84 10.74
3/30/2021 10:15:00 PM 8.8 47.84 0.191 7.05 7.15 10.72
3/30/2021 10:30:00 PM 8.79 47.822 0.191 7.05 7.25 10.7
3/30/2021 10:45:00 PM 8.78 47.804 0.191 7.03 6.97 10.68
3/30/2021 11:00:00 PM 8.77 47.786 0.191 7.03 7.04 10.66
3/30/2021 11:15:00 PM 8.77 47.786 0.191 7.04 6.93 10.65
3/30/2021 11:30:00 PM 8.75 47.75 0.191 7.03 6.9 10.62
3/30/2021 11:45:00 PM 8.74 47.732 0.191 7.03 6.84 10.61
3/31/2021 12:00:00 AM 8.72 47.696 0.191 7.04 6.93 10.6
3/31/2021 12:15:00 AM 8.71 47.678 0.191 7.03 6.91 10.59
3/31/2021 12:30:00 AM 8.69 47.642 0.192 7.02 7.26 10.56
3/31/2021 12:45:00 AM 8.68 47.624 0.191 7.02 6.91 10.55
3/31/2021 1:00:00 AM 8.66 47.588 0.192 7.01 6.97 10.54
3/31/2021 1:15:00 AM 8.64 47.552 0.192 7.02 6.93 10.54
3/31/2021 1:30:00 AM 8.62 47.516 0.192 7.03 7.08 10.54
3/31/2021 1:45:00 AM 8.6 47.48 0.192 7.03 7.06 10.53
3/31/2021 2:00:00 AM 8.58 47.444 0.192 7.02 7.06 10.53
3/31/2021 2:15:00 AM 8.55 47.39 0.192 7.02 6.85 10.53
3/31/2021 2:30:00 AM 8.53 47.354 0.192 7.02 6.96 10.53
3/31/2021 2:45:00 AM 8.5 47.3 0.192 7.01 7 10.52
3/31/2021 3:00:00 AM 8.47 47.246 0.192 7.01 7.1 10.52
3/31/2021 3:15:00 AM 8.45 47.21 0.192 7.02 6.9 10.52
3/31/2021 3:30:00 AM 8.42 47.156 0.192 7.02 6.94 10.51
3/31/2021 3:45:00 AM 8.4 47.12 0.192 7.01 6.77 10.52
3/31/2021 4:00:00 AM 8.38 47.084 0.192 7.02 6.9 10.51
3/31/2021 4:15:00 AM 8.35 47.03 0.192 7.01 7.22 10.51
3/31/2021 4:30:00 AM 8.33 46.994 0.192 7 6.9 10.51
3/31/2021 4:45:00 AM 8.31 46.958 0.192 7.01 7.13 10.5
3/31/2021 5:00:00 AM 8.29 46.922 0.192 7.01 6.82 10.5
3/31/2021 5:15:00 AM 8.27 46.886 0.192 7.01 6.96 10.5
3/31/2021 5:30:00 AM 8.25 46.85 0.192 7.01 7.14 10.5
3/31/2021 5:45:00 AM 8.22 46.796 0.192 7.01 6.99 10.5
3/31/2021 6:00:00 AM 8.2 46.76 0.192 7 6.94 10.5
3/31/2021 6:15:00 AM 8.19 46.742 0.192 7 6.65 10.49
3/31/2021 6:30:00 AM 8.18 46.724 0.193 7 6.77 10.49
3/31/2021 6:45:00 AM 8.17 46.706 0.192 7.01 6.81 10.48
3/31/2021 7:00:00 AM 8.17 46.706 0.192 7 7.07 10.48
3/31/2021 7:15:00 AM 8.16 46.688 0.192 7 6.7 10.49
3/31/2021 7:30:00 AM 8.16 46.688 0.192 7.01 6.72 10.49
3/31/2021 7:45:00 AM 8.17 46.706 0.192 7 6.74 10.5
3/31/2021 8:00:00 AM 8.18 46.724 0.192 7 6.78 10.51
3/31/2021 8:15:00 AM 8.18 46.724 0.192 7.01 7.05 10.52
3/31/2021 8:30:00 AM 8.2 46.76 0.192 7.01 7.38 10.53
3/31/2021 8:45:00 AM 8.22 46.796 0.194 7.03 10.47 10.55
3/31/2021 9:00:00 AM 8.24 46.832 0.193 7.04 11.17 10.55
3/31/2021 9:15:00 AM 8.25 46.85 0.195 7.03 11.21 10.56
3/31/2021 9:30:00 AM 8.27 46.886 0.195 7.04 12.18 10.55
3/31/2021 9:45:00 AM 8.3 46.94 0.192 7.06 13.66 10.57
3/31/2021 10:00:00 AM 8.32 46.976 0.191 7.06 11.8 10.63
3/31/2021 10:15:00 AM 8.34 47.012 0.191 7.06 11.28 10.63
3/31/2021 10:30:00 AM 8.36 47.048 0.19 7.06 10.56 10.67
3/31/2021 10:45:00 AM 8.39 47.102 0.19 7.06 10.2 10.72
3/31/2021 11:00:00 AM 8.41 47.138 0.191 7.05 9.19 10.72
3/31/2021 11:15:00 AM 8.43 47.174 0.191 7.05 8.2 10.75
3/31/2021 11:30:00 AM 8.47 47.246 0.191 7.06 8 10.8
3/31/2021 11:45:00 AM 8.51 47.318 0.191 7.06 7.69 10.85
3/31/2021 12:00:00 PM 8.56 47.408 0.191 7.08 7.52 10.88
3/31/2021 12:15:00 PM 8.59 47.462 0.191 7.07 7.16